<?xml version="1.0" encoding="UTF-8" standalone="no" ?>
<gpx xmlns="http://www.topografix.com/GPX/1/1" xmlns:xsi="http://www.w3.org/2001/XMLSchema-instance" xsi:schemaLocation="http://www.topografix.com/GPX/1/1 http://www.topografix.com/GPX/1/1/gpx.xsd" version="1.1" creator="VisuGPX - https://www.visugpx.com">
  <metadata>
    <name>2015-06-24 - Kaiserstuhl, Badberg</name>
    <desc><![CDATA[2015-06-24 - Kaiserstuhl, Badberg - CvColmar, 21 participants, guide : Denis Vouin]]></desc>
  </metadata>
  <trk>
    <name><![CDATA[JUIN-24-15 15:58:53]]></name>
    <trkseg>
      <trkpt lat="48.09239" lon="7.67319">
        <ele>287.09</ele>
        <time>2015-06-24T07:24:16Z</time>
      </trkpt>
      <trkpt lat="48.09239" lon="7.67319">
        <ele>282.28</ele>
        <time>2015-06-24T07:24:36Z</time>
      </trkpt>
      <trkpt lat="48.09239" lon="7.67319">
        <ele>287.09</ele>
        <time>2015-06-24T07:24:37Z</time>
      </trkpt>
      <trkpt lat="48.09239" lon="7.67319">
        <ele>291.9</ele>
        <time>2015-06-24T07:24:47Z</time>
      </trkpt>
      <trkpt lat="48.09239" lon="7.67319">
        <ele>291.9</ele>
        <time>2015-06-24T07:24:48Z</time>
      </trkpt>
      <trkpt lat="48.09239" lon="7.67319">
        <ele>295.26</ele>
        <time>2015-06-24T07:25:09Z</time>
      </trkpt>
      <trkpt lat="48.09239" lon="7.67319">
        <ele>292.38</ele>
        <time>2015-06-24T07:25:10Z</time>
      </trkpt>
      <trkpt lat="48.0924" lon="7.6732">
        <ele>291.9</ele>
        <time>2015-06-24T07:25:27Z</time>
      </trkpt>
      <trkpt lat="48.09239" lon="7.67322">
        <ele>290.94</ele>
        <time>2015-06-24T07:25:50Z</time>
      </trkpt>
      <trkpt lat="48.09238" lon="7.67324">
        <ele>291.9</ele>
        <time>2015-06-24T07:28:45Z</time>
      </trkpt>
      <trkpt lat="48.09236" lon="7.67328">
        <ele>291.9</ele>
        <time>2015-06-24T07:28:56Z</time>
      </trkpt>
      <trkpt lat="48.09243" lon="7.67324">
        <ele>292.38</ele>
        <time>2015-06-24T07:29:16Z</time>
      </trkpt>
      <trkpt lat="48.09247" lon="7.67329">
        <ele>292.38</ele>
        <time>2015-06-24T07:29:27Z</time>
      </trkpt>
      <trkpt lat="48.09245" lon="7.6735">
        <ele>292.38</ele>
        <time>2015-06-24T07:29:48Z</time>
      </trkpt>
      <trkpt lat="48.09245" lon="7.6735">
        <ele>292.38</ele>
        <time>2015-06-24T07:30:14Z</time>
      </trkpt>
      <trkpt lat="48.09245" lon="7.6735">
        <ele>292.38</ele>
        <time>2015-06-24T07:30:47Z</time>
      </trkpt>
      <trkpt lat="48.09246" lon="7.67351">
        <ele>291.9</ele>
        <time>2015-06-24T07:31:27Z</time>
      </trkpt>
      <trkpt lat="48.09246" lon="7.6735">
        <ele>291.9</ele>
        <time>2015-06-24T07:33:32Z</time>
      </trkpt>
      <trkpt lat="48.09247" lon="7.67348">
        <ele>291.42</ele>
        <time>2015-06-24T07:34:27Z</time>
      </trkpt>
      <trkpt lat="48.09246" lon="7.67346">
        <ele>291.42</ele>
        <time>2015-06-24T07:34:33Z</time>
      </trkpt>
      <trkpt lat="48.09249" lon="7.67353">
        <ele>291.42</ele>
        <time>2015-06-24T07:34:47Z</time>
      </trkpt>
      <trkpt lat="48.09248" lon="7.67364">
        <ele>291.42</ele>
        <time>2015-06-24T07:34:54Z</time>
      </trkpt>
      <trkpt lat="48.09249" lon="7.67386">
        <ele>292.38</ele>
        <time>2015-06-24T07:35:11Z</time>
      </trkpt>
      <trkpt lat="48.09249" lon="7.67404">
        <ele>293.34</ele>
        <time>2015-06-24T07:35:22Z</time>
      </trkpt>
      <trkpt lat="48.09251" lon="7.67416">
        <ele>293.34</ele>
        <time>2015-06-24T07:35:29Z</time>
      </trkpt>
      <trkpt lat="48.09258" lon="7.67441">
        <ele>294.78</ele>
        <time>2015-06-24T07:35:45Z</time>
      </trkpt>
      <trkpt lat="48.09264" lon="7.67465">
        <ele>295.26</ele>
        <time>2015-06-24T07:36:00Z</time>
      </trkpt>
      <trkpt lat="48.09269" lon="7.67492">
        <ele>295.74</ele>
        <time>2015-06-24T07:36:16Z</time>
      </trkpt>
      <trkpt lat="48.09272" lon="7.67505">
        <ele>296.22</ele>
        <time>2015-06-24T07:36:30Z</time>
      </trkpt>
      <trkpt lat="48.09273" lon="7.67507">
        <ele>296.22</ele>
        <time>2015-06-24T07:36:38Z</time>
      </trkpt>
      <trkpt lat="48.09271" lon="7.6753">
        <ele>296.22</ele>
        <time>2015-06-24T07:36:54Z</time>
      </trkpt>
      <trkpt lat="48.09266" lon="7.67563">
        <ele>297.18</ele>
        <time>2015-06-24T07:37:14Z</time>
      </trkpt>
      <trkpt lat="48.09267" lon="7.67586">
        <ele>298.15</ele>
        <time>2015-06-24T07:37:28Z</time>
      </trkpt>
      <trkpt lat="48.09271" lon="7.67609">
        <ele>298.63</ele>
        <time>2015-06-24T07:37:47Z</time>
      </trkpt>
      <trkpt lat="48.09272" lon="7.67631">
        <ele>299.11</ele>
        <time>2015-06-24T07:38:03Z</time>
      </trkpt>
      <trkpt lat="48.09273" lon="7.67638">
        <ele>299.59</ele>
        <time>2015-06-24T07:38:07Z</time>
      </trkpt>
      <trkpt lat="48.09272" lon="7.6765">
        <ele>299.59</ele>
        <time>2015-06-24T07:38:15Z</time>
      </trkpt>
      <trkpt lat="48.09273" lon="7.67681">
        <ele>300.55</ele>
        <time>2015-06-24T07:38:32Z</time>
      </trkpt>
      <trkpt lat="48.09274" lon="7.67691">
        <ele>301.03</ele>
        <time>2015-06-24T07:38:39Z</time>
      </trkpt>
      <trkpt lat="48.09279" lon="7.67717">
        <ele>301.51</ele>
        <time>2015-06-24T07:38:55Z</time>
      </trkpt>
      <trkpt lat="48.09282" lon="7.67748">
        <ele>302.95</ele>
        <time>2015-06-24T07:39:13Z</time>
      </trkpt>
      <trkpt lat="48.09283" lon="7.6775">
        <ele>302.95</ele>
        <time>2015-06-24T07:39:14Z</time>
      </trkpt>
      <trkpt lat="48.09286" lon="7.67764">
        <ele>303.91</ele>
        <time>2015-06-24T07:39:22Z</time>
      </trkpt>
      <trkpt lat="48.09288" lon="7.67772">
        <ele>304.39</ele>
        <time>2015-06-24T07:39:27Z</time>
      </trkpt>
      <trkpt lat="48.09289" lon="7.67782">
        <ele>304.88</ele>
        <time>2015-06-24T07:39:33Z</time>
      </trkpt>
      <trkpt lat="48.09299" lon="7.67811">
        <ele>306.32</ele>
        <time>2015-06-24T07:39:51Z</time>
      </trkpt>
      <trkpt lat="48.093" lon="7.67815">
        <ele>305.84</ele>
        <time>2015-06-24T07:39:53Z</time>
      </trkpt>
      <trkpt lat="48.093" lon="7.67848">
        <ele>307.76</ele>
        <time>2015-06-24T07:40:13Z</time>
      </trkpt>
      <trkpt lat="48.09301" lon="7.67852">
        <ele>307.76</ele>
        <time>2015-06-24T07:40:15Z</time>
      </trkpt>
      <trkpt lat="48.09307" lon="7.67861">
        <ele>308.24</ele>
        <time>2015-06-24T07:40:22Z</time>
      </trkpt>
      <trkpt lat="48.09316" lon="7.67875">
        <ele>309.2</ele>
        <time>2015-06-24T07:40:34Z</time>
      </trkpt>
      <trkpt lat="48.09317" lon="7.67877">
        <ele>308.72</ele>
        <time>2015-06-24T07:40:36Z</time>
      </trkpt>
      <trkpt lat="48.0932" lon="7.67881">
        <ele>310.16</ele>
        <time>2015-06-24T07:40:39Z</time>
      </trkpt>
      <trkpt lat="48.09322" lon="7.67885">
        <ele>310.16</ele>
        <time>2015-06-24T07:40:42Z</time>
      </trkpt>
      <trkpt lat="48.09324" lon="7.67892">
        <ele>310.64</ele>
        <time>2015-06-24T07:40:47Z</time>
      </trkpt>
      <trkpt lat="48.09324" lon="7.67895">
        <ele>310.64</ele>
        <time>2015-06-24T07:40:50Z</time>
      </trkpt>
      <trkpt lat="48.09333" lon="7.67914">
        <ele>312.09</ele>
        <time>2015-06-24T07:41:05Z</time>
      </trkpt>
      <trkpt lat="48.09336" lon="7.67937">
        <ele>312.57</ele>
        <time>2015-06-24T07:41:22Z</time>
      </trkpt>
      <trkpt lat="48.09338" lon="7.67945">
        <ele>313.53</ele>
        <time>2015-06-24T07:41:27Z</time>
      </trkpt>
      <trkpt lat="48.09342" lon="7.67967">
        <ele>314.97</ele>
        <time>2015-06-24T07:41:43Z</time>
      </trkpt>
      <trkpt lat="48.09345" lon="7.67972">
        <ele>314.49</ele>
        <time>2015-06-24T07:42:06Z</time>
      </trkpt>
      <trkpt lat="48.09347" lon="7.67989">
        <ele>315.45</ele>
        <time>2015-06-24T07:42:21Z</time>
      </trkpt>
      <trkpt lat="48.09352" lon="7.68006">
        <ele>316.41</ele>
        <time>2015-06-24T07:42:33Z</time>
      </trkpt>
      <trkpt lat="48.09354" lon="7.68011">
        <ele>316.41</ele>
        <time>2015-06-24T07:42:36Z</time>
      </trkpt>
      <trkpt lat="48.09357" lon="7.68038">
        <ele>317.37</ele>
        <time>2015-06-24T07:42:51Z</time>
      </trkpt>
      <trkpt lat="48.09357" lon="7.68052">
        <ele>317.85</ele>
        <time>2015-06-24T07:43:00Z</time>
      </trkpt>
      <trkpt lat="48.09358" lon="7.68055">
        <ele>317.85</ele>
        <time>2015-06-24T07:43:02Z</time>
      </trkpt>
      <trkpt lat="48.09356" lon="7.68084">
        <ele>319.3</ele>
        <time>2015-06-24T07:43:20Z</time>
      </trkpt>
      <trkpt lat="48.09356" lon="7.681">
        <ele>320.26</ele>
        <time>2015-06-24T07:43:29Z</time>
      </trkpt>
      <trkpt lat="48.09359" lon="7.68113">
        <ele>321.7</ele>
        <time>2015-06-24T07:43:37Z</time>
      </trkpt>
      <trkpt lat="48.09364" lon="7.68128">
        <ele>322.66</ele>
        <time>2015-06-24T07:43:46Z</time>
      </trkpt>
      <trkpt lat="48.09367" lon="7.68142">
        <ele>323.62</ele>
        <time>2015-06-24T07:43:53Z</time>
      </trkpt>
      <trkpt lat="48.09363" lon="7.68174">
        <ele>324.1</ele>
        <time>2015-06-24T07:44:11Z</time>
      </trkpt>
      <trkpt lat="48.09359" lon="7.68196">
        <ele>325.06</ele>
        <time>2015-06-24T07:44:22Z</time>
      </trkpt>
      <trkpt lat="48.09361" lon="7.68229">
        <ele>326.02</ele>
        <time>2015-06-24T07:44:39Z</time>
      </trkpt>
      <trkpt lat="48.09363" lon="7.68244">
        <ele>326.5</ele>
        <time>2015-06-24T07:44:47Z</time>
      </trkpt>
      <trkpt lat="48.09365" lon="7.6827">
        <ele>326.5</ele>
        <time>2015-06-24T07:45:01Z</time>
      </trkpt>
      <trkpt lat="48.0937" lon="7.68295">
        <ele>327.47</ele>
        <time>2015-06-24T07:45:15Z</time>
      </trkpt>
      <trkpt lat="48.09375" lon="7.6832">
        <ele>327.47</ele>
        <time>2015-06-24T07:45:29Z</time>
      </trkpt>
      <trkpt lat="48.09383" lon="7.68339">
        <ele>327.95</ele>
        <time>2015-06-24T07:45:43Z</time>
      </trkpt>
      <trkpt lat="48.0939" lon="7.6835">
        <ele>328.43</ele>
        <time>2015-06-24T07:45:54Z</time>
      </trkpt>
      <trkpt lat="48.09394" lon="7.68351">
        <ele>327.95</ele>
        <time>2015-06-24T07:45:57Z</time>
      </trkpt>
      <trkpt lat="48.09414" lon="7.68356">
        <ele>329.39</ele>
        <time>2015-06-24T07:46:15Z</time>
      </trkpt>
      <trkpt lat="48.09432" lon="7.68369">
        <ele>329.39</ele>
        <time>2015-06-24T07:46:32Z</time>
      </trkpt>
      <trkpt lat="48.09449" lon="7.68382">
        <ele>330.35</ele>
        <time>2015-06-24T07:46:51Z</time>
      </trkpt>
      <trkpt lat="48.09466" lon="7.6839">
        <ele>331.31</ele>
        <time>2015-06-24T07:47:09Z</time>
      </trkpt>
      <trkpt lat="48.09483" lon="7.684">
        <ele>332.27</ele>
        <time>2015-06-24T07:47:25Z</time>
      </trkpt>
      <trkpt lat="48.0949" lon="7.68404">
        <ele>332.75</ele>
        <time>2015-06-24T07:47:32Z</time>
      </trkpt>
      <trkpt lat="48.09507" lon="7.68418">
        <ele>333.71</ele>
        <time>2015-06-24T07:47:48Z</time>
      </trkpt>
      <trkpt lat="48.09519" lon="7.68432">
        <ele>335.16</ele>
        <time>2015-06-24T07:48:02Z</time>
      </trkpt>
      <trkpt lat="48.09537" lon="7.68442">
        <ele>336.6</ele>
        <time>2015-06-24T07:48:18Z</time>
      </trkpt>
      <trkpt lat="48.09547" lon="7.68446">
        <ele>337.56</ele>
        <time>2015-06-24T07:48:33Z</time>
      </trkpt>
      <trkpt lat="48.09558" lon="7.68449">
        <ele>338.52</ele>
        <time>2015-06-24T07:48:51Z</time>
      </trkpt>
      <trkpt lat="48.09576" lon="7.68454">
        <ele>340.44</ele>
        <time>2015-06-24T07:49:08Z</time>
      </trkpt>
      <trkpt lat="48.09577" lon="7.68454">
        <ele>340.92</ele>
        <time>2015-06-24T07:49:09Z</time>
      </trkpt>
      <trkpt lat="48.09595" lon="7.68456">
        <ele>342.85</ele>
        <time>2015-06-24T07:49:28Z</time>
      </trkpt>
      <trkpt lat="48.09613" lon="7.68464">
        <ele>345.25</ele>
        <time>2015-06-24T07:49:46Z</time>
      </trkpt>
      <trkpt lat="48.09617" lon="7.68468">
        <ele>345.25</ele>
        <time>2015-06-24T07:49:50Z</time>
      </trkpt>
      <trkpt lat="48.09625" lon="7.6847">
        <ele>346.69</ele>
        <time>2015-06-24T07:49:58Z</time>
      </trkpt>
      <trkpt lat="48.09629" lon="7.68471">
        <ele>346.21</ele>
        <time>2015-06-24T07:50:02Z</time>
      </trkpt>
      <trkpt lat="48.09632" lon="7.68473">
        <ele>347.17</ele>
        <time>2015-06-24T07:50:05Z</time>
      </trkpt>
      <trkpt lat="48.09643" lon="7.68475">
        <ele>349.1</ele>
        <time>2015-06-24T07:50:17Z</time>
      </trkpt>
      <trkpt lat="48.09657" lon="7.6848">
        <ele>351.5</ele>
        <time>2015-06-24T07:50:34Z</time>
      </trkpt>
      <trkpt lat="48.09666" lon="7.68482">
        <ele>353.9</ele>
        <time>2015-06-24T07:50:44Z</time>
      </trkpt>
      <trkpt lat="48.09682" lon="7.68487">
        <ele>356.79</ele>
        <time>2015-06-24T07:51:02Z</time>
      </trkpt>
      <trkpt lat="48.09694" lon="7.68485">
        <ele>359.67</ele>
        <time>2015-06-24T07:51:17Z</time>
      </trkpt>
      <trkpt lat="48.09699" lon="7.68482">
        <ele>361.11</ele>
        <time>2015-06-24T07:51:25Z</time>
      </trkpt>
      <trkpt lat="48.09713" lon="7.68475">
        <ele>364.48</ele>
        <time>2015-06-24T07:51:41Z</time>
      </trkpt>
      <trkpt lat="48.09723" lon="7.68483">
        <ele>367.84</ele>
        <time>2015-06-24T07:51:55Z</time>
      </trkpt>
      <trkpt lat="48.09731" lon="7.68495">
        <ele>369.76</ele>
        <time>2015-06-24T07:52:08Z</time>
      </trkpt>
      <trkpt lat="48.0974" lon="7.68503">
        <ele>372.65</ele>
        <time>2015-06-24T07:52:23Z</time>
      </trkpt>
      <trkpt lat="48.09746" lon="7.6851">
        <ele>375.05</ele>
        <time>2015-06-24T07:52:34Z</time>
      </trkpt>
      <trkpt lat="48.09764" lon="7.68513">
        <ele>378.42</ele>
        <time>2015-06-24T07:52:52Z</time>
      </trkpt>
      <trkpt lat="48.09781" lon="7.6852">
        <ele>380.82</ele>
        <time>2015-06-24T07:53:09Z</time>
      </trkpt>
      <trkpt lat="48.098" lon="7.68528">
        <ele>383.22</ele>
        <time>2015-06-24T07:53:31Z</time>
      </trkpt>
      <trkpt lat="48.0982" lon="7.68536">
        <ele>385.63</ele>
        <time>2015-06-24T07:53:51Z</time>
      </trkpt>
      <trkpt lat="48.09828" lon="7.68541">
        <ele>388.99</ele>
        <time>2015-06-24T07:54:01Z</time>
      </trkpt>
      <trkpt lat="48.09838" lon="7.68544">
        <ele>390.43</ele>
        <time>2015-06-24T07:54:14Z</time>
      </trkpt>
      <trkpt lat="48.09851" lon="7.68546">
        <ele>391.87</ele>
        <time>2015-06-24T07:54:30Z</time>
      </trkpt>
      <trkpt lat="48.09855" lon="7.68547">
        <ele>391.39</ele>
        <time>2015-06-24T07:54:41Z</time>
      </trkpt>
      <trkpt lat="48.09862" lon="7.68559">
        <ele>390.43</ele>
        <time>2015-06-24T07:54:58Z</time>
      </trkpt>
      <trkpt lat="48.09869" lon="7.68577">
        <ele>391.87</ele>
        <time>2015-06-24T07:55:12Z</time>
      </trkpt>
      <trkpt lat="48.09874" lon="7.68589">
        <ele>392.84</ele>
        <time>2015-06-24T07:55:24Z</time>
      </trkpt>
      <trkpt lat="48.09883" lon="7.68605">
        <ele>394.28</ele>
        <time>2015-06-24T07:55:39Z</time>
      </trkpt>
      <trkpt lat="48.09881" lon="7.68605">
        <ele>394.28</ele>
        <time>2015-06-24T07:55:55Z</time>
      </trkpt>
      <trkpt lat="48.09879" lon="7.686">
        <ele>394.28</ele>
        <time>2015-06-24T07:56:00Z</time>
      </trkpt>
      <trkpt lat="48.09876" lon="7.6859">
        <ele>392.84</ele>
        <time>2015-06-24T07:56:07Z</time>
      </trkpt>
      <trkpt lat="48.09873" lon="7.68581">
        <ele>392.36</ele>
        <time>2015-06-24T07:56:15Z</time>
      </trkpt>
      <trkpt lat="48.0986" lon="7.68572">
        <ele>392.84</ele>
        <time>2015-06-24T07:56:29Z</time>
      </trkpt>
      <trkpt lat="48.0985" lon="7.68566">
        <ele>393.32</ele>
        <time>2015-06-24T07:56:45Z</time>
      </trkpt>
      <trkpt lat="48.09848" lon="7.68573">
        <ele>394.76</ele>
        <time>2015-06-24T07:57:06Z</time>
      </trkpt>
      <trkpt lat="48.09848" lon="7.68576">
        <ele>395.24</ele>
        <time>2015-06-24T07:57:10Z</time>
      </trkpt>
      <trkpt lat="48.09851" lon="7.68587">
        <ele>398.6</ele>
        <time>2015-06-24T07:57:20Z</time>
      </trkpt>
      <trkpt lat="48.09855" lon="7.68599">
        <ele>401.01</ele>
        <time>2015-06-24T07:57:32Z</time>
      </trkpt>
      <trkpt lat="48.09856" lon="7.6861">
        <ele>402.45</ele>
        <time>2015-06-24T07:57:47Z</time>
      </trkpt>
      <trkpt lat="48.09857" lon="7.68612">
        <ele>402.93</ele>
        <time>2015-06-24T07:58:03Z</time>
      </trkpt>
      <trkpt lat="48.09866" lon="7.68629">
        <ele>403.41</ele>
        <time>2015-06-24T07:58:24Z</time>
      </trkpt>
      <trkpt lat="48.09876" lon="7.68646">
        <ele>403.89</ele>
        <time>2015-06-24T07:58:40Z</time>
      </trkpt>
      <trkpt lat="48.09883" lon="7.68665">
        <ele>403.89</ele>
        <time>2015-06-24T07:58:54Z</time>
      </trkpt>
      <trkpt lat="48.09887" lon="7.68678">
        <ele>403.41</ele>
        <time>2015-06-24T07:59:03Z</time>
      </trkpt>
      <trkpt lat="48.09894" lon="7.68701">
        <ele>401.49</ele>
        <time>2015-06-24T07:59:18Z</time>
      </trkpt>
      <trkpt lat="48.09894" lon="7.68702">
        <ele>401.49</ele>
        <time>2015-06-24T07:59:19Z</time>
      </trkpt>
      <trkpt lat="48.09895" lon="7.68705">
        <ele>401.49</ele>
        <time>2015-06-24T07:59:21Z</time>
      </trkpt>
      <trkpt lat="48.09896" lon="7.6871">
        <ele>401.49</ele>
        <time>2015-06-24T07:59:24Z</time>
      </trkpt>
      <trkpt lat="48.09897" lon="7.68713">
        <ele>401.01</ele>
        <time>2015-06-24T07:59:26Z</time>
      </trkpt>
      <trkpt lat="48.09902" lon="7.68743">
        <ele>401.97</ele>
        <time>2015-06-24T07:59:46Z</time>
      </trkpt>
      <trkpt lat="48.09903" lon="7.68745">
        <ele>401.97</ele>
        <time>2015-06-24T07:59:47Z</time>
      </trkpt>
      <trkpt lat="48.09903" lon="7.68748">
        <ele>402.45</ele>
        <time>2015-06-24T07:59:49Z</time>
      </trkpt>
      <trkpt lat="48.09904" lon="7.68751">
        <ele>402.45</ele>
        <time>2015-06-24T07:59:51Z</time>
      </trkpt>
      <trkpt lat="48.0991" lon="7.68773">
        <ele>404.85</ele>
        <time>2015-06-24T08:00:06Z</time>
      </trkpt>
      <trkpt lat="48.09916" lon="7.68791">
        <ele>407.26</ele>
        <time>2015-06-24T08:00:20Z</time>
      </trkpt>
      <trkpt lat="48.09919" lon="7.68802">
        <ele>407.74</ele>
        <time>2015-06-24T08:00:29Z</time>
      </trkpt>
      <trkpt lat="48.09929" lon="7.6882">
        <ele>408.7</ele>
        <time>2015-06-24T08:00:45Z</time>
      </trkpt>
      <trkpt lat="48.0993" lon="7.68821">
        <ele>408.7</ele>
        <time>2015-06-24T08:00:46Z</time>
      </trkpt>
      <trkpt lat="48.09943" lon="7.68834">
        <ele>406.77</ele>
        <time>2015-06-24T08:01:02Z</time>
      </trkpt>
      <trkpt lat="48.09952" lon="7.68853">
        <ele>404.37</ele>
        <time>2015-06-24T08:01:17Z</time>
      </trkpt>
      <trkpt lat="48.0996" lon="7.68866">
        <ele>402.93</ele>
        <time>2015-06-24T08:01:28Z</time>
      </trkpt>
      <trkpt lat="48.09965" lon="7.68877">
        <ele>403.41</ele>
        <time>2015-06-24T08:01:45Z</time>
      </trkpt>
      <trkpt lat="48.09965" lon="7.68877">
        <ele>403.41</ele>
        <time>2015-06-24T08:02:11Z</time>
      </trkpt>
      <trkpt lat="48.09964" lon="7.68876">
        <ele>402.93</ele>
        <time>2015-06-24T08:02:52Z</time>
      </trkpt>
      <trkpt lat="48.09964" lon="7.68876">
        <ele>403.41</ele>
        <time>2015-06-24T08:03:29Z</time>
      </trkpt>
      <trkpt lat="48.09964" lon="7.68876">
        <ele>403.41</ele>
        <time>2015-06-24T08:03:58Z</time>
      </trkpt>
      <trkpt lat="48.09964" lon="7.68879">
        <ele>402.45</ele>
        <time>2015-06-24T08:04:18Z</time>
      </trkpt>
      <trkpt lat="48.09964" lon="7.68891">
        <ele>402.45</ele>
        <time>2015-06-24T08:04:41Z</time>
      </trkpt>
      <trkpt lat="48.09965" lon="7.689">
        <ele>402.45</ele>
        <time>2015-06-24T08:04:47Z</time>
      </trkpt>
      <trkpt lat="48.09965" lon="7.68925">
        <ele>402.93</ele>
        <time>2015-06-24T08:05:01Z</time>
      </trkpt>
      <trkpt lat="48.09966" lon="7.68941">
        <ele>403.41</ele>
        <time>2015-06-24T08:05:12Z</time>
      </trkpt>
      <trkpt lat="48.09967" lon="7.68947">
        <ele>403.89</ele>
        <time>2015-06-24T08:05:16Z</time>
      </trkpt>
      <trkpt lat="48.09967" lon="7.68969">
        <ele>404.85</ele>
        <time>2015-06-24T08:05:29Z</time>
      </trkpt>
      <trkpt lat="48.09967" lon="7.68972">
        <ele>405.33</ele>
        <time>2015-06-24T08:05:31Z</time>
      </trkpt>
      <trkpt lat="48.09965" lon="7.69004">
        <ele>407.26</ele>
        <time>2015-06-24T08:05:49Z</time>
      </trkpt>
      <trkpt lat="48.09962" lon="7.69019">
        <ele>408.7</ele>
        <time>2015-06-24T08:06:06Z</time>
      </trkpt>
      <trkpt lat="48.09961" lon="7.69021">
        <ele>409.18</ele>
        <time>2015-06-24T08:06:08Z</time>
      </trkpt>
      <trkpt lat="48.0996" lon="7.69024">
        <ele>409.66</ele>
        <time>2015-06-24T08:06:10Z</time>
      </trkpt>
      <trkpt lat="48.09959" lon="7.69026">
        <ele>409.18</ele>
        <time>2015-06-24T08:06:12Z</time>
      </trkpt>
      <trkpt lat="48.09962" lon="7.69036">
        <ele>409.66</ele>
        <time>2015-06-24T08:06:18Z</time>
      </trkpt>
      <trkpt lat="48.0996" lon="7.69068">
        <ele>412.54</ele>
        <time>2015-06-24T08:06:38Z</time>
      </trkpt>
      <trkpt lat="48.09955" lon="7.69089">
        <ele>413.98</ele>
        <time>2015-06-24T08:06:53Z</time>
      </trkpt>
      <trkpt lat="48.09953" lon="7.69106">
        <ele>415.91</ele>
        <time>2015-06-24T08:07:06Z</time>
      </trkpt>
      <trkpt lat="48.09953" lon="7.69125">
        <ele>417.35</ele>
        <time>2015-06-24T08:07:18Z</time>
      </trkpt>
      <trkpt lat="48.09953" lon="7.69129">
        <ele>417.83</ele>
        <time>2015-06-24T08:07:21Z</time>
      </trkpt>
      <trkpt lat="48.09953" lon="7.69156">
        <ele>418.79</ele>
        <time>2015-06-24T08:07:38Z</time>
      </trkpt>
      <trkpt lat="48.09953" lon="7.69157">
        <ele>418.79</ele>
        <time>2015-06-24T08:07:39Z</time>
      </trkpt>
      <trkpt lat="48.09951" lon="7.69182">
        <ele>419.75</ele>
        <time>2015-06-24T08:07:54Z</time>
      </trkpt>
      <trkpt lat="48.09948" lon="7.69209">
        <ele>420.71</ele>
        <time>2015-06-24T08:08:11Z</time>
      </trkpt>
      <trkpt lat="48.09945" lon="7.69235">
        <ele>422.16</ele>
        <time>2015-06-24T08:08:27Z</time>
      </trkpt>
      <trkpt lat="48.09944" lon="7.69245">
        <ele>422.16</ele>
        <time>2015-06-24T08:08:33Z</time>
      </trkpt>
      <trkpt lat="48.09942" lon="7.69278">
        <ele>423.12</ele>
        <time>2015-06-24T08:08:52Z</time>
      </trkpt>
      <trkpt lat="48.09942" lon="7.69282">
        <ele>423.6</ele>
        <time>2015-06-24T08:08:54Z</time>
      </trkpt>
      <trkpt lat="48.09938" lon="7.69306">
        <ele>424.08</ele>
        <time>2015-06-24T08:09:08Z</time>
      </trkpt>
      <trkpt lat="48.09933" lon="7.69323">
        <ele>424.08</ele>
        <time>2015-06-24T08:09:19Z</time>
      </trkpt>
      <trkpt lat="48.0992" lon="7.69345">
        <ele>425.04</ele>
        <time>2015-06-24T08:09:38Z</time>
      </trkpt>
      <trkpt lat="48.09912" lon="7.69359">
        <ele>426</ele>
        <time>2015-06-24T08:09:50Z</time>
      </trkpt>
      <trkpt lat="48.09911" lon="7.69365">
        <ele>426</ele>
        <time>2015-06-24T08:09:53Z</time>
      </trkpt>
      <trkpt lat="48.09909" lon="7.69372">
        <ele>426</ele>
        <time>2015-06-24T08:09:57Z</time>
      </trkpt>
      <trkpt lat="48.09907" lon="7.69375">
        <ele>426</ele>
        <time>2015-06-24T08:09:59Z</time>
      </trkpt>
      <trkpt lat="48.09903" lon="7.69405">
        <ele>426</ele>
        <time>2015-06-24T08:10:16Z</time>
      </trkpt>
      <trkpt lat="48.09903" lon="7.69407">
        <ele>425.52</ele>
        <time>2015-06-24T08:10:17Z</time>
      </trkpt>
      <trkpt lat="48.09904" lon="7.69421">
        <ele>425.04</ele>
        <time>2015-06-24T08:10:34Z</time>
      </trkpt>
      <trkpt lat="48.09904" lon="7.69421">
        <ele>425.04</ele>
        <time>2015-06-24T08:10:52Z</time>
      </trkpt>
      <trkpt lat="48.09904" lon="7.69422">
        <ele>425.04</ele>
        <time>2015-06-24T08:11:08Z</time>
      </trkpt>
      <trkpt lat="48.09902" lon="7.69433">
        <ele>425.52</ele>
        <time>2015-06-24T08:11:41Z</time>
      </trkpt>
      <trkpt lat="48.09893" lon="7.69451">
        <ele>425.52</ele>
        <time>2015-06-24T08:11:56Z</time>
      </trkpt>
      <trkpt lat="48.09874" lon="7.69468">
        <ele>426.48</ele>
        <time>2015-06-24T08:12:14Z</time>
      </trkpt>
      <trkpt lat="48.09863" lon="7.69476">
        <ele>427.44</ele>
        <time>2015-06-24T08:12:24Z</time>
      </trkpt>
      <trkpt lat="48.09858" lon="7.69479">
        <ele>427.44</ele>
        <time>2015-06-24T08:12:28Z</time>
      </trkpt>
      <trkpt lat="48.09848" lon="7.69486">
        <ele>427.92</ele>
        <time>2015-06-24T08:12:38Z</time>
      </trkpt>
      <trkpt lat="48.09829" lon="7.69498">
        <ele>429.37</ele>
        <time>2015-06-24T08:12:56Z</time>
      </trkpt>
      <trkpt lat="48.0982" lon="7.69505">
        <ele>429.37</ele>
        <time>2015-06-24T08:13:04Z</time>
      </trkpt>
      <trkpt lat="48.09804" lon="7.69518">
        <ele>430.33</ele>
        <time>2015-06-24T08:13:19Z</time>
      </trkpt>
      <trkpt lat="48.0979" lon="7.69534">
        <ele>429.85</ele>
        <time>2015-06-24T08:13:34Z</time>
      </trkpt>
      <trkpt lat="48.09789" lon="7.69537">
        <ele>429.37</ele>
        <time>2015-06-24T08:13:36Z</time>
      </trkpt>
      <trkpt lat="48.09774" lon="7.69562">
        <ele>431.77</ele>
        <time>2015-06-24T08:13:55Z</time>
      </trkpt>
      <trkpt lat="48.09771" lon="7.69572">
        <ele>432.73</ele>
        <time>2015-06-24T08:14:02Z</time>
      </trkpt>
      <trkpt lat="48.09768" lon="7.69581">
        <ele>432.73</ele>
        <time>2015-06-24T08:14:08Z</time>
      </trkpt>
      <trkpt lat="48.09764" lon="7.69611">
        <ele>436.1</ele>
        <time>2015-06-24T08:14:27Z</time>
      </trkpt>
      <trkpt lat="48.09766" lon="7.69622">
        <ele>437.54</ele>
        <time>2015-06-24T08:14:34Z</time>
      </trkpt>
      <trkpt lat="48.09767" lon="7.69628">
        <ele>438.02</ele>
        <time>2015-06-24T08:14:38Z</time>
      </trkpt>
      <trkpt lat="48.09772" lon="7.69644">
        <ele>439.46</ele>
        <time>2015-06-24T08:14:54Z</time>
      </trkpt>
      <trkpt lat="48.09771" lon="7.69652">
        <ele>439.46</ele>
        <time>2015-06-24T08:15:08Z</time>
      </trkpt>
      <trkpt lat="48.09771" lon="7.69654">
        <ele>439.94</ele>
        <time>2015-06-24T08:15:12Z</time>
      </trkpt>
      <trkpt lat="48.09768" lon="7.69659">
        <ele>440.42</ele>
        <time>2015-06-24T08:15:17Z</time>
      </trkpt>
      <trkpt lat="48.09761" lon="7.69674">
        <ele>441.38</ele>
        <time>2015-06-24T08:15:33Z</time>
      </trkpt>
      <trkpt lat="48.09763" lon="7.69679">
        <ele>441.38</ele>
        <time>2015-06-24T08:15:56Z</time>
      </trkpt>
      <trkpt lat="48.09761" lon="7.69682">
        <ele>441.86</ele>
        <time>2015-06-24T08:16:41Z</time>
      </trkpt>
      <trkpt lat="48.09764" lon="7.69684">
        <ele>441.38</ele>
        <time>2015-06-24T08:17:12Z</time>
      </trkpt>
      <trkpt lat="48.09766" lon="7.69683">
        <ele>440.9</ele>
        <time>2015-06-24T08:18:52Z</time>
      </trkpt>
      <trkpt lat="48.09766" lon="7.69683">
        <ele>440.42</ele>
        <time>2015-06-24T08:20:13Z</time>
      </trkpt>
      <trkpt lat="48.09767" lon="7.69675">
        <ele>439.46</ele>
        <time>2015-06-24T08:20:58Z</time>
      </trkpt>
      <trkpt lat="48.09769" lon="7.69675">
        <ele>439.46</ele>
        <time>2015-06-24T08:23:53Z</time>
      </trkpt>
      <trkpt lat="48.09769" lon="7.69678">
        <ele>439.94</ele>
        <time>2015-06-24T08:27:28Z</time>
      </trkpt>
      <trkpt lat="48.09768" lon="7.69678">
        <ele>439.94</ele>
        <time>2015-06-24T08:27:43Z</time>
      </trkpt>
      <trkpt lat="48.09766" lon="7.69673">
        <ele>440.9</ele>
        <time>2015-06-24T08:28:02Z</time>
      </trkpt>
      <trkpt lat="48.09771" lon="7.69678">
        <ele>439.46</ele>
        <time>2015-06-24T08:29:04Z</time>
      </trkpt>
      <trkpt lat="48.09782" lon="7.69669">
        <ele>439.46</ele>
        <time>2015-06-24T08:29:17Z</time>
      </trkpt>
      <trkpt lat="48.09786" lon="7.69658">
        <ele>439.94</ele>
        <time>2015-06-24T08:29:26Z</time>
      </trkpt>
      <trkpt lat="48.09798" lon="7.6965">
        <ele>439.94</ele>
        <time>2015-06-24T08:29:39Z</time>
      </trkpt>
      <trkpt lat="48.09815" lon="7.69648">
        <ele>441.86</ele>
        <time>2015-06-24T08:29:58Z</time>
      </trkpt>
      <trkpt lat="48.09832" lon="7.69652">
        <ele>443.79</ele>
        <time>2015-06-24T08:30:16Z</time>
      </trkpt>
      <trkpt lat="48.09844" lon="7.69656">
        <ele>445.23</ele>
        <time>2015-06-24T08:30:31Z</time>
      </trkpt>
      <trkpt lat="48.09849" lon="7.69657">
        <ele>445.71</ele>
        <time>2015-06-24T08:30:49Z</time>
      </trkpt>
      <trkpt lat="48.09847" lon="7.69657">
        <ele>445.23</ele>
        <time>2015-06-24T08:31:02Z</time>
      </trkpt>
      <trkpt lat="48.09863" lon="7.69663">
        <ele>446.19</ele>
        <time>2015-06-24T08:31:18Z</time>
      </trkpt>
      <trkpt lat="48.09886" lon="7.69664">
        <ele>447.63</ele>
        <time>2015-06-24T08:31:36Z</time>
      </trkpt>
      <trkpt lat="48.09908" lon="7.69663">
        <ele>448.59</ele>
        <time>2015-06-24T08:31:54Z</time>
      </trkpt>
      <trkpt lat="48.09931" lon="7.69661">
        <ele>449.07</ele>
        <time>2015-06-24T08:32:11Z</time>
      </trkpt>
      <trkpt lat="48.09955" lon="7.69662">
        <ele>450.03</ele>
        <time>2015-06-24T08:32:29Z</time>
      </trkpt>
      <trkpt lat="48.09973" lon="7.69668">
        <ele>452.92</ele>
        <time>2015-06-24T08:32:45Z</time>
      </trkpt>
      <trkpt lat="48.09993" lon="7.69674">
        <ele>455.8</ele>
        <time>2015-06-24T08:33:04Z</time>
      </trkpt>
      <trkpt lat="48.10007" lon="7.69676">
        <ele>458.21</ele>
        <time>2015-06-24T08:33:18Z</time>
      </trkpt>
      <trkpt lat="48.10007" lon="7.69675">
        <ele>458.21</ele>
        <time>2015-06-24T08:33:19Z</time>
      </trkpt>
      <trkpt lat="48.10023" lon="7.69677">
        <ele>461.09</ele>
        <time>2015-06-24T08:33:35Z</time>
      </trkpt>
      <trkpt lat="48.10036" lon="7.6968">
        <ele>463.49</ele>
        <time>2015-06-24T08:33:47Z</time>
      </trkpt>
      <trkpt lat="48.10053" lon="7.69683">
        <ele>466.86</ele>
        <time>2015-06-24T08:34:05Z</time>
      </trkpt>
      <trkpt lat="48.10063" lon="7.69685">
        <ele>468.78</ele>
        <time>2015-06-24T08:34:18Z</time>
      </trkpt>
      <trkpt lat="48.10083" lon="7.69692">
        <ele>470.7</ele>
        <time>2015-06-24T08:34:37Z</time>
      </trkpt>
      <trkpt lat="48.10085" lon="7.69693">
        <ele>471.18</ele>
        <time>2015-06-24T08:34:41Z</time>
      </trkpt>
      <trkpt lat="48.10087" lon="7.69695">
        <ele>470.7</ele>
        <time>2015-06-24T08:34:43Z</time>
      </trkpt>
      <trkpt lat="48.1009" lon="7.69696">
        <ele>470.7</ele>
        <time>2015-06-24T08:34:45Z</time>
      </trkpt>
      <trkpt lat="48.10104" lon="7.69701">
        <ele>470.7</ele>
        <time>2015-06-24T08:35:05Z</time>
      </trkpt>
      <trkpt lat="48.10108" lon="7.69702">
        <ele>470.22</ele>
        <time>2015-06-24T08:35:25Z</time>
      </trkpt>
      <trkpt lat="48.10108" lon="7.69702">
        <ele>470.7</ele>
        <time>2015-06-24T08:35:27Z</time>
      </trkpt>
      <trkpt lat="48.10117" lon="7.69705">
        <ele>469.74</ele>
        <time>2015-06-24T08:35:43Z</time>
      </trkpt>
      <trkpt lat="48.10117" lon="7.69705">
        <ele>469.26</ele>
        <time>2015-06-24T08:36:00Z</time>
      </trkpt>
      <trkpt lat="48.10127" lon="7.69709">
        <ele>468.78</ele>
        <time>2015-06-24T08:36:13Z</time>
      </trkpt>
      <trkpt lat="48.10133" lon="7.69711">
        <ele>468.3</ele>
        <time>2015-06-24T08:36:18Z</time>
      </trkpt>
      <trkpt lat="48.10147" lon="7.69713">
        <ele>466.38</ele>
        <time>2015-06-24T08:36:33Z</time>
      </trkpt>
      <trkpt lat="48.10159" lon="7.69714">
        <ele>464.93</ele>
        <time>2015-06-24T08:36:49Z</time>
      </trkpt>
      <trkpt lat="48.10174" lon="7.69718">
        <ele>462.53</ele>
        <time>2015-06-24T08:37:06Z</time>
      </trkpt>
      <trkpt lat="48.10186" lon="7.69721">
        <ele>460.61</ele>
        <time>2015-06-24T08:37:20Z</time>
      </trkpt>
      <trkpt lat="48.10201" lon="7.69724">
        <ele>458.21</ele>
        <time>2015-06-24T08:37:38Z</time>
      </trkpt>
      <trkpt lat="48.10203" lon="7.69724">
        <ele>457.72</ele>
        <time>2015-06-24T08:37:40Z</time>
      </trkpt>
      <trkpt lat="48.10212" lon="7.69727">
        <ele>457.24</ele>
        <time>2015-06-24T08:37:48Z</time>
      </trkpt>
      <trkpt lat="48.10236" lon="7.69731">
        <ele>455.8</ele>
        <time>2015-06-24T08:38:11Z</time>
      </trkpt>
      <trkpt lat="48.1024" lon="7.69731">
        <ele>455.8</ele>
        <time>2015-06-24T08:38:15Z</time>
      </trkpt>
      <trkpt lat="48.10258" lon="7.69733">
        <ele>455.8</ele>
        <time>2015-06-24T08:38:34Z</time>
      </trkpt>
      <trkpt lat="48.1028" lon="7.69737">
        <ele>457.72</ele>
        <time>2015-06-24T08:38:52Z</time>
      </trkpt>
      <trkpt lat="48.10286" lon="7.69735">
        <ele>458.69</ele>
        <time>2015-06-24T08:39:09Z</time>
      </trkpt>
      <trkpt lat="48.10294" lon="7.69739">
        <ele>459.65</ele>
        <time>2015-06-24T08:39:27Z</time>
      </trkpt>
      <trkpt lat="48.10309" lon="7.69744">
        <ele>460.61</ele>
        <time>2015-06-24T08:39:43Z</time>
      </trkpt>
      <trkpt lat="48.10324" lon="7.6975">
        <ele>460.61</ele>
        <time>2015-06-24T08:39:59Z</time>
      </trkpt>
      <trkpt lat="48.1034" lon="7.69754">
        <ele>460.13</ele>
        <time>2015-06-24T08:40:19Z</time>
      </trkpt>
      <trkpt lat="48.1035" lon="7.69761">
        <ele>459.17</ele>
        <time>2015-06-24T08:40:34Z</time>
      </trkpt>
      <trkpt lat="48.10366" lon="7.69771">
        <ele>457.72</ele>
        <time>2015-06-24T08:40:52Z</time>
      </trkpt>
      <trkpt lat="48.10382" lon="7.69785">
        <ele>457.24</ele>
        <time>2015-06-24T08:41:12Z</time>
      </trkpt>
      <trkpt lat="48.10402" lon="7.69803">
        <ele>456.28</ele>
        <time>2015-06-24T08:41:31Z</time>
      </trkpt>
      <trkpt lat="48.10418" lon="7.69813">
        <ele>456.28</ele>
        <time>2015-06-24T08:41:48Z</time>
      </trkpt>
      <trkpt lat="48.10433" lon="7.6983">
        <ele>455.32</ele>
        <time>2015-06-24T08:42:03Z</time>
      </trkpt>
      <trkpt lat="48.10451" lon="7.69846">
        <ele>454.84</ele>
        <time>2015-06-24T08:42:20Z</time>
      </trkpt>
      <trkpt lat="48.10467" lon="7.69858">
        <ele>453.88</ele>
        <time>2015-06-24T08:42:37Z</time>
      </trkpt>
      <trkpt lat="48.10483" lon="7.69863">
        <ele>452.44</ele>
        <time>2015-06-24T08:42:55Z</time>
      </trkpt>
      <trkpt lat="48.10496" lon="7.69872">
        <ele>451</ele>
        <time>2015-06-24T08:43:12Z</time>
      </trkpt>
      <trkpt lat="48.10504" lon="7.6988">
        <ele>450.03</ele>
        <time>2015-06-24T08:43:22Z</time>
      </trkpt>
      <trkpt lat="48.10521" lon="7.69901">
        <ele>449.07</ele>
        <time>2015-06-24T08:43:40Z</time>
      </trkpt>
      <trkpt lat="48.10533" lon="7.69914">
        <ele>448.59</ele>
        <time>2015-06-24T08:43:54Z</time>
      </trkpt>
      <trkpt lat="48.10539" lon="7.69931">
        <ele>447.63</ele>
        <time>2015-06-24T08:44:10Z</time>
      </trkpt>
      <trkpt lat="48.1055" lon="7.6995">
        <ele>447.63</ele>
        <time>2015-06-24T08:44:22Z</time>
      </trkpt>
      <trkpt lat="48.10563" lon="7.69967">
        <ele>447.63</ele>
        <time>2015-06-24T08:44:37Z</time>
      </trkpt>
      <trkpt lat="48.10573" lon="7.69972">
        <ele>447.15</ele>
        <time>2015-06-24T08:44:51Z</time>
      </trkpt>
      <trkpt lat="48.10581" lon="7.69978">
        <ele>446.67</ele>
        <time>2015-06-24T08:45:06Z</time>
      </trkpt>
      <trkpt lat="48.10619" lon="7.70012">
        <ele>445.23</ele>
        <time>2015-06-24T08:45:27Z</time>
      </trkpt>
      <trkpt lat="48.10642" lon="7.70013">
        <ele>442.82</ele>
        <time>2015-06-24T08:45:47Z</time>
      </trkpt>
      <trkpt lat="48.1066" lon="7.70021">
        <ele>441.86</ele>
        <time>2015-06-24T08:46:05Z</time>
      </trkpt>
      <trkpt lat="48.10681" lon="7.70042">
        <ele>440.9</ele>
        <time>2015-06-24T08:46:25Z</time>
      </trkpt>
      <trkpt lat="48.10703" lon="7.7005">
        <ele>439.94</ele>
        <time>2015-06-24T08:46:45Z</time>
      </trkpt>
      <trkpt lat="48.10719" lon="7.70055">
        <ele>438.5</ele>
        <time>2015-06-24T08:47:00Z</time>
      </trkpt>
      <trkpt lat="48.10738" lon="7.70047">
        <ele>437.54</ele>
        <time>2015-06-24T08:47:18Z</time>
      </trkpt>
      <trkpt lat="48.10748" lon="7.70041">
        <ele>436.1</ele>
        <time>2015-06-24T08:47:29Z</time>
      </trkpt>
      <trkpt lat="48.10765" lon="7.70034">
        <ele>434.17</ele>
        <time>2015-06-24T08:47:44Z</time>
      </trkpt>
      <trkpt lat="48.10777" lon="7.70032">
        <ele>433.21</ele>
        <time>2015-06-24T08:48:02Z</time>
      </trkpt>
      <trkpt lat="48.10777" lon="7.70032">
        <ele>433.21</ele>
        <time>2015-06-24T08:48:19Z</time>
      </trkpt>
      <trkpt lat="48.10779" lon="7.70032">
        <ele>433.69</ele>
        <time>2015-06-24T08:48:27Z</time>
      </trkpt>
      <trkpt lat="48.10783" lon="7.70031">
        <ele>434.17</ele>
        <time>2015-06-24T08:48:31Z</time>
      </trkpt>
      <trkpt lat="48.10797" lon="7.70017">
        <ele>437.54</ele>
        <time>2015-06-24T08:48:44Z</time>
      </trkpt>
      <trkpt lat="48.10812" lon="7.70015">
        <ele>437.54</ele>
        <time>2015-06-24T08:49:02Z</time>
      </trkpt>
      <trkpt lat="48.10828" lon="7.70016">
        <ele>439.94</ele>
        <time>2015-06-24T08:49:20Z</time>
      </trkpt>
      <trkpt lat="48.10841" lon="7.70016">
        <ele>440.42</ele>
        <time>2015-06-24T08:49:29Z</time>
      </trkpt>
      <trkpt lat="48.10852" lon="7.70019">
        <ele>441.38</ele>
        <time>2015-06-24T08:49:38Z</time>
      </trkpt>
      <trkpt lat="48.10858" lon="7.70017">
        <ele>442.34</ele>
        <time>2015-06-24T08:49:43Z</time>
      </trkpt>
      <trkpt lat="48.10867" lon="7.70004">
        <ele>443.31</ele>
        <time>2015-06-24T08:49:56Z</time>
      </trkpt>
      <trkpt lat="48.10868" lon="7.70002">
        <ele>444.27</ele>
        <time>2015-06-24T08:49:58Z</time>
      </trkpt>
      <trkpt lat="48.10875" lon="7.69987">
        <ele>446.19</ele>
        <time>2015-06-24T08:50:12Z</time>
      </trkpt>
      <trkpt lat="48.10876" lon="7.69984">
        <ele>446.67</ele>
        <time>2015-06-24T08:50:14Z</time>
      </trkpt>
      <trkpt lat="48.1088" lon="7.69966">
        <ele>448.59</ele>
        <time>2015-06-24T08:50:29Z</time>
      </trkpt>
      <trkpt lat="48.10891" lon="7.69951">
        <ele>450.52</ele>
        <time>2015-06-24T08:50:43Z</time>
      </trkpt>
      <trkpt lat="48.10904" lon="7.6996">
        <ele>451</ele>
        <time>2015-06-24T08:50:58Z</time>
      </trkpt>
      <trkpt lat="48.10919" lon="7.69972">
        <ele>451.48</ele>
        <time>2015-06-24T08:51:14Z</time>
      </trkpt>
      <trkpt lat="48.10934" lon="7.69984">
        <ele>451.96</ele>
        <time>2015-06-24T08:51:28Z</time>
      </trkpt>
      <trkpt lat="48.10949" lon="7.69998">
        <ele>451.96</ele>
        <time>2015-06-24T08:51:44Z</time>
      </trkpt>
      <trkpt lat="48.10952" lon="7.69999">
        <ele>452.44</ele>
        <time>2015-06-24T08:51:46Z</time>
      </trkpt>
      <trkpt lat="48.10961" lon="7.70011">
        <ele>453.4</ele>
        <time>2015-06-24T08:51:58Z</time>
      </trkpt>
      <trkpt lat="48.10969" lon="7.70012">
        <ele>453.88</ele>
        <time>2015-06-24T08:52:06Z</time>
      </trkpt>
      <trkpt lat="48.10985" lon="7.70008">
        <ele>454.36</ele>
        <time>2015-06-24T08:52:22Z</time>
      </trkpt>
      <trkpt lat="48.10997" lon="7.70005">
        <ele>455.32</ele>
        <time>2015-06-24T08:52:35Z</time>
      </trkpt>
      <trkpt lat="48.11" lon="7.70004">
        <ele>455.32</ele>
        <time>2015-06-24T08:52:38Z</time>
      </trkpt>
      <trkpt lat="48.11017" lon="7.69999">
        <ele>455.32</ele>
        <time>2015-06-24T08:52:53Z</time>
      </trkpt>
      <trkpt lat="48.11034" lon="7.69984">
        <ele>454.84</ele>
        <time>2015-06-24T08:53:09Z</time>
      </trkpt>
      <trkpt lat="48.11041" lon="7.69979">
        <ele>454.84</ele>
        <time>2015-06-24T08:53:17Z</time>
      </trkpt>
      <trkpt lat="48.11049" lon="7.69968">
        <ele>453.88</ele>
        <time>2015-06-24T08:53:29Z</time>
      </trkpt>
      <trkpt lat="48.11051" lon="7.69966">
        <ele>453.88</ele>
        <time>2015-06-24T08:53:31Z</time>
      </trkpt>
      <trkpt lat="48.11054" lon="7.69963">
        <ele>453.88</ele>
        <time>2015-06-24T08:53:34Z</time>
      </trkpt>
      <trkpt lat="48.11069" lon="7.69951">
        <ele>452.44</ele>
        <time>2015-06-24T08:53:52Z</time>
      </trkpt>
      <trkpt lat="48.11083" lon="7.69939">
        <ele>449.07</ele>
        <time>2015-06-24T08:54:12Z</time>
      </trkpt>
      <trkpt lat="48.11097" lon="7.69928">
        <ele>448.59</ele>
        <time>2015-06-24T08:54:30Z</time>
      </trkpt>
      <trkpt lat="48.11114" lon="7.69899">
        <ele>448.59</ele>
        <time>2015-06-24T08:54:51Z</time>
      </trkpt>
      <trkpt lat="48.1113" lon="7.6988">
        <ele>449.07</ele>
        <time>2015-06-24T08:55:07Z</time>
      </trkpt>
      <trkpt lat="48.11138" lon="7.69872">
        <ele>450.03</ele>
        <time>2015-06-24T08:55:23Z</time>
      </trkpt>
      <trkpt lat="48.11139" lon="7.6987">
        <ele>449.07</ele>
        <time>2015-06-24T08:55:50Z</time>
      </trkpt>
      <trkpt lat="48.1114" lon="7.69869">
        <ele>449.55</ele>
        <time>2015-06-24T08:56:26Z</time>
      </trkpt>
      <trkpt lat="48.11139" lon="7.69869">
        <ele>449.07</ele>
        <time>2015-06-24T08:57:14Z</time>
      </trkpt>
      <trkpt lat="48.11139" lon="7.69869">
        <ele>449.07</ele>
        <time>2015-06-24T08:57:55Z</time>
      </trkpt>
      <trkpt lat="48.11148" lon="7.69863">
        <ele>450.03</ele>
        <time>2015-06-24T08:58:24Z</time>
      </trkpt>
      <trkpt lat="48.11162" lon="7.69852">
        <ele>448.11</ele>
        <time>2015-06-24T08:58:43Z</time>
      </trkpt>
      <trkpt lat="48.11177" lon="7.69842">
        <ele>447.63</ele>
        <time>2015-06-24T08:58:59Z</time>
      </trkpt>
      <trkpt lat="48.11199" lon="7.69823">
        <ele>446.19</ele>
        <time>2015-06-24T08:59:19Z</time>
      </trkpt>
      <trkpt lat="48.1121" lon="7.69811">
        <ele>446.19</ele>
        <time>2015-06-24T08:59:29Z</time>
      </trkpt>
      <trkpt lat="48.11219" lon="7.69771">
        <ele>447.15</ele>
        <time>2015-06-24T08:59:50Z</time>
      </trkpt>
      <trkpt lat="48.11219" lon="7.69743">
        <ele>446.67</ele>
        <time>2015-06-24T09:00:06Z</time>
      </trkpt>
      <trkpt lat="48.1122" lon="7.69725">
        <ele>446.67</ele>
        <time>2015-06-24T09:00:24Z</time>
      </trkpt>
      <trkpt lat="48.11221" lon="7.69716">
        <ele>447.15</ele>
        <time>2015-06-24T09:00:30Z</time>
      </trkpt>
      <trkpt lat="48.11218" lon="7.69702">
        <ele>447.15</ele>
        <time>2015-06-24T09:00:36Z</time>
      </trkpt>
      <trkpt lat="48.1121" lon="7.69668">
        <ele>447.63</ele>
        <time>2015-06-24T09:00:51Z</time>
      </trkpt>
      <trkpt lat="48.11212" lon="7.6965">
        <ele>450.52</ele>
        <time>2015-06-24T09:01:07Z</time>
      </trkpt>
      <trkpt lat="48.11218" lon="7.69632">
        <ele>452.92</ele>
        <time>2015-06-24T09:01:25Z</time>
      </trkpt>
      <trkpt lat="48.11216" lon="7.69607">
        <ele>451.96</ele>
        <time>2015-06-24T09:01:42Z</time>
      </trkpt>
      <trkpt lat="48.1122" lon="7.69588">
        <ele>449.55</ele>
        <time>2015-06-24T09:01:59Z</time>
      </trkpt>
      <trkpt lat="48.11227" lon="7.69566">
        <ele>446.19</ele>
        <time>2015-06-24T09:02:17Z</time>
      </trkpt>
      <trkpt lat="48.11233" lon="7.6954">
        <ele>442.82</ele>
        <time>2015-06-24T09:02:33Z</time>
      </trkpt>
      <trkpt lat="48.11239" lon="7.69522">
        <ele>438.98</ele>
        <time>2015-06-24T09:02:47Z</time>
      </trkpt>
      <trkpt lat="48.11242" lon="7.69514">
        <ele>438.02</ele>
        <time>2015-06-24T09:02:53Z</time>
      </trkpt>
      <trkpt lat="48.11246" lon="7.69498">
        <ele>435.13</ele>
        <time>2015-06-24T09:03:04Z</time>
      </trkpt>
      <trkpt lat="48.11247" lon="7.69481">
        <ele>431.77</ele>
        <time>2015-06-24T09:03:22Z</time>
      </trkpt>
      <trkpt lat="48.1125" lon="7.6947">
        <ele>430.81</ele>
        <time>2015-06-24T09:03:42Z</time>
      </trkpt>
      <trkpt lat="48.11251" lon="7.69459">
        <ele>431.29</ele>
        <time>2015-06-24T09:04:16Z</time>
      </trkpt>
      <trkpt lat="48.11248" lon="7.69429">
        <ele>429.37</ele>
        <time>2015-06-24T09:04:46Z</time>
      </trkpt>
      <trkpt lat="48.11247" lon="7.69419">
        <ele>429.37</ele>
        <time>2015-06-24T09:04:49Z</time>
      </trkpt>
      <trkpt lat="48.11246" lon="7.69399">
        <ele>428.89</ele>
        <time>2015-06-24T09:04:57Z</time>
      </trkpt>
      <trkpt lat="48.11243" lon="7.69382">
        <ele>428.89</ele>
        <time>2015-06-24T09:05:04Z</time>
      </trkpt>
      <trkpt lat="48.11244" lon="7.69373">
        <ele>428.4</ele>
        <time>2015-06-24T09:05:08Z</time>
      </trkpt>
      <trkpt lat="48.11239" lon="7.69349">
        <ele>429.37</ele>
        <time>2015-06-24T09:05:22Z</time>
      </trkpt>
      <trkpt lat="48.11221" lon="7.69323">
        <ele>429.85</ele>
        <time>2015-06-24T09:05:41Z</time>
      </trkpt>
      <trkpt lat="48.11212" lon="7.69303">
        <ele>430.81</ele>
        <time>2015-06-24T09:05:54Z</time>
      </trkpt>
      <trkpt lat="48.11202" lon="7.69279">
        <ele>432.73</ele>
        <time>2015-06-24T09:06:11Z</time>
      </trkpt>
      <trkpt lat="48.11191" lon="7.69256">
        <ele>434.65</ele>
        <time>2015-06-24T09:06:29Z</time>
      </trkpt>
      <trkpt lat="48.11188" lon="7.69236">
        <ele>437.06</ele>
        <time>2015-06-24T09:06:47Z</time>
      </trkpt>
      <trkpt lat="48.11195" lon="7.69233">
        <ele>437.54</ele>
        <time>2015-06-24T09:07:09Z</time>
      </trkpt>
      <trkpt lat="48.11214" lon="7.69223">
        <ele>438.5</ele>
        <time>2015-06-24T09:07:27Z</time>
      </trkpt>
      <trkpt lat="48.11224" lon="7.69206">
        <ele>439.94</ele>
        <time>2015-06-24T09:07:45Z</time>
      </trkpt>
      <trkpt lat="48.11235" lon="7.69176">
        <ele>441.86</ele>
        <time>2015-06-24T09:08:05Z</time>
      </trkpt>
      <trkpt lat="48.11241" lon="7.69159">
        <ele>445.23</ele>
        <time>2015-06-24T09:08:22Z</time>
      </trkpt>
      <trkpt lat="48.11243" lon="7.69139">
        <ele>447.63</ele>
        <time>2015-06-24T09:08:38Z</time>
      </trkpt>
      <trkpt lat="48.11252" lon="7.69112">
        <ele>449.55</ele>
        <time>2015-06-24T09:08:55Z</time>
      </trkpt>
      <trkpt lat="48.11259" lon="7.69097">
        <ele>451.48</ele>
        <time>2015-06-24T09:09:13Z</time>
      </trkpt>
      <trkpt lat="48.11269" lon="7.69089">
        <ele>453.4</ele>
        <time>2015-06-24T09:09:30Z</time>
      </trkpt>
      <trkpt lat="48.11287" lon="7.69079">
        <ele>454.84</ele>
        <time>2015-06-24T09:09:48Z</time>
      </trkpt>
      <trkpt lat="48.11298" lon="7.6908">
        <ele>455.8</ele>
        <time>2015-06-24T09:09:59Z</time>
      </trkpt>
      <trkpt lat="48.11313" lon="7.69085">
        <ele>458.21</ele>
        <time>2015-06-24T09:10:14Z</time>
      </trkpt>
      <trkpt lat="48.11331" lon="7.69089">
        <ele>457.24</ele>
        <time>2015-06-24T09:10:33Z</time>
      </trkpt>
      <trkpt lat="48.11348" lon="7.69087">
        <ele>455.8</ele>
        <time>2015-06-24T09:10:51Z</time>
      </trkpt>
      <trkpt lat="48.11362" lon="7.69082">
        <ele>454.84</ele>
        <time>2015-06-24T09:11:04Z</time>
      </trkpt>
      <trkpt lat="48.11381" lon="7.69071">
        <ele>453.88</ele>
        <time>2015-06-24T09:11:23Z</time>
      </trkpt>
      <trkpt lat="48.11382" lon="7.69071">
        <ele>454.36</ele>
        <time>2015-06-24T09:11:44Z</time>
      </trkpt>
      <trkpt lat="48.11396" lon="7.6906">
        <ele>457.24</ele>
        <time>2015-06-24T09:12:01Z</time>
      </trkpt>
      <trkpt lat="48.11425" lon="7.6904">
        <ele>460.13</ele>
        <time>2015-06-24T09:12:17Z</time>
      </trkpt>
      <trkpt lat="48.11452" lon="7.69019">
        <ele>463.01</ele>
        <time>2015-06-24T09:12:33Z</time>
      </trkpt>
      <trkpt lat="48.11467" lon="7.69005">
        <ele>463.97</ele>
        <time>2015-06-24T09:12:51Z</time>
      </trkpt>
      <trkpt lat="48.11481" lon="7.68985">
        <ele>465.42</ele>
        <time>2015-06-24T09:13:10Z</time>
      </trkpt>
      <trkpt lat="48.11489" lon="7.68979">
        <ele>464.93</ele>
        <time>2015-06-24T09:13:34Z</time>
      </trkpt>
      <trkpt lat="48.11489" lon="7.68978">
        <ele>464.45</ele>
        <time>2015-06-24T09:14:40Z</time>
      </trkpt>
      <trkpt lat="48.11502" lon="7.6897">
        <ele>465.42</ele>
        <time>2015-06-24T09:15:06Z</time>
      </trkpt>
      <trkpt lat="48.1152" lon="7.68962">
        <ele>466.38</ele>
        <time>2015-06-24T09:15:20Z</time>
      </trkpt>
      <trkpt lat="48.11529" lon="7.68958">
        <ele>466.38</ele>
        <time>2015-06-24T09:15:26Z</time>
      </trkpt>
      <trkpt lat="48.11546" lon="7.68955">
        <ele>467.34</ele>
        <time>2015-06-24T09:15:42Z</time>
      </trkpt>
      <trkpt lat="48.11559" lon="7.68955">
        <ele>467.82</ele>
        <time>2015-06-24T09:15:56Z</time>
      </trkpt>
      <trkpt lat="48.11575" lon="7.68953">
        <ele>469.74</ele>
        <time>2015-06-24T09:16:12Z</time>
      </trkpt>
      <trkpt lat="48.11593" lon="7.68954">
        <ele>471.18</ele>
        <time>2015-06-24T09:16:25Z</time>
      </trkpt>
      <trkpt lat="48.11608" lon="7.68945">
        <ele>474.55</ele>
        <time>2015-06-24T09:16:42Z</time>
      </trkpt>
      <trkpt lat="48.11621" lon="7.68938">
        <ele>477.91</ele>
        <time>2015-06-24T09:17:00Z</time>
      </trkpt>
      <trkpt lat="48.1163" lon="7.68933">
        <ele>480.8</ele>
        <time>2015-06-24T09:17:14Z</time>
      </trkpt>
      <trkpt lat="48.11639" lon="7.68932">
        <ele>483.68</ele>
        <time>2015-06-24T09:17:27Z</time>
      </trkpt>
      <trkpt lat="48.11648" lon="7.68927">
        <ele>486.08</ele>
        <time>2015-06-24T09:17:40Z</time>
      </trkpt>
      <trkpt lat="48.11658" lon="7.6892">
        <ele>489.45</ele>
        <time>2015-06-24T09:17:53Z</time>
      </trkpt>
      <trkpt lat="48.11667" lon="7.68912">
        <ele>490.89</ele>
        <time>2015-06-24T09:18:03Z</time>
      </trkpt>
      <trkpt lat="48.11675" lon="7.68907">
        <ele>491.85</ele>
        <time>2015-06-24T09:18:17Z</time>
      </trkpt>
      <trkpt lat="48.11677" lon="7.68904">
        <ele>492.33</ele>
        <time>2015-06-24T09:18:33Z</time>
      </trkpt>
      <trkpt lat="48.11673" lon="7.68893">
        <ele>491.85</ele>
        <time>2015-06-24T09:18:51Z</time>
      </trkpt>
      <trkpt lat="48.11673" lon="7.68885">
        <ele>492.33</ele>
        <time>2015-06-24T09:19:10Z</time>
      </trkpt>
      <trkpt lat="48.11678" lon="7.68882">
        <ele>492.33</ele>
        <time>2015-06-24T09:19:29Z</time>
      </trkpt>
      <trkpt lat="48.11677" lon="7.68882">
        <ele>491.85</ele>
        <time>2015-06-24T09:20:02Z</time>
      </trkpt>
      <trkpt lat="48.11678" lon="7.68883">
        <ele>492.81</ele>
        <time>2015-06-24T09:20:39Z</time>
      </trkpt>
      <trkpt lat="48.11679" lon="7.68886">
        <ele>492.81</ele>
        <time>2015-06-24T09:21:08Z</time>
      </trkpt>
      <trkpt lat="48.11678" lon="7.68885">
        <ele>492.33</ele>
        <time>2015-06-24T09:21:29Z</time>
      </trkpt>
      <trkpt lat="48.11676" lon="7.68895">
        <ele>492.81</ele>
        <time>2015-06-24T09:22:13Z</time>
      </trkpt>
      <trkpt lat="48.11675" lon="7.68895">
        <ele>492.81</ele>
        <time>2015-06-24T09:22:15Z</time>
      </trkpt>
      <trkpt lat="48.11673" lon="7.68898">
        <ele>492.81</ele>
        <time>2015-06-24T09:22:37Z</time>
      </trkpt>
      <trkpt lat="48.11674" lon="7.68898">
        <ele>492.81</ele>
        <time>2015-06-24T09:23:54Z</time>
      </trkpt>
      <trkpt lat="48.11678" lon="7.68892">
        <ele>492.81</ele>
        <time>2015-06-24T09:25:50Z</time>
      </trkpt>
      <trkpt lat="48.11668" lon="7.68893">
        <ele>492.33</ele>
        <time>2015-06-24T09:26:04Z</time>
      </trkpt>
      <trkpt lat="48.11668" lon="7.68893">
        <ele>492.33</ele>
        <time>2015-06-24T09:26:10Z</time>
      </trkpt>
      <trkpt lat="48.11677" lon="7.68876">
        <ele>492.33</ele>
        <time>2015-06-24T09:26:25Z</time>
      </trkpt>
      <trkpt lat="48.11675" lon="7.68874">
        <ele>491.37</ele>
        <time>2015-06-24T09:26:41Z</time>
      </trkpt>
      <trkpt lat="48.11661" lon="7.6886">
        <ele>488.97</ele>
        <time>2015-06-24T09:27:11Z</time>
      </trkpt>
      <trkpt lat="48.1166" lon="7.68839">
        <ele>485.6</ele>
        <time>2015-06-24T09:27:23Z</time>
      </trkpt>
      <trkpt lat="48.11656" lon="7.68811">
        <ele>482.72</ele>
        <time>2015-06-24T09:27:37Z</time>
      </trkpt>
      <trkpt lat="48.1165" lon="7.68796">
        <ele>479.35</ele>
        <time>2015-06-24T09:27:50Z</time>
      </trkpt>
      <trkpt lat="48.11648" lon="7.68791">
        <ele>477.43</ele>
        <time>2015-06-24T09:27:56Z</time>
      </trkpt>
      <trkpt lat="48.11644" lon="7.6878">
        <ele>474.07</ele>
        <time>2015-06-24T09:28:06Z</time>
      </trkpt>
      <trkpt lat="48.11641" lon="7.68773">
        <ele>470.7</ele>
        <time>2015-06-24T09:28:17Z</time>
      </trkpt>
      <trkpt lat="48.11636" lon="7.68759">
        <ele>467.82</ele>
        <time>2015-06-24T09:28:28Z</time>
      </trkpt>
      <trkpt lat="48.11635" lon="7.68734">
        <ele>465.42</ele>
        <time>2015-06-24T09:28:35Z</time>
      </trkpt>
      <trkpt lat="48.11629" lon="7.6872">
        <ele>462.05</ele>
        <time>2015-06-24T09:28:45Z</time>
      </trkpt>
      <trkpt lat="48.11627" lon="7.68713">
        <ele>458.69</ele>
        <time>2015-06-24T09:28:56Z</time>
      </trkpt>
      <trkpt lat="48.11623" lon="7.68698">
        <ele>455.8</ele>
        <time>2015-06-24T09:29:07Z</time>
      </trkpt>
      <trkpt lat="48.11621" lon="7.68688">
        <ele>453.4</ele>
        <time>2015-06-24T09:29:14Z</time>
      </trkpt>
      <trkpt lat="48.1162" lon="7.68683">
        <ele>450.03</ele>
        <time>2015-06-24T09:29:24Z</time>
      </trkpt>
      <trkpt lat="48.11613" lon="7.68657">
        <ele>446.67</ele>
        <time>2015-06-24T09:29:37Z</time>
      </trkpt>
      <trkpt lat="48.11607" lon="7.68637">
        <ele>444.27</ele>
        <time>2015-06-24T09:29:53Z</time>
      </trkpt>
      <trkpt lat="48.11601" lon="7.68624">
        <ele>442.34</ele>
        <time>2015-06-24T09:30:07Z</time>
      </trkpt>
      <trkpt lat="48.11595" lon="7.68612">
        <ele>441.86</ele>
        <time>2015-06-24T09:30:27Z</time>
      </trkpt>
      <trkpt lat="48.11595" lon="7.68612">
        <ele>441.38</ele>
        <time>2015-06-24T09:30:59Z</time>
      </trkpt>
      <trkpt lat="48.11583" lon="7.68598">
        <ele>441.38</ele>
        <time>2015-06-24T09:31:19Z</time>
      </trkpt>
      <trkpt lat="48.11574" lon="7.68578">
        <ele>443.79</ele>
        <time>2015-06-24T09:31:37Z</time>
      </trkpt>
      <trkpt lat="48.11568" lon="7.68561">
        <ele>445.71</ele>
        <time>2015-06-24T09:31:52Z</time>
      </trkpt>
      <trkpt lat="48.11556" lon="7.68533">
        <ele>447.15</ele>
        <time>2015-06-24T09:32:08Z</time>
      </trkpt>
      <trkpt lat="48.11552" lon="7.68507">
        <ele>448.59</ele>
        <time>2015-06-24T09:32:23Z</time>
      </trkpt>
      <trkpt lat="48.11554" lon="7.68477">
        <ele>450.52</ele>
        <time>2015-06-24T09:32:42Z</time>
      </trkpt>
      <trkpt lat="48.11554" lon="7.68472">
        <ele>451</ele>
        <time>2015-06-24T09:32:45Z</time>
      </trkpt>
      <trkpt lat="48.11557" lon="7.68446">
        <ele>451.96</ele>
        <time>2015-06-24T09:33:05Z</time>
      </trkpt>
      <trkpt lat="48.1156" lon="7.68425">
        <ele>451.48</ele>
        <time>2015-06-24T09:33:23Z</time>
      </trkpt>
      <trkpt lat="48.11561" lon="7.6841">
        <ele>451.96</ele>
        <time>2015-06-24T09:33:42Z</time>
      </trkpt>
      <trkpt lat="48.11556" lon="7.68366">
        <ele>451.96</ele>
        <time>2015-06-24T09:33:59Z</time>
      </trkpt>
      <trkpt lat="48.11565" lon="7.68323">
        <ele>452.92</ele>
        <time>2015-06-24T09:34:17Z</time>
      </trkpt>
      <trkpt lat="48.1157" lon="7.68288">
        <ele>454.84</ele>
        <time>2015-06-24T09:34:34Z</time>
      </trkpt>
      <trkpt lat="48.11574" lon="7.68258">
        <ele>457.24</ele>
        <time>2015-06-24T09:34:51Z</time>
      </trkpt>
      <trkpt lat="48.11573" lon="7.68229">
        <ele>458.69</ele>
        <time>2015-06-24T09:35:07Z</time>
      </trkpt>
      <trkpt lat="48.11571" lon="7.68223">
        <ele>459.65</ele>
        <time>2015-06-24T09:35:12Z</time>
      </trkpt>
      <trkpt lat="48.11566" lon="7.68211">
        <ele>463.01</ele>
        <time>2015-06-24T09:35:30Z</time>
      </trkpt>
      <trkpt lat="48.1156" lon="7.68198">
        <ele>465.42</ele>
        <time>2015-06-24T09:35:47Z</time>
      </trkpt>
      <trkpt lat="48.11558" lon="7.68192">
        <ele>466.86</ele>
        <time>2015-06-24T09:36:07Z</time>
      </trkpt>
      <trkpt lat="48.11529" lon="7.68145">
        <ele>467.34</ele>
        <time>2015-06-24T09:36:23Z</time>
      </trkpt>
      <trkpt lat="48.11504" lon="7.68115">
        <ele>467.82</ele>
        <time>2015-06-24T09:36:42Z</time>
      </trkpt>
      <trkpt lat="48.11502" lon="7.68114">
        <ele>467.82</ele>
        <time>2015-06-24T09:36:43Z</time>
      </trkpt>
      <trkpt lat="48.11483" lon="7.68095">
        <ele>470.7</ele>
        <time>2015-06-24T09:37:01Z</time>
      </trkpt>
      <trkpt lat="48.11466" lon="7.68078">
        <ele>469.26</ele>
        <time>2015-06-24T09:37:18Z</time>
      </trkpt>
      <trkpt lat="48.11457" lon="7.68063">
        <ele>466.86</ele>
        <time>2015-06-24T09:37:30Z</time>
      </trkpt>
      <trkpt lat="48.11448" lon="7.6805">
        <ele>464.45</ele>
        <time>2015-06-24T09:37:41Z</time>
      </trkpt>
      <trkpt lat="48.11443" lon="7.6804">
        <ele>461.57</ele>
        <time>2015-06-24T09:37:50Z</time>
      </trkpt>
      <trkpt lat="48.11432" lon="7.68028">
        <ele>461.09</ele>
        <time>2015-06-24T09:38:06Z</time>
      </trkpt>
      <trkpt lat="48.11422" lon="7.68012">
        <ele>458.21</ele>
        <time>2015-06-24T09:38:26Z</time>
      </trkpt>
      <trkpt lat="48.1141" lon="7.67965">
        <ele>455.32</ele>
        <time>2015-06-24T09:38:46Z</time>
      </trkpt>
      <trkpt lat="48.11405" lon="7.67945">
        <ele>453.4</ele>
        <time>2015-06-24T09:38:59Z</time>
      </trkpt>
      <trkpt lat="48.11402" lon="7.67919">
        <ele>450.52</ele>
        <time>2015-06-24T09:39:17Z</time>
      </trkpt>
      <trkpt lat="48.114" lon="7.67893">
        <ele>448.59</ele>
        <time>2015-06-24T09:39:37Z</time>
      </trkpt>
      <trkpt lat="48.114" lon="7.67871">
        <ele>447.15</ele>
        <time>2015-06-24T09:39:53Z</time>
      </trkpt>
      <trkpt lat="48.11388" lon="7.67857">
        <ele>446.19</ele>
        <time>2015-06-24T09:40:11Z</time>
      </trkpt>
      <trkpt lat="48.11378" lon="7.67838">
        <ele>445.71</ele>
        <time>2015-06-24T09:40:24Z</time>
      </trkpt>
      <trkpt lat="48.11368" lon="7.67832">
        <ele>445.23</ele>
        <time>2015-06-24T09:40:41Z</time>
      </trkpt>
      <trkpt lat="48.11364" lon="7.67824">
        <ele>445.23</ele>
        <time>2015-06-24T09:40:46Z</time>
      </trkpt>
      <trkpt lat="48.11352" lon="7.67808">
        <ele>445.71</ele>
        <time>2015-06-24T09:41:02Z</time>
      </trkpt>
      <trkpt lat="48.11346" lon="7.67804">
        <ele>447.15</ele>
        <time>2015-06-24T09:41:16Z</time>
      </trkpt>
      <trkpt lat="48.11332" lon="7.67782">
        <ele>450.03</ele>
        <time>2015-06-24T09:41:35Z</time>
      </trkpt>
      <trkpt lat="48.11306" lon="7.67725">
        <ele>451.96</ele>
        <time>2015-06-24T09:41:54Z</time>
      </trkpt>
      <trkpt lat="48.11287" lon="7.67692">
        <ele>451.96</ele>
        <time>2015-06-24T09:42:13Z</time>
      </trkpt>
      <trkpt lat="48.11284" lon="7.67685">
        <ele>452.92</ele>
        <time>2015-06-24T09:42:27Z</time>
      </trkpt>
      <trkpt lat="48.11264" lon="7.67634">
        <ele>453.88</ele>
        <time>2015-06-24T09:42:48Z</time>
      </trkpt>
      <trkpt lat="48.11253" lon="7.67613">
        <ele>454.36</ele>
        <time>2015-06-24T09:43:04Z</time>
      </trkpt>
      <trkpt lat="48.11235" lon="7.67604">
        <ele>454.36</ele>
        <time>2015-06-24T09:43:23Z</time>
      </trkpt>
      <trkpt lat="48.11218" lon="7.67585">
        <ele>454.84</ele>
        <time>2015-06-24T09:43:43Z</time>
      </trkpt>
      <trkpt lat="48.11198" lon="7.67553">
        <ele>453.88</ele>
        <time>2015-06-24T09:44:03Z</time>
      </trkpt>
      <trkpt lat="48.11184" lon="7.67537">
        <ele>451.96</ele>
        <time>2015-06-24T09:44:19Z</time>
      </trkpt>
      <trkpt lat="48.11171" lon="7.6751">
        <ele>448.59</ele>
        <time>2015-06-24T09:44:38Z</time>
      </trkpt>
      <trkpt lat="48.11162" lon="7.67492">
        <ele>445.23</ele>
        <time>2015-06-24T09:44:55Z</time>
      </trkpt>
      <trkpt lat="48.11147" lon="7.67471">
        <ele>442.82</ele>
        <time>2015-06-24T09:45:15Z</time>
      </trkpt>
      <trkpt lat="48.11132" lon="7.67444">
        <ele>440.42</ele>
        <time>2015-06-24T09:45:35Z</time>
      </trkpt>
      <trkpt lat="48.11106" lon="7.67425">
        <ele>439.46</ele>
        <time>2015-06-24T09:45:55Z</time>
      </trkpt>
      <trkpt lat="48.11099" lon="7.67408">
        <ele>439.94</ele>
        <time>2015-06-24T09:46:14Z</time>
      </trkpt>
      <trkpt lat="48.11089" lon="7.6739">
        <ele>439.46</ele>
        <time>2015-06-24T09:46:36Z</time>
      </trkpt>
      <trkpt lat="48.11068" lon="7.67364">
        <ele>439.94</ele>
        <time>2015-06-24T09:47:00Z</time>
      </trkpt>
      <trkpt lat="48.11068" lon="7.67364">
        <ele>439.46</ele>
        <time>2015-06-24T09:47:53Z</time>
      </trkpt>
      <trkpt lat="48.11064" lon="7.67344">
        <ele>438.02</ele>
        <time>2015-06-24T09:48:22Z</time>
      </trkpt>
      <trkpt lat="48.11064" lon="7.67336">
        <ele>437.06</ele>
        <time>2015-06-24T09:48:26Z</time>
      </trkpt>
      <trkpt lat="48.11066" lon="7.67309">
        <ele>433.69</ele>
        <time>2015-06-24T09:48:40Z</time>
      </trkpt>
      <trkpt lat="48.11067" lon="7.67288">
        <ele>430.33</ele>
        <time>2015-06-24T09:48:52Z</time>
      </trkpt>
      <trkpt lat="48.11072" lon="7.67269">
        <ele>427.92</ele>
        <time>2015-06-24T09:49:10Z</time>
      </trkpt>
      <trkpt lat="48.11075" lon="7.67253">
        <ele>424.56</ele>
        <time>2015-06-24T09:49:26Z</time>
      </trkpt>
      <trkpt lat="48.11074" lon="7.67236">
        <ele>422.64</ele>
        <time>2015-06-24T09:49:46Z</time>
      </trkpt>
      <trkpt lat="48.11074" lon="7.67228">
        <ele>420.71</ele>
        <time>2015-06-24T09:50:05Z</time>
      </trkpt>
      <trkpt lat="48.11076" lon="7.6721">
        <ele>420.23</ele>
        <time>2015-06-24T09:50:36Z</time>
      </trkpt>
      <trkpt lat="48.11092" lon="7.67157">
        <ele>421.19</ele>
        <time>2015-06-24T09:50:53Z</time>
      </trkpt>
      <trkpt lat="48.11097" lon="7.67133">
        <ele>421.68</ele>
        <time>2015-06-24T09:51:05Z</time>
      </trkpt>
      <trkpt lat="48.11106" lon="7.67112">
        <ele>424.56</ele>
        <time>2015-06-24T09:51:21Z</time>
      </trkpt>
      <trkpt lat="48.11114" lon="7.67091">
        <ele>426.96</ele>
        <time>2015-06-24T09:51:39Z</time>
      </trkpt>
      <trkpt lat="48.11117" lon="7.67086">
        <ele>427.44</ele>
        <time>2015-06-24T09:51:43Z</time>
      </trkpt>
      <trkpt lat="48.11127" lon="7.67067">
        <ele>429.85</ele>
        <time>2015-06-24T09:51:59Z</time>
      </trkpt>
      <trkpt lat="48.11138" lon="7.67043">
        <ele>432.25</ele>
        <time>2015-06-24T09:52:18Z</time>
      </trkpt>
      <trkpt lat="48.11144" lon="7.67022">
        <ele>432.73</ele>
        <time>2015-06-24T09:52:35Z</time>
      </trkpt>
      <trkpt lat="48.11147" lon="7.66999">
        <ele>434.65</ele>
        <time>2015-06-24T09:52:55Z</time>
      </trkpt>
      <trkpt lat="48.11159" lon="7.66978">
        <ele>437.54</ele>
        <time>2015-06-24T09:53:11Z</time>
      </trkpt>
      <trkpt lat="48.11166" lon="7.66956">
        <ele>440.9</ele>
        <time>2015-06-24T09:53:25Z</time>
      </trkpt>
      <trkpt lat="48.11164" lon="7.6693">
        <ele>443.31</ele>
        <time>2015-06-24T09:53:45Z</time>
      </trkpt>
      <trkpt lat="48.11162" lon="7.66929">
        <ele>443.79</ele>
        <time>2015-06-24T09:53:47Z</time>
      </trkpt>
      <trkpt lat="48.11148" lon="7.66912">
        <ele>444.75</ele>
        <time>2015-06-24T09:54:07Z</time>
      </trkpt>
      <trkpt lat="48.1114" lon="7.66901">
        <ele>444.75</ele>
        <time>2015-06-24T09:54:25Z</time>
      </trkpt>
      <trkpt lat="48.11129" lon="7.66891">
        <ele>444.75</ele>
        <time>2015-06-24T09:54:43Z</time>
      </trkpt>
      <trkpt lat="48.11096" lon="7.6686">
        <ele>445.71</ele>
        <time>2015-06-24T09:55:01Z</time>
      </trkpt>
      <trkpt lat="48.11074" lon="7.66846">
        <ele>446.19</ele>
        <time>2015-06-24T09:55:19Z</time>
      </trkpt>
      <trkpt lat="48.11059" lon="7.66835">
        <ele>446.19</ele>
        <time>2015-06-24T09:55:36Z</time>
      </trkpt>
      <trkpt lat="48.11056" lon="7.66833">
        <ele>446.19</ele>
        <time>2015-06-24T09:55:39Z</time>
      </trkpt>
      <trkpt lat="48.11039" lon="7.66811">
        <ele>446.67</ele>
        <time>2015-06-24T09:55:56Z</time>
      </trkpt>
      <trkpt lat="48.11026" lon="7.66796">
        <ele>448.11</ele>
        <time>2015-06-24T09:56:12Z</time>
      </trkpt>
      <trkpt lat="48.1102" lon="7.66793">
        <ele>449.07</ele>
        <time>2015-06-24T09:56:28Z</time>
      </trkpt>
      <trkpt lat="48.11001" lon="7.66773">
        <ele>448.59</ele>
        <time>2015-06-24T09:56:45Z</time>
      </trkpt>
      <trkpt lat="48.10991" lon="7.66749">
        <ele>448.11</ele>
        <time>2015-06-24T09:57:02Z</time>
      </trkpt>
      <trkpt lat="48.10987" lon="7.66739">
        <ele>448.11</ele>
        <time>2015-06-24T09:57:10Z</time>
      </trkpt>
      <trkpt lat="48.10981" lon="7.6671">
        <ele>445.23</ele>
        <time>2015-06-24T09:57:29Z</time>
      </trkpt>
      <trkpt lat="48.10978" lon="7.66683">
        <ele>441.86</ele>
        <time>2015-06-24T09:57:47Z</time>
      </trkpt>
      <trkpt lat="48.10975" lon="7.6666">
        <ele>438.98</ele>
        <time>2015-06-24T09:58:05Z</time>
      </trkpt>
      <trkpt lat="48.10968" lon="7.66637">
        <ele>436.1</ele>
        <time>2015-06-24T09:58:20Z</time>
      </trkpt>
      <trkpt lat="48.10965" lon="7.66619">
        <ele>434.65</ele>
        <time>2015-06-24T09:58:36Z</time>
      </trkpt>
      <trkpt lat="48.10963" lon="7.66602">
        <ele>435.13</ele>
        <time>2015-06-24T09:58:46Z</time>
      </trkpt>
      <trkpt lat="48.10963" lon="7.66587">
        <ele>436.1</ele>
        <time>2015-06-24T09:59:01Z</time>
      </trkpt>
      <trkpt lat="48.10964" lon="7.66585">
        <ele>437.06</ele>
        <time>2015-06-24T09:59:15Z</time>
      </trkpt>
      <trkpt lat="48.10968" lon="7.66528">
        <ele>438.02</ele>
        <time>2015-06-24T09:59:36Z</time>
      </trkpt>
      <trkpt lat="48.10963" lon="7.66485">
        <ele>438.02</ele>
        <time>2015-06-24T09:59:52Z</time>
      </trkpt>
      <trkpt lat="48.10963" lon="7.66455">
        <ele>439.94</ele>
        <time>2015-06-24T10:00:11Z</time>
      </trkpt>
      <trkpt lat="48.10971" lon="7.66408">
        <ele>441.38</ele>
        <time>2015-06-24T10:00:31Z</time>
      </trkpt>
      <trkpt lat="48.10971" lon="7.66394">
        <ele>440.42</ele>
        <time>2015-06-24T10:00:40Z</time>
      </trkpt>
      <trkpt lat="48.10977" lon="7.66364">
        <ele>437.06</ele>
        <time>2015-06-24T10:00:59Z</time>
      </trkpt>
      <trkpt lat="48.10979" lon="7.66358">
        <ele>435.13</ele>
        <time>2015-06-24T10:01:04Z</time>
      </trkpt>
      <trkpt lat="48.10976" lon="7.66347">
        <ele>432.25</ele>
        <time>2015-06-24T10:01:14Z</time>
      </trkpt>
      <trkpt lat="48.10975" lon="7.66343">
        <ele>428.89</ele>
        <time>2015-06-24T10:01:29Z</time>
      </trkpt>
      <trkpt lat="48.10977" lon="7.66327">
        <ele>426</ele>
        <time>2015-06-24T10:01:38Z</time>
      </trkpt>
      <trkpt lat="48.10979" lon="7.66326">
        <ele>422.64</ele>
        <time>2015-06-24T10:01:48Z</time>
      </trkpt>
      <trkpt lat="48.10982" lon="7.66317">
        <ele>419.75</ele>
        <time>2015-06-24T10:01:55Z</time>
      </trkpt>
      <trkpt lat="48.10982" lon="7.66314">
        <ele>416.39</ele>
        <time>2015-06-24T10:02:06Z</time>
      </trkpt>
      <trkpt lat="48.10983" lon="7.66303">
        <ele>414.47</ele>
        <time>2015-06-24T10:02:11Z</time>
      </trkpt>
      <trkpt lat="48.10988" lon="7.66274">
        <ele>411.58</ele>
        <time>2015-06-24T10:02:24Z</time>
      </trkpt>
      <trkpt lat="48.10991" lon="7.66257">
        <ele>409.66</ele>
        <time>2015-06-24T10:02:44Z</time>
      </trkpt>
      <trkpt lat="48.10994" lon="7.66249">
        <ele>409.18</ele>
        <time>2015-06-24T10:03:05Z</time>
      </trkpt>
      <trkpt lat="48.10994" lon="7.66249">
        <ele>409.66</ele>
        <time>2015-06-24T10:03:54Z</time>
      </trkpt>
      <trkpt lat="48.10995" lon="7.66248">
        <ele>410.14</ele>
        <time>2015-06-24T10:04:51Z</time>
      </trkpt>
      <trkpt lat="48.10996" lon="7.66248">
        <ele>410.14</ele>
        <time>2015-06-24T10:06:11Z</time>
      </trkpt>
      <trkpt lat="48.11" lon="7.66218">
        <ele>408.7</ele>
        <time>2015-06-24T10:06:42Z</time>
      </trkpt>
      <trkpt lat="48.11002" lon="7.66185">
        <ele>407.26</ele>
        <time>2015-06-24T10:06:57Z</time>
      </trkpt>
      <trkpt lat="48.10995" lon="7.66166">
        <ele>404.37</ele>
        <time>2015-06-24T10:07:15Z</time>
      </trkpt>
      <trkpt lat="48.10989" lon="7.66146">
        <ele>402.93</ele>
        <time>2015-06-24T10:07:29Z</time>
      </trkpt>
      <trkpt lat="48.10982" lon="7.66104">
        <ele>400.53</ele>
        <time>2015-06-24T10:07:48Z</time>
      </trkpt>
      <trkpt lat="48.10977" lon="7.66086">
        <ele>400.05</ele>
        <time>2015-06-24T10:08:01Z</time>
      </trkpt>
      <trkpt lat="48.10976" lon="7.66081">
        <ele>399.57</ele>
        <time>2015-06-24T10:08:03Z</time>
      </trkpt>
      <trkpt lat="48.10975" lon="7.66065">
        <ele>399.08</ele>
        <time>2015-06-24T10:08:12Z</time>
      </trkpt>
      <trkpt lat="48.10964" lon="7.66046">
        <ele>398.12</ele>
        <time>2015-06-24T10:08:29Z</time>
      </trkpt>
      <trkpt lat="48.1096" lon="7.66008">
        <ele>395.72</ele>
        <time>2015-06-24T10:08:47Z</time>
      </trkpt>
      <trkpt lat="48.10956" lon="7.65981">
        <ele>395.72</ele>
        <time>2015-06-24T10:09:06Z</time>
      </trkpt>
      <trkpt lat="48.10947" lon="7.65961">
        <ele>396.68</ele>
        <time>2015-06-24T10:09:23Z</time>
      </trkpt>
      <trkpt lat="48.10932" lon="7.6594">
        <ele>397.16</ele>
        <time>2015-06-24T10:09:40Z</time>
      </trkpt>
      <trkpt lat="48.10914" lon="7.65931">
        <ele>397.64</ele>
        <time>2015-06-24T10:09:55Z</time>
      </trkpt>
      <trkpt lat="48.10909" lon="7.65903">
        <ele>397.64</ele>
        <time>2015-06-24T10:10:12Z</time>
      </trkpt>
      <trkpt lat="48.10911" lon="7.6589">
        <ele>398.12</ele>
        <time>2015-06-24T10:10:21Z</time>
      </trkpt>
      <trkpt lat="48.10921" lon="7.65855">
        <ele>398.12</ele>
        <time>2015-06-24T10:10:41Z</time>
      </trkpt>
      <trkpt lat="48.1093" lon="7.65825">
        <ele>399.08</ele>
        <time>2015-06-24T10:10:58Z</time>
      </trkpt>
      <trkpt lat="48.10938" lon="7.65807">
        <ele>399.57</ele>
        <time>2015-06-24T10:11:10Z</time>
      </trkpt>
      <trkpt lat="48.1095" lon="7.65781">
        <ele>401.49</ele>
        <time>2015-06-24T10:11:30Z</time>
      </trkpt>
      <trkpt lat="48.10964" lon="7.65765">
        <ele>403.89</ele>
        <time>2015-06-24T10:11:48Z</time>
      </trkpt>
      <trkpt lat="48.10976" lon="7.65755">
        <ele>406.77</ele>
        <time>2015-06-24T10:12:07Z</time>
      </trkpt>
      <trkpt lat="48.10981" lon="7.65746">
        <ele>407.26</ele>
        <time>2015-06-24T10:12:14Z</time>
      </trkpt>
      <trkpt lat="48.10987" lon="7.6571">
        <ele>409.18</ele>
        <time>2015-06-24T10:12:31Z</time>
      </trkpt>
      <trkpt lat="48.10988" lon="7.65706">
        <ele>409.18</ele>
        <time>2015-06-24T10:12:34Z</time>
      </trkpt>
      <trkpt lat="48.10999" lon="7.65665">
        <ele>408.7</ele>
        <time>2015-06-24T10:12:55Z</time>
      </trkpt>
      <trkpt lat="48.11008" lon="7.65619">
        <ele>405.81</ele>
        <time>2015-06-24T10:13:18Z</time>
      </trkpt>
      <trkpt lat="48.11016" lon="7.65593">
        <ele>403.89</ele>
        <time>2015-06-24T10:13:34Z</time>
      </trkpt>
      <trkpt lat="48.11019" lon="7.65563">
        <ele>403.41</ele>
        <time>2015-06-24T10:13:52Z</time>
      </trkpt>
      <trkpt lat="48.11016" lon="7.65554">
        <ele>402.45</ele>
        <time>2015-06-24T10:13:59Z</time>
      </trkpt>
      <trkpt lat="48.1102" lon="7.6552">
        <ele>402.93</ele>
        <time>2015-06-24T10:14:15Z</time>
      </trkpt>
      <trkpt lat="48.11025" lon="7.65482">
        <ele>403.89</ele>
        <time>2015-06-24T10:14:34Z</time>
      </trkpt>
      <trkpt lat="48.11026" lon="7.65475">
        <ele>403.89</ele>
        <time>2015-06-24T10:14:38Z</time>
      </trkpt>
      <trkpt lat="48.11023" lon="7.65454">
        <ele>403.89</ele>
        <time>2015-06-24T10:14:53Z</time>
      </trkpt>
      <trkpt lat="48.11006" lon="7.65438">
        <ele>402.45</ele>
        <time>2015-06-24T10:15:10Z</time>
      </trkpt>
      <trkpt lat="48.1099" lon="7.65431">
        <ele>400.53</ele>
        <time>2015-06-24T10:15:24Z</time>
      </trkpt>
      <trkpt lat="48.10977" lon="7.65415">
        <ele>398.6</ele>
        <time>2015-06-24T10:15:42Z</time>
      </trkpt>
      <trkpt lat="48.10976" lon="7.65414">
        <ele>398.12</ele>
        <time>2015-06-24T10:16:03Z</time>
      </trkpt>
      <trkpt lat="48.10976" lon="7.65414">
        <ele>398.6</ele>
        <time>2015-06-24T10:16:35Z</time>
      </trkpt>
      <trkpt lat="48.10983" lon="7.65409">
        <ele>398.6</ele>
        <time>2015-06-24T10:16:42Z</time>
      </trkpt>
      <trkpt lat="48.10997" lon="7.65409">
        <ele>402.45</ele>
        <time>2015-06-24T10:16:58Z</time>
      </trkpt>
      <trkpt lat="48.11014" lon="7.65411">
        <ele>403.89</ele>
        <time>2015-06-24T10:17:16Z</time>
      </trkpt>
      <trkpt lat="48.11015" lon="7.65411">
        <ele>403.89</ele>
        <time>2015-06-24T10:17:17Z</time>
      </trkpt>
      <trkpt lat="48.11022" lon="7.65403">
        <ele>404.85</ele>
        <time>2015-06-24T10:17:32Z</time>
      </trkpt>
      <trkpt lat="48.11021" lon="7.65398">
        <ele>405.33</ele>
        <time>2015-06-24T10:17:35Z</time>
      </trkpt>
      <trkpt lat="48.11019" lon="7.65392">
        <ele>405.81</ele>
        <time>2015-06-24T10:17:39Z</time>
      </trkpt>
      <trkpt lat="48.11008" lon="7.65366">
        <ele>408.7</ele>
        <time>2015-06-24T10:17:58Z</time>
      </trkpt>
      <trkpt lat="48.11007" lon="7.65361">
        <ele>409.18</ele>
        <time>2015-06-24T10:18:02Z</time>
      </trkpt>
      <trkpt lat="48.11001" lon="7.65338">
        <ele>411.58</ele>
        <time>2015-06-24T10:18:19Z</time>
      </trkpt>
      <trkpt lat="48.10999" lon="7.65308">
        <ele>414.47</ele>
        <time>2015-06-24T10:18:37Z</time>
      </trkpt>
      <trkpt lat="48.1099" lon="7.65279">
        <ele>416.39</ele>
        <time>2015-06-24T10:18:54Z</time>
      </trkpt>
      <trkpt lat="48.10981" lon="7.65253">
        <ele>417.35</ele>
        <time>2015-06-24T10:19:12Z</time>
      </trkpt>
      <trkpt lat="48.10979" lon="7.65249">
        <ele>417.35</ele>
        <time>2015-06-24T10:19:15Z</time>
      </trkpt>
      <trkpt lat="48.10971" lon="7.65216">
        <ele>417.35</ele>
        <time>2015-06-24T10:19:34Z</time>
      </trkpt>
      <trkpt lat="48.10971" lon="7.65215">
        <ele>417.35</ele>
        <time>2015-06-24T10:19:35Z</time>
      </trkpt>
      <trkpt lat="48.10967" lon="7.65185">
        <ele>415.43</ele>
        <time>2015-06-24T10:19:53Z</time>
      </trkpt>
      <trkpt lat="48.1097" lon="7.6516">
        <ele>414.47</ele>
        <time>2015-06-24T10:20:10Z</time>
      </trkpt>
      <trkpt lat="48.10971" lon="7.65127">
        <ele>413.98</ele>
        <time>2015-06-24T10:20:31Z</time>
      </trkpt>
      <trkpt lat="48.10965" lon="7.65123">
        <ele>414.47</ele>
        <time>2015-06-24T10:20:46Z</time>
      </trkpt>
      <trkpt lat="48.10939" lon="7.65102">
        <ele>414.47</ele>
        <time>2015-06-24T10:21:03Z</time>
      </trkpt>
      <trkpt lat="48.10918" lon="7.65084">
        <ele>414.95</ele>
        <time>2015-06-24T10:21:20Z</time>
      </trkpt>
      <trkpt lat="48.10909" lon="7.65076">
        <ele>414.47</ele>
        <time>2015-06-24T10:21:31Z</time>
      </trkpt>
      <trkpt lat="48.10885" lon="7.65058">
        <ele>413.98</ele>
        <time>2015-06-24T10:21:52Z</time>
      </trkpt>
      <trkpt lat="48.10864" lon="7.6504">
        <ele>413.98</ele>
        <time>2015-06-24T10:22:13Z</time>
      </trkpt>
      <trkpt lat="48.1086" lon="7.65038">
        <ele>413.98</ele>
        <time>2015-06-24T10:22:16Z</time>
      </trkpt>
      <trkpt lat="48.10837" lon="7.65034">
        <ele>413.5</ele>
        <time>2015-06-24T10:22:36Z</time>
      </trkpt>
      <trkpt lat="48.10821" lon="7.65028">
        <ele>413.5</ele>
        <time>2015-06-24T10:22:51Z</time>
      </trkpt>
      <trkpt lat="48.10803" lon="7.65017">
        <ele>412.54</ele>
        <time>2015-06-24T10:23:08Z</time>
      </trkpt>
      <trkpt lat="48.108" lon="7.65014">
        <ele>412.54</ele>
        <time>2015-06-24T10:23:11Z</time>
      </trkpt>
      <trkpt lat="48.10782" lon="7.64997">
        <ele>411.58</ele>
        <time>2015-06-24T10:23:29Z</time>
      </trkpt>
      <trkpt lat="48.10769" lon="7.64972">
        <ele>410.62</ele>
        <time>2015-06-24T10:23:49Z</time>
      </trkpt>
      <trkpt lat="48.10759" lon="7.64952">
        <ele>409.66</ele>
        <time>2015-06-24T10:24:04Z</time>
      </trkpt>
      <trkpt lat="48.10747" lon="7.64921">
        <ele>408.7</ele>
        <time>2015-06-24T10:24:24Z</time>
      </trkpt>
      <trkpt lat="48.10732" lon="7.64899">
        <ele>407.74</ele>
        <time>2015-06-24T10:24:43Z</time>
      </trkpt>
      <trkpt lat="48.10725" lon="7.64892">
        <ele>408.22</ele>
        <time>2015-06-24T10:24:48Z</time>
      </trkpt>
      <trkpt lat="48.10706" lon="7.64875">
        <ele>407.26</ele>
        <time>2015-06-24T10:25:04Z</time>
      </trkpt>
      <trkpt lat="48.1069" lon="7.64848">
        <ele>407.74</ele>
        <time>2015-06-24T10:25:22Z</time>
      </trkpt>
      <trkpt lat="48.10683" lon="7.64828">
        <ele>411.1</ele>
        <time>2015-06-24T10:25:40Z</time>
      </trkpt>
      <trkpt lat="48.10673" lon="7.64806">
        <ele>413.02</ele>
        <time>2015-06-24T10:25:59Z</time>
      </trkpt>
      <trkpt lat="48.10663" lon="7.6477">
        <ele>416.39</ele>
        <time>2015-06-24T10:26:19Z</time>
      </trkpt>
      <trkpt lat="48.10645" lon="7.64764">
        <ele>416.87</ele>
        <time>2015-06-24T10:26:39Z</time>
      </trkpt>
      <trkpt lat="48.10618" lon="7.64768">
        <ele>418.31</ele>
        <time>2015-06-24T10:26:56Z</time>
      </trkpt>
      <trkpt lat="48.10595" lon="7.64773">
        <ele>418.79</ele>
        <time>2015-06-24T10:27:13Z</time>
      </trkpt>
      <trkpt lat="48.10594" lon="7.64773">
        <ele>418.79</ele>
        <time>2015-06-24T10:27:14Z</time>
      </trkpt>
      <trkpt lat="48.10592" lon="7.64771">
        <ele>418.79</ele>
        <time>2015-06-24T10:27:16Z</time>
      </trkpt>
      <trkpt lat="48.10575" lon="7.6476">
        <ele>418.79</ele>
        <time>2015-06-24T10:27:33Z</time>
      </trkpt>
      <trkpt lat="48.10568" lon="7.64747">
        <ele>419.27</ele>
        <time>2015-06-24T10:27:45Z</time>
      </trkpt>
      <trkpt lat="48.10556" lon="7.64726">
        <ele>420.23</ele>
        <time>2015-06-24T10:28:03Z</time>
      </trkpt>
      <trkpt lat="48.10546" lon="7.64713">
        <ele>421.19</ele>
        <time>2015-06-24T10:28:17Z</time>
      </trkpt>
      <trkpt lat="48.10527" lon="7.64705">
        <ele>421.68</ele>
        <time>2015-06-24T10:28:34Z</time>
      </trkpt>
      <trkpt lat="48.10503" lon="7.64699">
        <ele>422.64</ele>
        <time>2015-06-24T10:28:54Z</time>
      </trkpt>
      <trkpt lat="48.10495" lon="7.64693">
        <ele>423.12</ele>
        <time>2015-06-24T10:29:14Z</time>
      </trkpt>
      <trkpt lat="48.10498" lon="7.64701">
        <ele>422.64</ele>
        <time>2015-06-24T10:29:42Z</time>
      </trkpt>
      <trkpt lat="48.10499" lon="7.64702">
        <ele>423.12</ele>
        <time>2015-06-24T10:30:06Z</time>
      </trkpt>
      <trkpt lat="48.1049" lon="7.64699">
        <ele>422.64</ele>
        <time>2015-06-24T10:30:22Z</time>
      </trkpt>
      <trkpt lat="48.10484" lon="7.64702">
        <ele>423.12</ele>
        <time>2015-06-24T10:30:30Z</time>
      </trkpt>
      <trkpt lat="48.10472" lon="7.64696">
        <ele>423.12</ele>
        <time>2015-06-24T10:30:48Z</time>
      </trkpt>
      <trkpt lat="48.10458" lon="7.64693">
        <ele>421.19</ele>
        <time>2015-06-24T10:31:04Z</time>
      </trkpt>
      <trkpt lat="48.10433" lon="7.64667">
        <ele>417.83</ele>
        <time>2015-06-24T10:31:24Z</time>
      </trkpt>
      <trkpt lat="48.10414" lon="7.64646">
        <ele>417.35</ele>
        <time>2015-06-24T10:31:45Z</time>
      </trkpt>
      <trkpt lat="48.10406" lon="7.64638">
        <ele>416.87</ele>
        <time>2015-06-24T10:31:56Z</time>
      </trkpt>
      <trkpt lat="48.10417" lon="7.64658">
        <ele>417.83</ele>
        <time>2015-06-24T10:32:13Z</time>
      </trkpt>
      <trkpt lat="48.10434" lon="7.64677">
        <ele>418.31</ele>
        <time>2015-06-24T10:32:31Z</time>
      </trkpt>
      <trkpt lat="48.10436" lon="7.64678">
        <ele>418.79</ele>
        <time>2015-06-24T10:32:33Z</time>
      </trkpt>
      <trkpt lat="48.10446" lon="7.64684">
        <ele>421.19</ele>
        <time>2015-06-24T10:32:45Z</time>
      </trkpt>
      <trkpt lat="48.10461" lon="7.64691">
        <ele>423.6</ele>
        <time>2015-06-24T10:33:04Z</time>
      </trkpt>
      <trkpt lat="48.10463" lon="7.64696">
        <ele>423.12</ele>
        <time>2015-06-24T10:33:52Z</time>
      </trkpt>
      <trkpt lat="48.10473" lon="7.647">
        <ele>423.6</ele>
        <time>2015-06-24T10:34:01Z</time>
      </trkpt>
      <trkpt lat="48.10473" lon="7.64706">
        <ele>422.16</ele>
        <time>2015-06-24T10:34:17Z</time>
      </trkpt>
      <trkpt lat="48.10472" lon="7.64708">
        <ele>420.71</ele>
        <time>2015-06-24T10:35:06Z</time>
      </trkpt>
      <trkpt lat="48.10475" lon="7.64698">
        <ele>421.68</ele>
        <time>2015-06-24T10:35:29Z</time>
      </trkpt>
      <trkpt lat="48.10475" lon="7.64698">
        <ele>421.68</ele>
        <time>2015-06-24T10:36:13Z</time>
      </trkpt>
      <trkpt lat="48.10478" lon="7.64705">
        <ele>423.6</ele>
        <time>2015-06-24T10:36:51Z</time>
      </trkpt>
      <trkpt lat="48.10494" lon="7.647">
        <ele>424.08</ele>
        <time>2015-06-24T10:37:08Z</time>
      </trkpt>
      <trkpt lat="48.10497" lon="7.64698">
        <ele>424.08</ele>
        <time>2015-06-24T10:37:36Z</time>
      </trkpt>
      <trkpt lat="48.10499" lon="7.64699">
        <ele>424.08</ele>
        <time>2015-06-24T10:38:19Z</time>
      </trkpt>
      <trkpt lat="48.10502" lon="7.64701">
        <ele>423.6</ele>
        <time>2015-06-24T10:38:52Z</time>
      </trkpt>
      <trkpt lat="48.10501" lon="7.647">
        <ele>422.64</ele>
        <time>2015-06-24T10:39:54Z</time>
      </trkpt>
      <trkpt lat="48.10499" lon="7.64703">
        <ele>423.12</ele>
        <time>2015-06-24T10:40:18Z</time>
      </trkpt>
      <trkpt lat="48.10501" lon="7.64703">
        <ele>423.12</ele>
        <time>2015-06-24T10:41:07Z</time>
      </trkpt>
      <trkpt lat="48.10501" lon="7.64703">
        <ele>427.44</ele>
        <time>2015-06-24T11:19:15Z</time>
      </trkpt>
      <trkpt lat="48.10501" lon="7.64703">
        <ele>423.6</ele>
        <time>2015-06-24T11:19:17Z</time>
      </trkpt>
      <trkpt lat="48.10489" lon="7.64696">
        <ele>423.6</ele>
        <time>2015-06-24T11:19:24Z</time>
      </trkpt>
      <trkpt lat="48.10489" lon="7.64698">
        <ele>426.48</ele>
        <time>2015-06-24T11:19:53Z</time>
      </trkpt>
      <trkpt lat="48.10483" lon="7.647">
        <ele>429.85</ele>
        <time>2015-06-24T11:20:06Z</time>
      </trkpt>
      <trkpt lat="48.10484" lon="7.647">
        <ele>431.29</ele>
        <time>2015-06-24T11:22:04Z</time>
      </trkpt>
      <trkpt lat="48.10481" lon="7.647">
        <ele>431.29</ele>
        <time>2015-06-24T11:22:56Z</time>
      </trkpt>
      <trkpt lat="48.10462" lon="7.64697">
        <ele>430.81</ele>
        <time>2015-06-24T11:23:13Z</time>
      </trkpt>
      <trkpt lat="48.10445" lon="7.64687">
        <ele>429.37</ele>
        <time>2015-06-24T11:23:30Z</time>
      </trkpt>
      <trkpt lat="48.10428" lon="7.64674">
        <ele>426</ele>
        <time>2015-06-24T11:23:50Z</time>
      </trkpt>
      <trkpt lat="48.10424" lon="7.6467">
        <ele>426</ele>
        <time>2015-06-24T11:23:54Z</time>
      </trkpt>
      <trkpt lat="48.10413" lon="7.6466">
        <ele>425.52</ele>
        <time>2015-06-24T11:24:07Z</time>
      </trkpt>
      <trkpt lat="48.10402" lon="7.64641">
        <ele>425.04</ele>
        <time>2015-06-24T11:24:21Z</time>
      </trkpt>
      <trkpt lat="48.10391" lon="7.64623">
        <ele>424.56</ele>
        <time>2015-06-24T11:24:35Z</time>
      </trkpt>
      <trkpt lat="48.10374" lon="7.64589">
        <ele>425.04</ele>
        <time>2015-06-24T11:25:01Z</time>
      </trkpt>
      <trkpt lat="48.10374" lon="7.64587">
        <ele>425.04</ele>
        <time>2015-06-24T11:25:02Z</time>
      </trkpt>
      <trkpt lat="48.10371" lon="7.64576">
        <ele>426</ele>
        <time>2015-06-24T11:25:08Z</time>
      </trkpt>
      <trkpt lat="48.10361" lon="7.64536">
        <ele>423.12</ele>
        <time>2015-06-24T11:25:32Z</time>
      </trkpt>
      <trkpt lat="48.10352" lon="7.64505">
        <ele>420.71</ele>
        <time>2015-06-24T11:25:51Z</time>
      </trkpt>
      <trkpt lat="48.10335" lon="7.64475">
        <ele>419.75</ele>
        <time>2015-06-24T11:26:11Z</time>
      </trkpt>
      <trkpt lat="48.1032" lon="7.64453">
        <ele>420.23</ele>
        <time>2015-06-24T11:26:28Z</time>
      </trkpt>
      <trkpt lat="48.10313" lon="7.64428">
        <ele>419.27</ele>
        <time>2015-06-24T11:26:46Z</time>
      </trkpt>
      <trkpt lat="48.10304" lon="7.64399">
        <ele>417.83</ele>
        <time>2015-06-24T11:27:04Z</time>
      </trkpt>
      <trkpt lat="48.10292" lon="7.64374">
        <ele>418.79</ele>
        <time>2015-06-24T11:27:21Z</time>
      </trkpt>
      <trkpt lat="48.10287" lon="7.64367">
        <ele>419.27</ele>
        <time>2015-06-24T11:27:26Z</time>
      </trkpt>
      <trkpt lat="48.10274" lon="7.64337">
        <ele>422.16</ele>
        <time>2015-06-24T11:27:46Z</time>
      </trkpt>
      <trkpt lat="48.10269" lon="7.64335">
        <ele>422.16</ele>
        <time>2015-06-24T11:28:04Z</time>
      </trkpt>
      <trkpt lat="48.10263" lon="7.64332">
        <ele>420.71</ele>
        <time>2015-06-24T11:28:09Z</time>
      </trkpt>
      <trkpt lat="48.10248" lon="7.6433">
        <ele>419.27</ele>
        <time>2015-06-24T11:28:22Z</time>
      </trkpt>
      <trkpt lat="48.10233" lon="7.64329">
        <ele>416.39</ele>
        <time>2015-06-24T11:28:35Z</time>
      </trkpt>
      <trkpt lat="48.10217" lon="7.64328">
        <ele>413.02</ele>
        <time>2015-06-24T11:28:50Z</time>
      </trkpt>
      <trkpt lat="48.10215" lon="7.64328">
        <ele>413.02</ele>
        <time>2015-06-24T11:28:52Z</time>
      </trkpt>
      <trkpt lat="48.10212" lon="7.64334">
        <ele>411.58</ele>
        <time>2015-06-24T11:28:57Z</time>
      </trkpt>
      <trkpt lat="48.10212" lon="7.6434">
        <ele>411.1</ele>
        <time>2015-06-24T11:29:01Z</time>
      </trkpt>
      <trkpt lat="48.10224" lon="7.64353">
        <ele>408.22</ele>
        <time>2015-06-24T11:29:16Z</time>
      </trkpt>
      <trkpt lat="48.10229" lon="7.64358">
        <ele>408.22</ele>
        <time>2015-06-24T11:29:21Z</time>
      </trkpt>
      <trkpt lat="48.1023" lon="7.6436">
        <ele>407.26</ele>
        <time>2015-06-24T11:29:23Z</time>
      </trkpt>
      <trkpt lat="48.10234" lon="7.64363">
        <ele>406.77</ele>
        <time>2015-06-24T11:29:27Z</time>
      </trkpt>
      <trkpt lat="48.10246" lon="7.64375">
        <ele>404.37</ele>
        <time>2015-06-24T11:29:40Z</time>
      </trkpt>
      <trkpt lat="48.10265" lon="7.64392">
        <ele>401.97</ele>
        <time>2015-06-24T11:29:58Z</time>
      </trkpt>
      <trkpt lat="48.10277" lon="7.64408">
        <ele>401.49</ele>
        <time>2015-06-24T11:30:11Z</time>
      </trkpt>
      <trkpt lat="48.10282" lon="7.64417">
        <ele>400.53</ele>
        <time>2015-06-24T11:30:17Z</time>
      </trkpt>
      <trkpt lat="48.10292" lon="7.64445">
        <ele>400.05</ele>
        <time>2015-06-24T11:30:36Z</time>
      </trkpt>
      <trkpt lat="48.10296" lon="7.64456">
        <ele>400.05</ele>
        <time>2015-06-24T11:30:43Z</time>
      </trkpt>
      <trkpt lat="48.10305" lon="7.64479">
        <ele>398.6</ele>
        <time>2015-06-24T11:30:57Z</time>
      </trkpt>
      <trkpt lat="48.10312" lon="7.645">
        <ele>398.12</ele>
        <time>2015-06-24T11:31:09Z</time>
      </trkpt>
      <trkpt lat="48.10314" lon="7.64507">
        <ele>398.6</ele>
        <time>2015-06-24T11:31:13Z</time>
      </trkpt>
      <trkpt lat="48.10317" lon="7.64517">
        <ele>397.64</ele>
        <time>2015-06-24T11:31:19Z</time>
      </trkpt>
      <trkpt lat="48.10322" lon="7.64543">
        <ele>397.64</ele>
        <time>2015-06-24T11:31:33Z</time>
      </trkpt>
      <trkpt lat="48.10326" lon="7.6457">
        <ele>397.16</ele>
        <time>2015-06-24T11:31:47Z</time>
      </trkpt>
      <trkpt lat="48.10326" lon="7.64577">
        <ele>396.68</ele>
        <time>2015-06-24T11:31:51Z</time>
      </trkpt>
      <trkpt lat="48.10319" lon="7.64587">
        <ele>396.68</ele>
        <time>2015-06-24T11:31:59Z</time>
      </trkpt>
      <trkpt lat="48.10303" lon="7.64604">
        <ele>396.2</ele>
        <time>2015-06-24T11:32:19Z</time>
      </trkpt>
      <trkpt lat="48.1029" lon="7.64613">
        <ele>395.24</ele>
        <time>2015-06-24T11:32:34Z</time>
      </trkpt>
      <trkpt lat="48.10283" lon="7.64619">
        <ele>395.24</ele>
        <time>2015-06-24T11:32:44Z</time>
      </trkpt>
      <trkpt lat="48.10281" lon="7.6462">
        <ele>395.24</ele>
        <time>2015-06-24T11:32:46Z</time>
      </trkpt>
      <trkpt lat="48.10264" lon="7.64632">
        <ele>394.76</ele>
        <time>2015-06-24T11:33:01Z</time>
      </trkpt>
      <trkpt lat="48.10242" lon="7.64647">
        <ele>393.8</ele>
        <time>2015-06-24T11:33:20Z</time>
      </trkpt>
      <trkpt lat="48.10222" lon="7.64663">
        <ele>393.32</ele>
        <time>2015-06-24T11:33:37Z</time>
      </trkpt>
      <trkpt lat="48.10219" lon="7.64672">
        <ele>392.36</ele>
        <time>2015-06-24T11:33:43Z</time>
      </trkpt>
      <trkpt lat="48.10218" lon="7.64681">
        <ele>391.87</ele>
        <time>2015-06-24T11:33:48Z</time>
      </trkpt>
      <trkpt lat="48.10218" lon="7.6469">
        <ele>390.91</ele>
        <time>2015-06-24T11:33:53Z</time>
      </trkpt>
      <trkpt lat="48.10217" lon="7.64702">
        <ele>389.95</ele>
        <time>2015-06-24T11:34:01Z</time>
      </trkpt>
      <trkpt lat="48.10215" lon="7.64717">
        <ele>388.99</ele>
        <time>2015-06-24T11:34:10Z</time>
      </trkpt>
      <trkpt lat="48.10214" lon="7.64724">
        <ele>388.51</ele>
        <time>2015-06-24T11:34:14Z</time>
      </trkpt>
      <trkpt lat="48.10218" lon="7.64747">
        <ele>386.11</ele>
        <time>2015-06-24T11:34:28Z</time>
      </trkpt>
      <trkpt lat="48.10226" lon="7.64753">
        <ele>385.63</ele>
        <time>2015-06-24T11:34:36Z</time>
      </trkpt>
      <trkpt lat="48.10245" lon="7.64757">
        <ele>383.22</ele>
        <time>2015-06-24T11:34:52Z</time>
      </trkpt>
      <trkpt lat="48.10267" lon="7.64763">
        <ele>381.78</ele>
        <time>2015-06-24T11:35:10Z</time>
      </trkpt>
      <trkpt lat="48.10283" lon="7.64772">
        <ele>380.34</ele>
        <time>2015-06-24T11:35:24Z</time>
      </trkpt>
      <trkpt lat="48.10303" lon="7.64787">
        <ele>379.38</ele>
        <time>2015-06-24T11:35:42Z</time>
      </trkpt>
      <trkpt lat="48.10321" lon="7.64798">
        <ele>378.9</ele>
        <time>2015-06-24T11:35:57Z</time>
      </trkpt>
      <trkpt lat="48.10338" lon="7.6481">
        <ele>377.94</ele>
        <time>2015-06-24T11:36:12Z</time>
      </trkpt>
      <trkpt lat="48.10342" lon="7.64814">
        <ele>378.42</ele>
        <time>2015-06-24T11:36:16Z</time>
      </trkpt>
      <trkpt lat="48.10346" lon="7.64818">
        <ele>377.45</ele>
        <time>2015-06-24T11:36:20Z</time>
      </trkpt>
      <trkpt lat="48.10366" lon="7.64837">
        <ele>376.01</ele>
        <time>2015-06-24T11:36:38Z</time>
      </trkpt>
      <trkpt lat="48.10372" lon="7.64842">
        <ele>376.01</ele>
        <time>2015-06-24T11:36:43Z</time>
      </trkpt>
      <trkpt lat="48.10377" lon="7.64847">
        <ele>375.53</ele>
        <time>2015-06-24T11:36:49Z</time>
      </trkpt>
      <trkpt lat="48.10395" lon="7.64862">
        <ele>375.05</ele>
        <time>2015-06-24T11:37:06Z</time>
      </trkpt>
      <trkpt lat="48.10411" lon="7.64878">
        <ele>373.61</ele>
        <time>2015-06-24T11:37:21Z</time>
      </trkpt>
      <trkpt lat="48.10416" lon="7.64883">
        <ele>373.61</ele>
        <time>2015-06-24T11:37:27Z</time>
      </trkpt>
      <trkpt lat="48.10426" lon="7.64894">
        <ele>373.13</ele>
        <time>2015-06-24T11:37:37Z</time>
      </trkpt>
      <trkpt lat="48.10431" lon="7.64904">
        <ele>373.13</ele>
        <time>2015-06-24T11:37:43Z</time>
      </trkpt>
      <trkpt lat="48.10431" lon="7.64912">
        <ele>372.65</ele>
        <time>2015-06-24T11:37:47Z</time>
      </trkpt>
      <trkpt lat="48.1043" lon="7.64922">
        <ele>372.65</ele>
        <time>2015-06-24T11:37:53Z</time>
      </trkpt>
      <trkpt lat="48.10411" lon="7.64937">
        <ele>370.73</ele>
        <time>2015-06-24T11:38:10Z</time>
      </trkpt>
      <trkpt lat="48.10392" lon="7.64943">
        <ele>368.32</ele>
        <time>2015-06-24T11:38:28Z</time>
      </trkpt>
      <trkpt lat="48.10382" lon="7.6495">
        <ele>365.44</ele>
        <time>2015-06-24T11:38:38Z</time>
      </trkpt>
      <trkpt lat="48.10368" lon="7.64963">
        <ele>362.07</ele>
        <time>2015-06-24T11:38:53Z</time>
      </trkpt>
      <trkpt lat="48.1036" lon="7.6497">
        <ele>360.15</ele>
        <time>2015-06-24T11:39:02Z</time>
      </trkpt>
      <trkpt lat="48.10343" lon="7.64984">
        <ele>357.27</ele>
        <time>2015-06-24T11:39:19Z</time>
      </trkpt>
      <trkpt lat="48.10335" lon="7.64987">
        <ele>355.83</ele>
        <time>2015-06-24T11:39:27Z</time>
      </trkpt>
      <trkpt lat="48.1033" lon="7.64979">
        <ele>354.38</ele>
        <time>2015-06-24T11:39:43Z</time>
      </trkpt>
      <trkpt lat="48.1033" lon="7.64979">
        <ele>354.38</ele>
        <time>2015-06-24T11:39:44Z</time>
      </trkpt>
      <trkpt lat="48.10322" lon="7.64962">
        <ele>352.94</ele>
        <time>2015-06-24T11:39:56Z</time>
      </trkpt>
      <trkpt lat="48.10308" lon="7.64943">
        <ele>350.06</ele>
        <time>2015-06-24T11:40:11Z</time>
      </trkpt>
      <trkpt lat="48.10303" lon="7.64941">
        <ele>350.06</ele>
        <time>2015-06-24T11:40:15Z</time>
      </trkpt>
      <trkpt lat="48.10288" lon="7.6494">
        <ele>346.69</ele>
        <time>2015-06-24T11:40:29Z</time>
      </trkpt>
      <trkpt lat="48.1028" lon="7.6494">
        <ele>345.73</ele>
        <time>2015-06-24T11:40:36Z</time>
      </trkpt>
      <trkpt lat="48.10264" lon="7.64945">
        <ele>342.37</ele>
        <time>2015-06-24T11:40:51Z</time>
      </trkpt>
      <trkpt lat="48.1025" lon="7.64954">
        <ele>340.44</ele>
        <time>2015-06-24T11:41:03Z</time>
      </trkpt>
      <trkpt lat="48.10246" lon="7.64957">
        <ele>339</ele>
        <time>2015-06-24T11:41:07Z</time>
      </trkpt>
      <trkpt lat="48.10242" lon="7.64959">
        <ele>338.04</ele>
        <time>2015-06-24T11:41:11Z</time>
      </trkpt>
      <trkpt lat="48.10223" lon="7.64953">
        <ele>335.16</ele>
        <time>2015-06-24T11:41:29Z</time>
      </trkpt>
      <trkpt lat="48.10205" lon="7.64944">
        <ele>331.79</ele>
        <time>2015-06-24T11:41:46Z</time>
      </trkpt>
      <trkpt lat="48.10185" lon="7.64934">
        <ele>328.91</ele>
        <time>2015-06-24T11:42:06Z</time>
      </trkpt>
      <trkpt lat="48.10169" lon="7.64926">
        <ele>325.54</ele>
        <time>2015-06-24T11:42:21Z</time>
      </trkpt>
      <trkpt lat="48.10154" lon="7.64916">
        <ele>322.66</ele>
        <time>2015-06-24T11:42:37Z</time>
      </trkpt>
      <trkpt lat="48.10136" lon="7.64909">
        <ele>319.78</ele>
        <time>2015-06-24T11:42:54Z</time>
      </trkpt>
      <trkpt lat="48.10116" lon="7.64905">
        <ele>316.89</ele>
        <time>2015-06-24T11:43:12Z</time>
      </trkpt>
      <trkpt lat="48.10093" lon="7.64902">
        <ele>314.49</ele>
        <time>2015-06-24T11:43:32Z</time>
      </trkpt>
      <trkpt lat="48.10087" lon="7.64902">
        <ele>313.05</ele>
        <time>2015-06-24T11:43:38Z</time>
      </trkpt>
      <trkpt lat="48.10063" lon="7.64907">
        <ele>310.64</ele>
        <time>2015-06-24T11:43:58Z</time>
      </trkpt>
      <trkpt lat="48.10043" lon="7.64918">
        <ele>308.72</ele>
        <time>2015-06-24T11:44:17Z</time>
      </trkpt>
      <trkpt lat="48.10041" lon="7.6492">
        <ele>308.24</ele>
        <time>2015-06-24T11:44:19Z</time>
      </trkpt>
      <trkpt lat="48.10024" lon="7.64945">
        <ele>305.36</ele>
        <time>2015-06-24T11:44:40Z</time>
      </trkpt>
      <trkpt lat="48.10014" lon="7.6496">
        <ele>302.47</ele>
        <time>2015-06-24T11:44:54Z</time>
      </trkpt>
      <trkpt lat="48.10003" lon="7.64979">
        <ele>300.55</ele>
        <time>2015-06-24T11:45:09Z</time>
      </trkpt>
      <trkpt lat="48.10005" lon="7.64985">
        <ele>300.07</ele>
        <time>2015-06-24T11:45:13Z</time>
      </trkpt>
      <trkpt lat="48.1001" lon="7.65004">
        <ele>299.59</ele>
        <time>2015-06-24T11:45:24Z</time>
      </trkpt>
      <trkpt lat="48.10007" lon="7.65033">
        <ele>298.15</ele>
        <time>2015-06-24T11:45:42Z</time>
      </trkpt>
      <trkpt lat="48.09992" lon="7.65051">
        <ele>296.7</ele>
        <time>2015-06-24T11:45:59Z</time>
      </trkpt>
      <trkpt lat="48.09972" lon="7.65058">
        <ele>294.3</ele>
        <time>2015-06-24T11:46:17Z</time>
      </trkpt>
      <trkpt lat="48.09952" lon="7.65062">
        <ele>291.42</ele>
        <time>2015-06-24T11:46:33Z</time>
      </trkpt>
      <trkpt lat="48.09932" lon="7.65061">
        <ele>290.46</ele>
        <time>2015-06-24T11:46:50Z</time>
      </trkpt>
      <trkpt lat="48.09923" lon="7.6506">
        <ele>290.46</ele>
        <time>2015-06-24T11:46:59Z</time>
      </trkpt>
      <trkpt lat="48.09899" lon="7.65067">
        <ele>289.49</ele>
        <time>2015-06-24T11:47:20Z</time>
      </trkpt>
      <trkpt lat="48.09898" lon="7.65067">
        <ele>289.49</ele>
        <time>2015-06-24T11:47:21Z</time>
      </trkpt>
      <trkpt lat="48.09892" lon="7.65065">
        <ele>289.49</ele>
        <time>2015-06-24T11:47:28Z</time>
      </trkpt>
      <trkpt lat="48.09881" lon="7.65048">
        <ele>289.01</ele>
        <time>2015-06-24T11:47:44Z</time>
      </trkpt>
      <trkpt lat="48.0988" lon="7.65045">
        <ele>288.05</ele>
        <time>2015-06-24T11:47:46Z</time>
      </trkpt>
      <trkpt lat="48.09875" lon="7.65036">
        <ele>286.61</ele>
        <time>2015-06-24T11:47:54Z</time>
      </trkpt>
      <trkpt lat="48.09874" lon="7.65034">
        <ele>286.61</ele>
        <time>2015-06-24T11:47:56Z</time>
      </trkpt>
      <trkpt lat="48.09857" lon="7.6502">
        <ele>283.25</ele>
        <time>2015-06-24T11:48:14Z</time>
      </trkpt>
      <trkpt lat="48.09848" lon="7.65019">
        <ele>281.8</ele>
        <time>2015-06-24T11:48:23Z</time>
      </trkpt>
      <trkpt lat="48.09826" lon="7.65025">
        <ele>278.44</ele>
        <time>2015-06-24T11:48:42Z</time>
      </trkpt>
      <trkpt lat="48.09809" lon="7.65029">
        <ele>276.52</ele>
        <time>2015-06-24T11:48:57Z</time>
      </trkpt>
      <trkpt lat="48.09802" lon="7.65031">
        <ele>276.52</ele>
        <time>2015-06-24T11:49:03Z</time>
      </trkpt>
      <trkpt lat="48.0978" lon="7.6504">
        <ele>275.07</ele>
        <time>2015-06-24T11:49:23Z</time>
      </trkpt>
      <trkpt lat="48.0976" lon="7.6505">
        <ele>273.63</ele>
        <time>2015-06-24T11:49:39Z</time>
      </trkpt>
      <trkpt lat="48.0974" lon="7.65061">
        <ele>272.67</ele>
        <time>2015-06-24T11:49:57Z</time>
      </trkpt>
      <trkpt lat="48.09729" lon="7.65066">
        <ele>272.67</ele>
        <time>2015-06-24T11:50:09Z</time>
      </trkpt>
      <trkpt lat="48.09728" lon="7.65071">
        <ele>273.15</ele>
        <time>2015-06-24T11:50:13Z</time>
      </trkpt>
      <trkpt lat="48.09737" lon="7.65091">
        <ele>273.15</ele>
        <time>2015-06-24T11:50:29Z</time>
      </trkpt>
      <trkpt lat="48.0974" lon="7.651">
        <ele>274.11</ele>
        <time>2015-06-24T11:50:45Z</time>
      </trkpt>
      <trkpt lat="48.09741" lon="7.65101">
        <ele>274.11</ele>
        <time>2015-06-24T11:51:08Z</time>
      </trkpt>
      <trkpt lat="48.09748" lon="7.6512">
        <ele>274.11</ele>
        <time>2015-06-24T11:51:22Z</time>
      </trkpt>
      <trkpt lat="48.09751" lon="7.65127">
        <ele>274.11</ele>
        <time>2015-06-24T11:51:27Z</time>
      </trkpt>
      <trkpt lat="48.09758" lon="7.65142">
        <ele>274.59</ele>
        <time>2015-06-24T11:51:37Z</time>
      </trkpt>
      <trkpt lat="48.09767" lon="7.65166">
        <ele>275.07</ele>
        <time>2015-06-24T11:51:54Z</time>
      </trkpt>
      <trkpt lat="48.09772" lon="7.65176">
        <ele>275.56</ele>
        <time>2015-06-24T11:52:01Z</time>
      </trkpt>
      <trkpt lat="48.09774" lon="7.65188">
        <ele>276.04</ele>
        <time>2015-06-24T11:52:08Z</time>
      </trkpt>
      <trkpt lat="48.09762" lon="7.65211">
        <ele>277.48</ele>
        <time>2015-06-24T11:52:24Z</time>
      </trkpt>
      <trkpt lat="48.09753" lon="7.65223">
        <ele>277.96</ele>
        <time>2015-06-24T11:52:34Z</time>
      </trkpt>
      <trkpt lat="48.0975" lon="7.65228">
        <ele>278.92</ele>
        <time>2015-06-24T11:52:39Z</time>
      </trkpt>
      <trkpt lat="48.09738" lon="7.65245">
        <ele>280.84</ele>
        <time>2015-06-24T11:53:00Z</time>
      </trkpt>
      <trkpt lat="48.09729" lon="7.65257">
        <ele>281.8</ele>
        <time>2015-06-24T11:53:27Z</time>
      </trkpt>
      <trkpt lat="48.0972" lon="7.65271">
        <ele>283.25</ele>
        <time>2015-06-24T11:53:41Z</time>
      </trkpt>
      <trkpt lat="48.09718" lon="7.65278">
        <ele>283.25</ele>
        <time>2015-06-24T11:53:46Z</time>
      </trkpt>
      <trkpt lat="48.09718" lon="7.6529">
        <ele>283.73</ele>
        <time>2015-06-24T11:53:54Z</time>
      </trkpt>
      <trkpt lat="48.09726" lon="7.65311">
        <ele>285.65</ele>
        <time>2015-06-24T11:54:10Z</time>
      </trkpt>
      <trkpt lat="48.09734" lon="7.65331">
        <ele>287.57</ele>
        <time>2015-06-24T11:54:24Z</time>
      </trkpt>
      <trkpt lat="48.09741" lon="7.65353">
        <ele>289.97</ele>
        <time>2015-06-24T11:54:40Z</time>
      </trkpt>
      <trkpt lat="48.09752" lon="7.65381">
        <ele>291.9</ele>
        <time>2015-06-24T11:55:00Z</time>
      </trkpt>
      <trkpt lat="48.09754" lon="7.65386">
        <ele>292.38</ele>
        <time>2015-06-24T11:55:16Z</time>
      </trkpt>
      <trkpt lat="48.09751" lon="7.65392">
        <ele>292.38</ele>
        <time>2015-06-24T11:55:41Z</time>
      </trkpt>
      <trkpt lat="48.09754" lon="7.65394">
        <ele>291.9</ele>
        <time>2015-06-24T11:55:56Z</time>
      </trkpt>
      <trkpt lat="48.09759" lon="7.65386">
        <ele>291.42</ele>
        <time>2015-06-24T11:56:05Z</time>
      </trkpt>
      <trkpt lat="48.09778" lon="7.65389">
        <ele>290.94</ele>
        <time>2015-06-24T11:56:22Z</time>
      </trkpt>
      <trkpt lat="48.09788" lon="7.65393">
        <ele>290.46</ele>
        <time>2015-06-24T11:56:32Z</time>
      </trkpt>
      <trkpt lat="48.09792" lon="7.65398">
        <ele>290.46</ele>
        <time>2015-06-24T11:56:36Z</time>
      </trkpt>
      <trkpt lat="48.09809" lon="7.65406">
        <ele>289.49</ele>
        <time>2015-06-24T11:56:54Z</time>
      </trkpt>
      <trkpt lat="48.09831" lon="7.65409">
        <ele>288.05</ele>
        <time>2015-06-24T11:57:11Z</time>
      </trkpt>
      <trkpt lat="48.09852" lon="7.65417">
        <ele>287.57</ele>
        <time>2015-06-24T11:57:28Z</time>
      </trkpt>
      <trkpt lat="48.0986" lon="7.6542">
        <ele>287.09</ele>
        <time>2015-06-24T11:57:35Z</time>
      </trkpt>
      <trkpt lat="48.09881" lon="7.65432">
        <ele>286.61</ele>
        <time>2015-06-24T11:57:53Z</time>
      </trkpt>
      <trkpt lat="48.09887" lon="7.65436">
        <ele>286.61</ele>
        <time>2015-06-24T11:57:59Z</time>
      </trkpt>
      <trkpt lat="48.09892" lon="7.65438">
        <ele>286.61</ele>
        <time>2015-06-24T11:58:03Z</time>
      </trkpt>
      <trkpt lat="48.09897" lon="7.6544">
        <ele>286.13</ele>
        <time>2015-06-24T11:58:07Z</time>
      </trkpt>
      <trkpt lat="48.09899" lon="7.65441">
        <ele>286.61</ele>
        <time>2015-06-24T11:58:09Z</time>
      </trkpt>
      <trkpt lat="48.09913" lon="7.65453">
        <ele>286.13</ele>
        <time>2015-06-24T11:58:23Z</time>
      </trkpt>
      <trkpt lat="48.09934" lon="7.65464">
        <ele>285.65</ele>
        <time>2015-06-24T11:58:40Z</time>
      </trkpt>
      <trkpt lat="48.09935" lon="7.65464">
        <ele>285.17</ele>
        <time>2015-06-24T11:58:41Z</time>
      </trkpt>
      <trkpt lat="48.09939" lon="7.65463">
        <ele>285.17</ele>
        <time>2015-06-24T11:58:44Z</time>
      </trkpt>
      <trkpt lat="48.09944" lon="7.65466">
        <ele>284.69</ele>
        <time>2015-06-24T11:58:48Z</time>
      </trkpt>
      <trkpt lat="48.09965" lon="7.65479">
        <ele>284.21</ele>
        <time>2015-06-24T11:59:07Z</time>
      </trkpt>
      <trkpt lat="48.09981" lon="7.6549">
        <ele>284.21</ele>
        <time>2015-06-24T11:59:22Z</time>
      </trkpt>
      <trkpt lat="48.10002" lon="7.65502">
        <ele>283.73</ele>
        <time>2015-06-24T11:59:41Z</time>
      </trkpt>
      <trkpt lat="48.10008" lon="7.65505">
        <ele>282.77</ele>
        <time>2015-06-24T11:59:46Z</time>
      </trkpt>
      <trkpt lat="48.10012" lon="7.65508">
        <ele>283.25</ele>
        <time>2015-06-24T11:59:50Z</time>
      </trkpt>
      <trkpt lat="48.10026" lon="7.65532">
        <ele>283.25</ele>
        <time>2015-06-24T12:00:08Z</time>
      </trkpt>
      <trkpt lat="48.10038" lon="7.65559">
        <ele>282.77</ele>
        <time>2015-06-24T12:00:26Z</time>
      </trkpt>
      <trkpt lat="48.10043" lon="7.65571">
        <ele>282.77</ele>
        <time>2015-06-24T12:00:35Z</time>
      </trkpt>
      <trkpt lat="48.10056" lon="7.6559">
        <ele>283.25</ele>
        <time>2015-06-24T12:00:49Z</time>
      </trkpt>
      <trkpt lat="48.10075" lon="7.65609">
        <ele>281.8</ele>
        <time>2015-06-24T12:01:08Z</time>
      </trkpt>
      <trkpt lat="48.10095" lon="7.65624">
        <ele>281.32</ele>
        <time>2015-06-24T12:01:27Z</time>
      </trkpt>
      <trkpt lat="48.10108" lon="7.65631">
        <ele>281.32</ele>
        <time>2015-06-24T12:01:38Z</time>
      </trkpt>
      <trkpt lat="48.10119" lon="7.65635">
        <ele>281.32</ele>
        <time>2015-06-24T12:01:48Z</time>
      </trkpt>
      <trkpt lat="48.10123" lon="7.65645">
        <ele>281.32</ele>
        <time>2015-06-24T12:02:03Z</time>
      </trkpt>
      <trkpt lat="48.10123" lon="7.65645">
        <ele>280.84</ele>
        <time>2015-06-24T12:02:35Z</time>
      </trkpt>
      <trkpt lat="48.10121" lon="7.65644">
        <ele>280.36</ele>
        <time>2015-06-24T12:02:53Z</time>
      </trkpt>
      <trkpt lat="48.10103" lon="7.6564">
        <ele>278.92</ele>
        <time>2015-06-24T12:03:07Z</time>
      </trkpt>
      <trkpt lat="48.1009" lon="7.65638">
        <ele>278.44</ele>
        <time>2015-06-24T12:03:14Z</time>
      </trkpt>
      <trkpt lat="48.10065" lon="7.65639">
        <ele>275.56</ele>
        <time>2015-06-24T12:03:32Z</time>
      </trkpt>
      <trkpt lat="48.10045" lon="7.65632">
        <ele>272.67</ele>
        <time>2015-06-24T12:03:48Z</time>
      </trkpt>
      <trkpt lat="48.10026" lon="7.65621">
        <ele>270.27</ele>
        <time>2015-06-24T12:04:03Z</time>
      </trkpt>
      <trkpt lat="48.10015" lon="7.65615">
        <ele>270.27</ele>
        <time>2015-06-24T12:04:19Z</time>
      </trkpt>
      <trkpt lat="48.10015" lon="7.65616">
        <ele>269.31</ele>
        <time>2015-06-24T12:04:27Z</time>
      </trkpt>
      <trkpt lat="48.10008" lon="7.65629">
        <ele>269.79</ele>
        <time>2015-06-24T12:04:42Z</time>
      </trkpt>
      <trkpt lat="48.10005" lon="7.65641">
        <ele>269.79</ele>
        <time>2015-06-24T12:04:49Z</time>
      </trkpt>
      <trkpt lat="48.10001" lon="7.65661">
        <ele>270.27</ele>
        <time>2015-06-24T12:05:02Z</time>
      </trkpt>
      <trkpt lat="48.09996" lon="7.65673">
        <ele>270.75</ele>
        <time>2015-06-24T12:05:13Z</time>
      </trkpt>
      <trkpt lat="48.09995" lon="7.65673">
        <ele>270.75</ele>
        <time>2015-06-24T12:05:14Z</time>
      </trkpt>
      <trkpt lat="48.09985" lon="7.65668">
        <ele>272.19</ele>
        <time>2015-06-24T12:05:24Z</time>
      </trkpt>
      <trkpt lat="48.09981" lon="7.65663">
        <ele>272.19</ele>
        <time>2015-06-24T12:05:41Z</time>
      </trkpt>
      <trkpt lat="48.09969" lon="7.65659">
        <ele>273.15</ele>
        <time>2015-06-24T12:05:56Z</time>
      </trkpt>
      <trkpt lat="48.09958" lon="7.6567">
        <ele>275.07</ele>
        <time>2015-06-24T12:06:11Z</time>
      </trkpt>
      <trkpt lat="48.09948" lon="7.65678">
        <ele>275.56</ele>
        <time>2015-06-24T12:06:23Z</time>
      </trkpt>
      <trkpt lat="48.09937" lon="7.65668">
        <ele>276.52</ele>
        <time>2015-06-24T12:06:37Z</time>
      </trkpt>
      <trkpt lat="48.09924" lon="7.65654">
        <ele>276.52</ele>
        <time>2015-06-24T12:06:49Z</time>
      </trkpt>
      <trkpt lat="48.09909" lon="7.65643">
        <ele>277</ele>
        <time>2015-06-24T12:07:03Z</time>
      </trkpt>
      <trkpt lat="48.09903" lon="7.65646">
        <ele>277.96</ele>
        <time>2015-06-24T12:07:09Z</time>
      </trkpt>
      <trkpt lat="48.09901" lon="7.6565">
        <ele>277.96</ele>
        <time>2015-06-24T12:07:13Z</time>
      </trkpt>
      <trkpt lat="48.09898" lon="7.65657">
        <ele>279.4</ele>
        <time>2015-06-24T12:07:20Z</time>
      </trkpt>
      <trkpt lat="48.09896" lon="7.65657">
        <ele>279.4</ele>
        <time>2015-06-24T12:07:22Z</time>
      </trkpt>
      <trkpt lat="48.09893" lon="7.65662">
        <ele>279.4</ele>
        <time>2015-06-24T12:07:27Z</time>
      </trkpt>
      <trkpt lat="48.09891" lon="7.65664">
        <ele>279.88</ele>
        <time>2015-06-24T12:07:29Z</time>
      </trkpt>
      <trkpt lat="48.0989" lon="7.65666">
        <ele>280.36</ele>
        <time>2015-06-24T12:07:31Z</time>
      </trkpt>
      <trkpt lat="48.09884" lon="7.65675">
        <ele>280.36</ele>
        <time>2015-06-24T12:07:40Z</time>
      </trkpt>
      <trkpt lat="48.0988" lon="7.65679">
        <ele>280.84</ele>
        <time>2015-06-24T12:07:46Z</time>
      </trkpt>
      <trkpt lat="48.09877" lon="7.65687">
        <ele>281.32</ele>
        <time>2015-06-24T12:07:51Z</time>
      </trkpt>
      <trkpt lat="48.09865" lon="7.65698">
        <ele>284.21</ele>
        <time>2015-06-24T12:08:06Z</time>
      </trkpt>
      <trkpt lat="48.09865" lon="7.65697">
        <ele>283.73</ele>
        <time>2015-06-24T12:08:14Z</time>
      </trkpt>
      <trkpt lat="48.09868" lon="7.65694">
        <ele>283.25</ele>
        <time>2015-06-24T12:08:17Z</time>
      </trkpt>
      <trkpt lat="48.09881" lon="7.65682">
        <ele>281.8</ele>
        <time>2015-06-24T12:08:29Z</time>
      </trkpt>
      <trkpt lat="48.09896" lon="7.65659">
        <ele>279.88</ele>
        <time>2015-06-24T12:08:44Z</time>
      </trkpt>
      <trkpt lat="48.09897" lon="7.65656">
        <ele>279.4</ele>
        <time>2015-06-24T12:08:46Z</time>
      </trkpt>
      <trkpt lat="48.099" lon="7.65655">
        <ele>278.44</ele>
        <time>2015-06-24T12:08:55Z</time>
      </trkpt>
      <trkpt lat="48.099" lon="7.65649">
        <ele>277.96</ele>
        <time>2015-06-24T12:09:02Z</time>
      </trkpt>
      <trkpt lat="48.09898" lon="7.65649">
        <ele>277.48</ele>
        <time>2015-06-24T12:09:08Z</time>
      </trkpt>
      <trkpt lat="48.09904" lon="7.65647">
        <ele>277.96</ele>
        <time>2015-06-24T12:09:25Z</time>
      </trkpt>
      <trkpt lat="48.09902" lon="7.6565">
        <ele>277</ele>
        <time>2015-06-24T12:10:04Z</time>
      </trkpt>
      <trkpt lat="48.09901" lon="7.6565">
        <ele>277.48</ele>
        <time>2015-06-24T12:10:17Z</time>
      </trkpt>
      <trkpt lat="48.09901" lon="7.65649">
        <ele>277.48</ele>
        <time>2015-06-24T12:10:36Z</time>
      </trkpt>
      <trkpt lat="48.09898" lon="7.6565">
        <ele>277.96</ele>
        <time>2015-06-24T12:10:46Z</time>
      </trkpt>
      <trkpt lat="48.09897" lon="7.65652">
        <ele>277.96</ele>
        <time>2015-06-24T12:10:56Z</time>
      </trkpt>
      <trkpt lat="48.09891" lon="7.65647">
        <ele>277.96</ele>
        <time>2015-06-24T12:11:04Z</time>
      </trkpt>
      <trkpt lat="48.09878" lon="7.65639">
        <ele>278.92</ele>
        <time>2015-06-24T12:11:19Z</time>
      </trkpt>
      <trkpt lat="48.09871" lon="7.65635">
        <ele>279.4</ele>
        <time>2015-06-24T12:11:27Z</time>
      </trkpt>
      <trkpt lat="48.09862" lon="7.65636">
        <ele>280.36</ele>
        <time>2015-06-24T12:11:36Z</time>
      </trkpt>
      <trkpt lat="48.09852" lon="7.65645">
        <ele>280.84</ele>
        <time>2015-06-24T12:11:48Z</time>
      </trkpt>
      <trkpt lat="48.09848" lon="7.65651">
        <ele>281.32</ele>
        <time>2015-06-24T12:11:53Z</time>
      </trkpt>
      <trkpt lat="48.09845" lon="7.65656">
        <ele>281.8</ele>
        <time>2015-06-24T12:11:57Z</time>
      </trkpt>
      <trkpt lat="48.09838" lon="7.65666">
        <ele>281.8</ele>
        <time>2015-06-24T12:12:16Z</time>
      </trkpt>
      <trkpt lat="48.0983" lon="7.65669">
        <ele>282.28</ele>
        <time>2015-06-24T12:12:29Z</time>
      </trkpt>
      <trkpt lat="48.09822" lon="7.65672">
        <ele>281.8</ele>
        <time>2015-06-24T12:12:39Z</time>
      </trkpt>
      <trkpt lat="48.09814" lon="7.65673">
        <ele>282.28</ele>
        <time>2015-06-24T12:12:46Z</time>
      </trkpt>
      <trkpt lat="48.0981" lon="7.65671">
        <ele>282.28</ele>
        <time>2015-06-24T12:12:50Z</time>
      </trkpt>
      <trkpt lat="48.09794" lon="7.65685">
        <ele>282.77</ele>
        <time>2015-06-24T12:13:08Z</time>
      </trkpt>
      <trkpt lat="48.09785" lon="7.65698">
        <ele>283.73</ele>
        <time>2015-06-24T12:13:19Z</time>
      </trkpt>
      <trkpt lat="48.0978" lon="7.65704">
        <ele>283.73</ele>
        <time>2015-06-24T12:13:24Z</time>
      </trkpt>
      <trkpt lat="48.09774" lon="7.65723">
        <ele>285.17</ele>
        <time>2015-06-24T12:13:39Z</time>
      </trkpt>
      <trkpt lat="48.09771" lon="7.65742">
        <ele>285.17</ele>
        <time>2015-06-24T12:13:56Z</time>
      </trkpt>
      <trkpt lat="48.0977" lon="7.65754">
        <ele>285.65</ele>
        <time>2015-06-24T12:14:11Z</time>
      </trkpt>
      <trkpt lat="48.09771" lon="7.65756">
        <ele>285.65</ele>
        <time>2015-06-24T12:14:14Z</time>
      </trkpt>
      <trkpt lat="48.09775" lon="7.65777">
        <ele>285.65</ele>
        <time>2015-06-24T12:14:30Z</time>
      </trkpt>
      <trkpt lat="48.09779" lon="7.65799">
        <ele>285.65</ele>
        <time>2015-06-24T12:14:46Z</time>
      </trkpt>
      <trkpt lat="48.0978" lon="7.65818">
        <ele>286.13</ele>
        <time>2015-06-24T12:14:58Z</time>
      </trkpt>
      <trkpt lat="48.09784" lon="7.65841">
        <ele>286.61</ele>
        <time>2015-06-24T12:15:13Z</time>
      </trkpt>
      <trkpt lat="48.09784" lon="7.65863">
        <ele>287.57</ele>
        <time>2015-06-24T12:15:27Z</time>
      </trkpt>
      <trkpt lat="48.09789" lon="7.65879">
        <ele>289.01</ele>
        <time>2015-06-24T12:15:38Z</time>
      </trkpt>
      <trkpt lat="48.09799" lon="7.65899">
        <ele>289.97</ele>
        <time>2015-06-24T12:15:53Z</time>
      </trkpt>
      <trkpt lat="48.09803" lon="7.65917">
        <ele>289.49</ele>
        <time>2015-06-24T12:16:04Z</time>
      </trkpt>
      <trkpt lat="48.09802" lon="7.65922">
        <ele>289.49</ele>
        <time>2015-06-24T12:16:07Z</time>
      </trkpt>
      <trkpt lat="48.09804" lon="7.65928">
        <ele>290.46</ele>
        <time>2015-06-24T12:16:10Z</time>
      </trkpt>
      <trkpt lat="48.09805" lon="7.65947">
        <ele>289.97</ele>
        <time>2015-06-24T12:16:23Z</time>
      </trkpt>
      <trkpt lat="48.09804" lon="7.65953">
        <ele>289.49</ele>
        <time>2015-06-24T12:16:27Z</time>
      </trkpt>
      <trkpt lat="48.09804" lon="7.65961">
        <ele>289.97</ele>
        <time>2015-06-24T12:16:31Z</time>
      </trkpt>
      <trkpt lat="48.09809" lon="7.65993">
        <ele>289.49</ele>
        <time>2015-06-24T12:16:51Z</time>
      </trkpt>
      <trkpt lat="48.0982" lon="7.66014">
        <ele>289.97</ele>
        <time>2015-06-24T12:17:07Z</time>
      </trkpt>
      <trkpt lat="48.09828" lon="7.66021">
        <ele>289.97</ele>
        <time>2015-06-24T12:17:16Z</time>
      </trkpt>
      <trkpt lat="48.09834" lon="7.66026">
        <ele>289.97</ele>
        <time>2015-06-24T12:17:22Z</time>
      </trkpt>
      <trkpt lat="48.09838" lon="7.66037">
        <ele>289.49</ele>
        <time>2015-06-24T12:17:29Z</time>
      </trkpt>
      <trkpt lat="48.09838" lon="7.66043">
        <ele>289.49</ele>
        <time>2015-06-24T12:17:33Z</time>
      </trkpt>
      <trkpt lat="48.09835" lon="7.66052">
        <ele>289.49</ele>
        <time>2015-06-24T12:17:40Z</time>
      </trkpt>
      <trkpt lat="48.09832" lon="7.66055">
        <ele>289.49</ele>
        <time>2015-06-24T12:17:44Z</time>
      </trkpt>
      <trkpt lat="48.0982" lon="7.66067">
        <ele>289.49</ele>
        <time>2015-06-24T12:17:59Z</time>
      </trkpt>
      <trkpt lat="48.09817" lon="7.66076">
        <ele>289.49</ele>
        <time>2015-06-24T12:18:06Z</time>
      </trkpt>
      <trkpt lat="48.09819" lon="7.66101">
        <ele>290.94</ele>
        <time>2015-06-24T12:18:25Z</time>
      </trkpt>
      <trkpt lat="48.09822" lon="7.66109">
        <ele>290.94</ele>
        <time>2015-06-24T12:18:33Z</time>
      </trkpt>
      <trkpt lat="48.09827" lon="7.66132">
        <ele>292.86</ele>
        <time>2015-06-24T12:18:49Z</time>
      </trkpt>
      <trkpt lat="48.09834" lon="7.66148">
        <ele>294.78</ele>
        <time>2015-06-24T12:19:06Z</time>
      </trkpt>
      <trkpt lat="48.0983" lon="7.66141">
        <ele>293.34</ele>
        <time>2015-06-24T12:19:29Z</time>
      </trkpt>
      <trkpt lat="48.09828" lon="7.66137">
        <ele>291.42</ele>
        <time>2015-06-24T12:19:45Z</time>
      </trkpt>
      <trkpt lat="48.09824" lon="7.66127">
        <ele>290.46</ele>
        <time>2015-06-24T12:19:54Z</time>
      </trkpt>
      <trkpt lat="48.09818" lon="7.66112">
        <ele>288.05</ele>
        <time>2015-06-24T12:20:05Z</time>
      </trkpt>
      <trkpt lat="48.09812" lon="7.66093">
        <ele>284.21</ele>
        <time>2015-06-24T12:20:19Z</time>
      </trkpt>
      <trkpt lat="48.09806" lon="7.66078">
        <ele>280.84</ele>
        <time>2015-06-24T12:20:32Z</time>
      </trkpt>
      <trkpt lat="48.09801" lon="7.66062">
        <ele>277.96</ele>
        <time>2015-06-24T12:20:45Z</time>
      </trkpt>
      <trkpt lat="48.098" lon="7.66044">
        <ele>274.59</ele>
        <time>2015-06-24T12:20:58Z</time>
      </trkpt>
      <trkpt lat="48.09793" lon="7.66029">
        <ele>272.19</ele>
        <time>2015-06-24T12:21:11Z</time>
      </trkpt>
      <trkpt lat="48.09784" lon="7.66017">
        <ele>268.83</ele>
        <time>2015-06-24T12:21:24Z</time>
      </trkpt>
      <trkpt lat="48.09781" lon="7.66011">
        <ele>267.86</ele>
        <time>2015-06-24T12:21:29Z</time>
      </trkpt>
      <trkpt lat="48.09771" lon="7.6599">
        <ele>264.98</ele>
        <time>2015-06-24T12:21:46Z</time>
      </trkpt>
      <trkpt lat="48.09763" lon="7.65966">
        <ele>261.62</ele>
        <time>2015-06-24T12:22:03Z</time>
      </trkpt>
      <trkpt lat="48.09757" lon="7.65951">
        <ele>258.73</ele>
        <time>2015-06-24T12:22:23Z</time>
      </trkpt>
      <trkpt lat="48.09757" lon="7.65954">
        <ele>258.73</ele>
        <time>2015-06-24T12:22:45Z</time>
      </trkpt>
      <trkpt lat="48.09758" lon="7.65952">
        <ele>258.25</ele>
        <time>2015-06-24T12:23:11Z</time>
      </trkpt>
      <trkpt lat="48.09753" lon="7.65936">
        <ele>258.25</ele>
        <time>2015-06-24T12:23:27Z</time>
      </trkpt>
      <trkpt lat="48.09745" lon="7.65914">
        <ele>256.33</ele>
        <time>2015-06-24T12:23:47Z</time>
      </trkpt>
      <trkpt lat="48.09748" lon="7.65906">
        <ele>256.33</ele>
        <time>2015-06-24T12:24:07Z</time>
      </trkpt>
      <trkpt lat="48.09733" lon="7.65914">
        <ele>255.37</ele>
        <time>2015-06-24T12:24:28Z</time>
      </trkpt>
      <trkpt lat="48.09718" lon="7.65912">
        <ele>255.85</ele>
        <time>2015-06-24T12:24:36Z</time>
      </trkpt>
      <trkpt lat="48.09707" lon="7.65896">
        <ele>255.37</ele>
        <time>2015-06-24T12:24:52Z</time>
      </trkpt>
      <trkpt lat="48.09698" lon="7.65897">
        <ele>255.37</ele>
        <time>2015-06-24T12:25:01Z</time>
      </trkpt>
      <trkpt lat="48.09693" lon="7.65901">
        <ele>254.89</ele>
        <time>2015-06-24T12:25:07Z</time>
      </trkpt>
      <trkpt lat="48.09694" lon="7.65906">
        <ele>254.89</ele>
        <time>2015-06-24T12:25:09Z</time>
      </trkpt>
      <trkpt lat="48.09687" lon="7.65934">
        <ele>254.41</ele>
        <time>2015-06-24T12:25:28Z</time>
      </trkpt>
      <trkpt lat="48.09682" lon="7.65938">
        <ele>253.93</ele>
        <time>2015-06-24T12:25:32Z</time>
      </trkpt>
      <trkpt lat="48.09682" lon="7.65944">
        <ele>254.41</ele>
        <time>2015-06-24T12:25:35Z</time>
      </trkpt>
      <trkpt lat="48.09693" lon="7.65978">
        <ele>254.41</ele>
        <time>2015-06-24T12:25:55Z</time>
      </trkpt>
      <trkpt lat="48.09706" lon="7.66005">
        <ele>254.89</ele>
        <time>2015-06-24T12:26:15Z</time>
      </trkpt>
      <trkpt lat="48.09718" lon="7.66035">
        <ele>255.37</ele>
        <time>2015-06-24T12:26:36Z</time>
      </trkpt>
      <trkpt lat="48.0973" lon="7.66062">
        <ele>256.81</ele>
        <time>2015-06-24T12:26:54Z</time>
      </trkpt>
      <trkpt lat="48.09739" lon="7.6609">
        <ele>257.77</ele>
        <time>2015-06-24T12:27:13Z</time>
      </trkpt>
      <trkpt lat="48.09741" lon="7.66109">
        <ele>257.77</ele>
        <time>2015-06-24T12:27:27Z</time>
      </trkpt>
      <trkpt lat="48.09742" lon="7.66119">
        <ele>257.29</ele>
        <time>2015-06-24T12:27:32Z</time>
      </trkpt>
      <trkpt lat="48.09737" lon="7.66141">
        <ele>257.77</ele>
        <time>2015-06-24T12:27:48Z</time>
      </trkpt>
      <trkpt lat="48.09731" lon="7.66148">
        <ele>257.77</ele>
        <time>2015-06-24T12:27:55Z</time>
      </trkpt>
      <trkpt lat="48.09733" lon="7.66154">
        <ele>258.25</ele>
        <time>2015-06-24T12:28:13Z</time>
      </trkpt>
      <trkpt lat="48.0973" lon="7.66156">
        <ele>258.25</ele>
        <time>2015-06-24T12:28:23Z</time>
      </trkpt>
      <trkpt lat="48.09709" lon="7.6615">
        <ele>258.73</ele>
        <time>2015-06-24T12:28:42Z</time>
      </trkpt>
      <trkpt lat="48.09692" lon="7.66152">
        <ele>259.69</ele>
        <time>2015-06-24T12:28:57Z</time>
      </trkpt>
      <trkpt lat="48.09672" lon="7.66152">
        <ele>261.14</ele>
        <time>2015-06-24T12:29:15Z</time>
      </trkpt>
      <trkpt lat="48.09654" lon="7.66155">
        <ele>262.58</ele>
        <time>2015-06-24T12:29:33Z</time>
      </trkpt>
      <trkpt lat="48.09652" lon="7.66155">
        <ele>262.58</ele>
        <time>2015-06-24T12:29:50Z</time>
      </trkpt>
      <trkpt lat="48.09654" lon="7.66153">
        <ele>262.58</ele>
        <time>2015-06-24T12:29:55Z</time>
      </trkpt>
      <trkpt lat="48.09672" lon="7.66151">
        <ele>261.14</ele>
        <time>2015-06-24T12:30:10Z</time>
      </trkpt>
      <trkpt lat="48.09677" lon="7.66151">
        <ele>260.17</ele>
        <time>2015-06-24T12:30:16Z</time>
      </trkpt>
      <trkpt lat="48.09684" lon="7.66153">
        <ele>259.69</ele>
        <time>2015-06-24T12:30:22Z</time>
      </trkpt>
      <trkpt lat="48.09694" lon="7.66152">
        <ele>259.21</ele>
        <time>2015-06-24T12:30:31Z</time>
      </trkpt>
      <trkpt lat="48.09701" lon="7.66151">
        <ele>258.25</ele>
        <time>2015-06-24T12:30:39Z</time>
      </trkpt>
      <trkpt lat="48.09716" lon="7.66153">
        <ele>258.73</ele>
        <time>2015-06-24T12:30:53Z</time>
      </trkpt>
      <trkpt lat="48.09725" lon="7.66161">
        <ele>257.77</ele>
        <time>2015-06-24T12:31:04Z</time>
      </trkpt>
      <trkpt lat="48.09734" lon="7.66189">
        <ele>258.25</ele>
        <time>2015-06-24T12:31:20Z</time>
      </trkpt>
      <trkpt lat="48.09735" lon="7.66194">
        <ele>258.25</ele>
        <time>2015-06-24T12:31:23Z</time>
      </trkpt>
      <trkpt lat="48.09737" lon="7.66196">
        <ele>258.73</ele>
        <time>2015-06-24T12:31:25Z</time>
      </trkpt>
      <trkpt lat="48.09739" lon="7.66203">
        <ele>258.73</ele>
        <time>2015-06-24T12:31:29Z</time>
      </trkpt>
      <trkpt lat="48.0974" lon="7.66209">
        <ele>258.73</ele>
        <time>2015-06-24T12:31:32Z</time>
      </trkpt>
      <trkpt lat="48.09741" lon="7.66213">
        <ele>258.73</ele>
        <time>2015-06-24T12:31:35Z</time>
      </trkpt>
      <trkpt lat="48.09727" lon="7.66223">
        <ele>258.73</ele>
        <time>2015-06-24T12:31:49Z</time>
      </trkpt>
      <trkpt lat="48.09706" lon="7.66236">
        <ele>258.73</ele>
        <time>2015-06-24T12:32:07Z</time>
      </trkpt>
      <trkpt lat="48.09701" lon="7.66242">
        <ele>258.73</ele>
        <time>2015-06-24T12:32:13Z</time>
      </trkpt>
      <trkpt lat="48.09696" lon="7.66251">
        <ele>258.73</ele>
        <time>2015-06-24T12:32:22Z</time>
      </trkpt>
      <trkpt lat="48.09693" lon="7.66253">
        <ele>258.73</ele>
        <time>2015-06-24T12:32:25Z</time>
      </trkpt>
      <trkpt lat="48.09678" lon="7.66269">
        <ele>258.73</ele>
        <time>2015-06-24T12:32:39Z</time>
      </trkpt>
      <trkpt lat="48.09676" lon="7.66271">
        <ele>259.21</ele>
        <time>2015-06-24T12:32:41Z</time>
      </trkpt>
      <trkpt lat="48.0967" lon="7.66276">
        <ele>259.69</ele>
        <time>2015-06-24T12:32:46Z</time>
      </trkpt>
      <trkpt lat="48.0966" lon="7.66293">
        <ele>259.69</ele>
        <time>2015-06-24T12:32:59Z</time>
      </trkpt>
      <trkpt lat="48.09657" lon="7.66297">
        <ele>259.69</ele>
        <time>2015-06-24T12:33:04Z</time>
      </trkpt>
      <trkpt lat="48.09652" lon="7.66307">
        <ele>260.17</ele>
        <time>2015-06-24T12:33:11Z</time>
      </trkpt>
      <trkpt lat="48.09642" lon="7.66325">
        <ele>261.14</ele>
        <time>2015-06-24T12:33:25Z</time>
      </trkpt>
      <trkpt lat="48.09636" lon="7.66341">
        <ele>261.62</ele>
        <time>2015-06-24T12:33:35Z</time>
      </trkpt>
      <trkpt lat="48.09634" lon="7.6635">
        <ele>261.62</ele>
        <time>2015-06-24T12:33:42Z</time>
      </trkpt>
      <trkpt lat="48.09628" lon="7.66377">
        <ele>262.58</ele>
        <time>2015-06-24T12:33:58Z</time>
      </trkpt>
      <trkpt lat="48.09629" lon="7.66384">
        <ele>262.58</ele>
        <time>2015-06-24T12:34:02Z</time>
      </trkpt>
      <trkpt lat="48.09625" lon="7.66413">
        <ele>264.02</ele>
        <time>2015-06-24T12:34:20Z</time>
      </trkpt>
      <trkpt lat="48.09622" lon="7.66418">
        <ele>264.98</ele>
        <time>2015-06-24T12:34:34Z</time>
      </trkpt>
      <trkpt lat="48.09622" lon="7.66418">
        <ele>264.5</ele>
        <time>2015-06-24T12:34:56Z</time>
      </trkpt>
      <trkpt lat="48.09621" lon="7.66425">
        <ele>264.98</ele>
        <time>2015-06-24T12:35:00Z</time>
      </trkpt>
      <trkpt lat="48.09613" lon="7.66429">
        <ele>264.5</ele>
        <time>2015-06-24T12:35:06Z</time>
      </trkpt>
      <trkpt lat="48.09611" lon="7.66434">
        <ele>264.5</ele>
        <time>2015-06-24T12:35:10Z</time>
      </trkpt>
      <trkpt lat="48.09609" lon="7.66442">
        <ele>264.98</ele>
        <time>2015-06-24T12:35:15Z</time>
      </trkpt>
      <trkpt lat="48.09598" lon="7.66443">
        <ele>264.98</ele>
        <time>2015-06-24T12:35:25Z</time>
      </trkpt>
      <trkpt lat="48.09596" lon="7.66459">
        <ele>266.9</ele>
        <time>2015-06-24T12:35:42Z</time>
      </trkpt>
      <trkpt lat="48.09596" lon="7.66458">
        <ele>266.42</ele>
        <time>2015-06-24T12:36:10Z</time>
      </trkpt>
      <trkpt lat="48.09595" lon="7.66457">
        <ele>266.42</ele>
        <time>2015-06-24T12:36:41Z</time>
      </trkpt>
      <trkpt lat="48.09595" lon="7.66456">
        <ele>266.42</ele>
        <time>2015-06-24T12:36:49Z</time>
      </trkpt>
      <trkpt lat="48.096" lon="7.66463">
        <ele>267.38</ele>
        <time>2015-06-24T12:37:01Z</time>
      </trkpt>
      <trkpt lat="48.09604" lon="7.66479">
        <ele>268.83</ele>
        <time>2015-06-24T12:37:18Z</time>
      </trkpt>
      <trkpt lat="48.09603" lon="7.66485">
        <ele>270.27</ele>
        <time>2015-06-24T12:37:24Z</time>
      </trkpt>
      <trkpt lat="48.096" lon="7.66487">
        <ele>270.75</ele>
        <time>2015-06-24T12:37:30Z</time>
      </trkpt>
      <trkpt lat="48.09577" lon="7.66492">
        <ele>273.15</ele>
        <time>2015-06-24T12:37:49Z</time>
      </trkpt>
      <trkpt lat="48.09562" lon="7.66507">
        <ele>275.56</ele>
        <time>2015-06-24T12:38:05Z</time>
      </trkpt>
      <trkpt lat="48.09557" lon="7.66522">
        <ele>278.44</ele>
        <time>2015-06-24T12:38:16Z</time>
      </trkpt>
      <trkpt lat="48.09557" lon="7.66534">
        <ele>279.88</ele>
        <time>2015-06-24T12:38:26Z</time>
      </trkpt>
      <trkpt lat="48.09561" lon="7.66534">
        <ele>280.36</ele>
        <time>2015-06-24T12:38:29Z</time>
      </trkpt>
      <trkpt lat="48.09574" lon="7.66521">
        <ele>282.77</ele>
        <time>2015-06-24T12:38:45Z</time>
      </trkpt>
      <trkpt lat="48.09589" lon="7.6652">
        <ele>285.65</ele>
        <time>2015-06-24T12:39:02Z</time>
      </trkpt>
      <trkpt lat="48.0959" lon="7.66521">
        <ele>285.65</ele>
        <time>2015-06-24T12:39:03Z</time>
      </trkpt>
      <trkpt lat="48.09603" lon="7.66531">
        <ele>289.49</ele>
        <time>2015-06-24T12:39:21Z</time>
      </trkpt>
      <trkpt lat="48.09599" lon="7.66534">
        <ele>290.46</ele>
        <time>2015-06-24T12:39:26Z</time>
      </trkpt>
      <trkpt lat="48.09585" lon="7.66546">
        <ele>293.34</ele>
        <time>2015-06-24T12:39:44Z</time>
      </trkpt>
      <trkpt lat="48.09584" lon="7.66552">
        <ele>294.3</ele>
        <time>2015-06-24T12:39:49Z</time>
      </trkpt>
      <trkpt lat="48.09583" lon="7.66556">
        <ele>295.26</ele>
        <time>2015-06-24T12:39:53Z</time>
      </trkpt>
      <trkpt lat="48.09578" lon="7.66574">
        <ele>298.63</ele>
        <time>2015-06-24T12:40:09Z</time>
      </trkpt>
      <trkpt lat="48.09578" lon="7.66577">
        <ele>298.63</ele>
        <time>2015-06-24T12:40:11Z</time>
      </trkpt>
      <trkpt lat="48.09577" lon="7.66596">
        <ele>301.99</ele>
        <time>2015-06-24T12:40:26Z</time>
      </trkpt>
      <trkpt lat="48.09575" lon="7.66612">
        <ele>305.36</ele>
        <time>2015-06-24T12:40:41Z</time>
      </trkpt>
      <trkpt lat="48.09574" lon="7.66629">
        <ele>308.24</ele>
        <time>2015-06-24T12:40:56Z</time>
      </trkpt>
      <trkpt lat="48.09579" lon="7.66641">
        <ele>311.6</ele>
        <time>2015-06-24T12:41:11Z</time>
      </trkpt>
      <trkpt lat="48.09581" lon="7.66658">
        <ele>314.49</ele>
        <time>2015-06-24T12:41:26Z</time>
      </trkpt>
      <trkpt lat="48.09581" lon="7.66662">
        <ele>314.97</ele>
        <time>2015-06-24T12:41:29Z</time>
      </trkpt>
      <trkpt lat="48.09581" lon="7.66681">
        <ele>318.33</ele>
        <time>2015-06-24T12:41:45Z</time>
      </trkpt>
      <trkpt lat="48.09585" lon="7.66698">
        <ele>320.26</ele>
        <time>2015-06-24T12:42:00Z</time>
      </trkpt>
      <trkpt lat="48.09585" lon="7.66701">
        <ele>321.22</ele>
        <time>2015-06-24T12:42:03Z</time>
      </trkpt>
      <trkpt lat="48.09586" lon="7.66728">
        <ele>324.1</ele>
        <time>2015-06-24T12:42:21Z</time>
      </trkpt>
      <trkpt lat="48.09585" lon="7.6675">
        <ele>326.02</ele>
        <time>2015-06-24T12:42:37Z</time>
      </trkpt>
      <trkpt lat="48.09582" lon="7.66765">
        <ele>328.43</ele>
        <time>2015-06-24T12:42:48Z</time>
      </trkpt>
      <trkpt lat="48.0958" lon="7.66782">
        <ele>329.87</ele>
        <time>2015-06-24T12:42:59Z</time>
      </trkpt>
      <trkpt lat="48.09592" lon="7.66805">
        <ele>332.27</ele>
        <time>2015-06-24T12:43:18Z</time>
      </trkpt>
      <trkpt lat="48.09592" lon="7.66812">
        <ele>332.27</ele>
        <time>2015-06-24T12:43:23Z</time>
      </trkpt>
      <trkpt lat="48.09582" lon="7.66843">
        <ele>333.23</ele>
        <time>2015-06-24T12:43:43Z</time>
      </trkpt>
      <trkpt lat="48.09574" lon="7.66866">
        <ele>333.71</ele>
        <time>2015-06-24T12:44:01Z</time>
      </trkpt>
      <trkpt lat="48.09567" lon="7.66889">
        <ele>334.2</ele>
        <time>2015-06-24T12:44:16Z</time>
      </trkpt>
      <trkpt lat="48.09562" lon="7.669">
        <ele>335.16</ele>
        <time>2015-06-24T12:44:21Z</time>
      </trkpt>
      <trkpt lat="48.0956" lon="7.66907">
        <ele>335.64</ele>
        <time>2015-06-24T12:44:25Z</time>
      </trkpt>
      <trkpt lat="48.0955" lon="7.66927">
        <ele>339</ele>
        <time>2015-06-24T12:44:40Z</time>
      </trkpt>
      <trkpt lat="48.09538" lon="7.6694">
        <ele>342.37</ele>
        <time>2015-06-24T12:44:55Z</time>
      </trkpt>
      <trkpt lat="48.09528" lon="7.66957">
        <ele>345.73</ele>
        <time>2015-06-24T12:45:11Z</time>
      </trkpt>
      <trkpt lat="48.09516" lon="7.66963">
        <ele>348.62</ele>
        <time>2015-06-24T12:45:25Z</time>
      </trkpt>
      <trkpt lat="48.09504" lon="7.66971">
        <ele>351.98</ele>
        <time>2015-06-24T12:45:40Z</time>
      </trkpt>
      <trkpt lat="48.09485" lon="7.66982">
        <ele>354.86</ele>
        <time>2015-06-24T12:45:58Z</time>
      </trkpt>
      <trkpt lat="48.09468" lon="7.6699">
        <ele>357.75</ele>
        <time>2015-06-24T12:46:15Z</time>
      </trkpt>
      <trkpt lat="48.09458" lon="7.67003">
        <ele>359.19</ele>
        <time>2015-06-24T12:46:32Z</time>
      </trkpt>
      <trkpt lat="48.09461" lon="7.67006">
        <ele>360.15</ele>
        <time>2015-06-24T12:46:46Z</time>
      </trkpt>
      <trkpt lat="48.09464" lon="7.67006">
        <ele>360.15</ele>
        <time>2015-06-24T12:47:07Z</time>
      </trkpt>
      <trkpt lat="48.09462" lon="7.67003">
        <ele>359.19</ele>
        <time>2015-06-24T12:47:25Z</time>
      </trkpt>
      <trkpt lat="48.09462" lon="7.67003">
        <ele>359.67</ele>
        <time>2015-06-24T12:47:27Z</time>
      </trkpt>
      <trkpt lat="48.09459" lon="7.67">
        <ele>359.19</ele>
        <time>2015-06-24T12:47:50Z</time>
      </trkpt>
      <trkpt lat="48.09458" lon="7.67001">
        <ele>359.19</ele>
        <time>2015-06-24T12:49:09Z</time>
      </trkpt>
      <trkpt lat="48.0946" lon="7.67">
        <ele>358.71</ele>
        <time>2015-06-24T12:50:23Z</time>
      </trkpt>
      <trkpt lat="48.0946" lon="7.67">
        <ele>406.77</ele>
        <time>2015-06-24T12:51:20Z</time>
      </trkpt>
      <trkpt lat="48.0946" lon="7.67">
        <ele>370.24</ele>
        <time>2015-06-24T12:51:22Z</time>
      </trkpt>
      <trkpt lat="48.09451" lon="7.67008">
        <ele>371.21</ele>
        <time>2015-06-24T12:51:27Z</time>
      </trkpt>
      <trkpt lat="48.09462" lon="7.67">
        <ele>367.84</ele>
        <time>2015-06-24T12:51:46Z</time>
      </trkpt>
      <trkpt lat="48.09462" lon="7.67">
        <ele>366.4</ele>
        <time>2015-06-24T12:51:51Z</time>
      </trkpt>
      <trkpt lat="48.09458" lon="7.67003">
        <ele>364</ele>
        <time>2015-06-24T12:52:07Z</time>
      </trkpt>
      <trkpt lat="48.09468" lon="7.67008">
        <ele>364.96</ele>
        <time>2015-06-24T12:52:54Z</time>
      </trkpt>
      <trkpt lat="48.09478" lon="7.67016">
        <ele>368.32</ele>
        <time>2015-06-24T12:53:16Z</time>
      </trkpt>
      <trkpt lat="48.09483" lon="7.67026">
        <ele>370.24</ele>
        <time>2015-06-24T12:53:33Z</time>
      </trkpt>
      <trkpt lat="48.09488" lon="7.67035">
        <ele>371.69</ele>
        <time>2015-06-24T12:53:53Z</time>
      </trkpt>
      <trkpt lat="48.09494" lon="7.67042">
        <ele>373.13</ele>
        <time>2015-06-24T12:54:07Z</time>
      </trkpt>
      <trkpt lat="48.09501" lon="7.67052">
        <ele>376.01</ele>
        <time>2015-06-24T12:54:22Z</time>
      </trkpt>
      <trkpt lat="48.09507" lon="7.67061">
        <ele>377.45</ele>
        <time>2015-06-24T12:54:36Z</time>
      </trkpt>
      <trkpt lat="48.09514" lon="7.67074">
        <ele>380.82</ele>
        <time>2015-06-24T12:55:04Z</time>
      </trkpt>
      <trkpt lat="48.09519" lon="7.67081">
        <ele>383.7</ele>
        <time>2015-06-24T12:55:18Z</time>
      </trkpt>
      <trkpt lat="48.09525" lon="7.67093">
        <ele>386.11</ele>
        <time>2015-06-24T12:55:33Z</time>
      </trkpt>
      <trkpt lat="48.0953" lon="7.67101">
        <ele>388.99</ele>
        <time>2015-06-24T12:55:43Z</time>
      </trkpt>
      <trkpt lat="48.09536" lon="7.67109">
        <ele>390.91</ele>
        <time>2015-06-24T12:55:55Z</time>
      </trkpt>
      <trkpt lat="48.09541" lon="7.67121">
        <ele>393.8</ele>
        <time>2015-06-24T12:56:07Z</time>
      </trkpt>
      <trkpt lat="48.09548" lon="7.67138">
        <ele>396.2</ele>
        <time>2015-06-24T12:56:24Z</time>
      </trkpt>
      <trkpt lat="48.09552" lon="7.67152">
        <ele>396.68</ele>
        <time>2015-06-24T12:56:37Z</time>
      </trkpt>
      <trkpt lat="48.09555" lon="7.67173">
        <ele>399.57</ele>
        <time>2015-06-24T12:56:54Z</time>
      </trkpt>
      <trkpt lat="48.09556" lon="7.67194">
        <ele>402.45</ele>
        <time>2015-06-24T12:57:10Z</time>
      </trkpt>
      <trkpt lat="48.09555" lon="7.67219">
        <ele>403.89</ele>
        <time>2015-06-24T12:57:27Z</time>
      </trkpt>
      <trkpt lat="48.09554" lon="7.67243">
        <ele>405.33</ele>
        <time>2015-06-24T12:57:43Z</time>
      </trkpt>
      <trkpt lat="48.09552" lon="7.67271">
        <ele>405.81</ele>
        <time>2015-06-24T12:58:01Z</time>
      </trkpt>
      <trkpt lat="48.09547" lon="7.67295">
        <ele>408.7</ele>
        <time>2015-06-24T12:58:17Z</time>
      </trkpt>
      <trkpt lat="48.09543" lon="7.67311">
        <ele>412.06</ele>
        <time>2015-06-24T12:58:32Z</time>
      </trkpt>
      <trkpt lat="48.09541" lon="7.67325">
        <ele>415.43</ele>
        <time>2015-06-24T12:58:46Z</time>
      </trkpt>
      <trkpt lat="48.09539" lon="7.67338">
        <ele>418.31</ele>
        <time>2015-06-24T12:59:00Z</time>
      </trkpt>
      <trkpt lat="48.09535" lon="7.6735">
        <ele>421.68</ele>
        <time>2015-06-24T12:59:13Z</time>
      </trkpt>
      <trkpt lat="48.09532" lon="7.67357">
        <ele>422.64</ele>
        <time>2015-06-24T12:59:36Z</time>
      </trkpt>
      <trkpt lat="48.09531" lon="7.67363">
        <ele>423.12</ele>
        <time>2015-06-24T12:59:54Z</time>
      </trkpt>
      <trkpt lat="48.09531" lon="7.67364">
        <ele>422.64</ele>
        <time>2015-06-24T13:00:34Z</time>
      </trkpt>
      <trkpt lat="48.0953" lon="7.67365">
        <ele>422.64</ele>
        <time>2015-06-24T13:00:56Z</time>
      </trkpt>
      <trkpt lat="48.09528" lon="7.67367">
        <ele>422.16</ele>
        <time>2015-06-24T13:01:20Z</time>
      </trkpt>
      <trkpt lat="48.09528" lon="7.67368">
        <ele>422.64</ele>
        <time>2015-06-24T13:01:39Z</time>
      </trkpt>
      <trkpt lat="48.09527" lon="7.67368">
        <ele>422.16</ele>
        <time>2015-06-24T13:02:10Z</time>
      </trkpt>
      <trkpt lat="48.09528" lon="7.67365">
        <ele>422.64</ele>
        <time>2015-06-24T13:02:29Z</time>
      </trkpt>
      <trkpt lat="48.09531" lon="7.67363">
        <ele>422.64</ele>
        <time>2015-06-24T13:03:15Z</time>
      </trkpt>
      <trkpt lat="48.09531" lon="7.67363">
        <ele>422.64</ele>
        <time>2015-06-24T13:04:36Z</time>
      </trkpt>
      <trkpt lat="48.09531" lon="7.67363">
        <ele>422.16</ele>
        <time>2015-06-24T13:06:34Z</time>
      </trkpt>
      <trkpt lat="48.0953" lon="7.67365">
        <ele>422.16</ele>
        <time>2015-06-24T13:07:33Z</time>
      </trkpt>
      <trkpt lat="48.0953" lon="7.6737">
        <ele>421.68</ele>
        <time>2015-06-24T13:07:59Z</time>
      </trkpt>
      <trkpt lat="48.09527" lon="7.67386">
        <ele>419.75</ele>
        <time>2015-06-24T13:08:18Z</time>
      </trkpt>
      <trkpt lat="48.09528" lon="7.67405">
        <ele>418.31</ele>
        <time>2015-06-24T13:08:33Z</time>
      </trkpt>
      <trkpt lat="48.0953" lon="7.67424">
        <ele>415.91</ele>
        <time>2015-06-24T13:08:50Z</time>
      </trkpt>
      <trkpt lat="48.09535" lon="7.67449">
        <ele>413.5</ele>
        <time>2015-06-24T13:09:09Z</time>
      </trkpt>
      <trkpt lat="48.09535" lon="7.67457">
        <ele>412.54</ele>
        <time>2015-06-24T13:09:16Z</time>
      </trkpt>
      <trkpt lat="48.09533" lon="7.67479">
        <ele>409.66</ele>
        <time>2015-06-24T13:09:33Z</time>
      </trkpt>
      <trkpt lat="48.09535" lon="7.67504">
        <ele>407.74</ele>
        <time>2015-06-24T13:09:56Z</time>
      </trkpt>
      <trkpt lat="48.09535" lon="7.67516">
        <ele>406.29</ele>
        <time>2015-06-24T13:10:11Z</time>
      </trkpt>
      <trkpt lat="48.09537" lon="7.67525">
        <ele>406.29</ele>
        <time>2015-06-24T13:10:20Z</time>
      </trkpt>
      <trkpt lat="48.09543" lon="7.67552">
        <ele>404.85</ele>
        <time>2015-06-24T13:10:38Z</time>
      </trkpt>
      <trkpt lat="48.09546" lon="7.67586">
        <ele>406.29</ele>
        <time>2015-06-24T13:11:02Z</time>
      </trkpt>
      <trkpt lat="48.09549" lon="7.67593">
        <ele>406.77</ele>
        <time>2015-06-24T13:11:25Z</time>
      </trkpt>
      <trkpt lat="48.09553" lon="7.67614">
        <ele>409.18</ele>
        <time>2015-06-24T13:11:43Z</time>
      </trkpt>
      <trkpt lat="48.09552" lon="7.67617">
        <ele>409.66</ele>
        <time>2015-06-24T13:12:03Z</time>
      </trkpt>
      <trkpt lat="48.09553" lon="7.67617">
        <ele>409.66</ele>
        <time>2015-06-24T13:12:18Z</time>
      </trkpt>
      <trkpt lat="48.09555" lon="7.67622">
        <ele>411.1</ele>
        <time>2015-06-24T13:12:22Z</time>
      </trkpt>
      <trkpt lat="48.09561" lon="7.67636">
        <ele>413.98</ele>
        <time>2015-06-24T13:12:34Z</time>
      </trkpt>
      <trkpt lat="48.09564" lon="7.67652">
        <ele>416.39</ele>
        <time>2015-06-24T13:12:49Z</time>
      </trkpt>
      <trkpt lat="48.09567" lon="7.67663">
        <ele>419.75</ele>
        <time>2015-06-24T13:13:06Z</time>
      </trkpt>
      <trkpt lat="48.09571" lon="7.67674">
        <ele>422.64</ele>
        <time>2015-06-24T13:13:25Z</time>
      </trkpt>
      <trkpt lat="48.09575" lon="7.67682">
        <ele>425.04</ele>
        <time>2015-06-24T13:13:41Z</time>
      </trkpt>
      <trkpt lat="48.0958" lon="7.67692">
        <ele>427.92</ele>
        <time>2015-06-24T13:13:54Z</time>
      </trkpt>
      <trkpt lat="48.09585" lon="7.67701">
        <ele>431.29</ele>
        <time>2015-06-24T13:14:08Z</time>
      </trkpt>
      <trkpt lat="48.09588" lon="7.6771">
        <ele>433.69</ele>
        <time>2015-06-24T13:14:23Z</time>
      </trkpt>
      <trkpt lat="48.09589" lon="7.67722">
        <ele>435.13</ele>
        <time>2015-06-24T13:14:36Z</time>
      </trkpt>
      <trkpt lat="48.0959" lon="7.67723">
        <ele>434.65</ele>
        <time>2015-06-24T13:14:52Z</time>
      </trkpt>
      <trkpt lat="48.09588" lon="7.67727">
        <ele>435.13</ele>
        <time>2015-06-24T13:15:11Z</time>
      </trkpt>
      <trkpt lat="48.09589" lon="7.67725">
        <ele>435.13</ele>
        <time>2015-06-24T13:15:36Z</time>
      </trkpt>
      <trkpt lat="48.09585" lon="7.67729">
        <ele>434.65</ele>
        <time>2015-06-24T13:15:56Z</time>
      </trkpt>
      <trkpt lat="48.09578" lon="7.67746">
        <ele>432.73</ele>
        <time>2015-06-24T13:16:12Z</time>
      </trkpt>
      <trkpt lat="48.09571" lon="7.67764">
        <ele>431.29</ele>
        <time>2015-06-24T13:16:25Z</time>
      </trkpt>
      <trkpt lat="48.0957" lon="7.67765">
        <ele>430.81</ele>
        <time>2015-06-24T13:16:27Z</time>
      </trkpt>
      <trkpt lat="48.09566" lon="7.67783">
        <ele>428.89</ele>
        <time>2015-06-24T13:16:41Z</time>
      </trkpt>
      <trkpt lat="48.0956" lon="7.678">
        <ele>427.44</ele>
        <time>2015-06-24T13:16:53Z</time>
      </trkpt>
      <trkpt lat="48.09551" lon="7.67832">
        <ele>426</ele>
        <time>2015-06-24T13:17:14Z</time>
      </trkpt>
      <trkpt lat="48.09545" lon="7.67858">
        <ele>426.48</ele>
        <time>2015-06-24T13:17:32Z</time>
      </trkpt>
      <trkpt lat="48.09541" lon="7.67882">
        <ele>429.37</ele>
        <time>2015-06-24T13:17:53Z</time>
      </trkpt>
      <trkpt lat="48.09537" lon="7.67901">
        <ele>431.77</ele>
        <time>2015-06-24T13:18:11Z</time>
      </trkpt>
      <trkpt lat="48.09537" lon="7.67904">
        <ele>432.25</ele>
        <time>2015-06-24T13:18:35Z</time>
      </trkpt>
      <trkpt lat="48.09536" lon="7.6792">
        <ele>433.69</ele>
        <time>2015-06-24T13:19:05Z</time>
      </trkpt>
      <trkpt lat="48.09536" lon="7.67936">
        <ele>435.13</ele>
        <time>2015-06-24T13:19:20Z</time>
      </trkpt>
      <trkpt lat="48.09537" lon="7.6794">
        <ele>435.13</ele>
        <time>2015-06-24T13:19:38Z</time>
      </trkpt>
      <trkpt lat="48.09537" lon="7.67948">
        <ele>435.13</ele>
        <time>2015-06-24T13:19:50Z</time>
      </trkpt>
      <trkpt lat="48.09539" lon="7.67966">
        <ele>433.69</ele>
        <time>2015-06-24T13:20:02Z</time>
      </trkpt>
      <trkpt lat="48.0954" lon="7.67999">
        <ele>431.77</ele>
        <time>2015-06-24T13:20:22Z</time>
      </trkpt>
      <trkpt lat="48.09541" lon="7.68029">
        <ele>431.29</ele>
        <time>2015-06-24T13:20:39Z</time>
      </trkpt>
      <trkpt lat="48.09547" lon="7.68052">
        <ele>431.77</ele>
        <time>2015-06-24T13:20:54Z</time>
      </trkpt>
      <trkpt lat="48.09559" lon="7.68076">
        <ele>430.33</ele>
        <time>2015-06-24T13:21:14Z</time>
      </trkpt>
      <trkpt lat="48.09561" lon="7.68079">
        <ele>430.33</ele>
        <time>2015-06-24T13:21:18Z</time>
      </trkpt>
      <trkpt lat="48.09566" lon="7.68087">
        <ele>429.37</ele>
        <time>2015-06-24T13:21:24Z</time>
      </trkpt>
      <trkpt lat="48.09585" lon="7.68093">
        <ele>428.4</ele>
        <time>2015-06-24T13:21:42Z</time>
      </trkpt>
      <trkpt lat="48.09599" lon="7.681">
        <ele>427.92</ele>
        <time>2015-06-24T13:21:57Z</time>
      </trkpt>
      <trkpt lat="48.09618" lon="7.68116">
        <ele>429.85</ele>
        <time>2015-06-24T13:22:17Z</time>
      </trkpt>
      <trkpt lat="48.0963" lon="7.68134">
        <ele>429.85</ele>
        <time>2015-06-24T13:22:33Z</time>
      </trkpt>
      <trkpt lat="48.09646" lon="7.68156">
        <ele>429.85</ele>
        <time>2015-06-24T13:22:52Z</time>
      </trkpt>
      <trkpt lat="48.09661" lon="7.68178">
        <ele>429.85</ele>
        <time>2015-06-24T13:23:11Z</time>
      </trkpt>
      <trkpt lat="48.09677" lon="7.68194">
        <ele>430.81</ele>
        <time>2015-06-24T13:23:28Z</time>
      </trkpt>
      <trkpt lat="48.09696" lon="7.68204">
        <ele>430.81</ele>
        <time>2015-06-24T13:23:48Z</time>
      </trkpt>
      <trkpt lat="48.09713" lon="7.68208">
        <ele>431.29</ele>
        <time>2015-06-24T13:24:05Z</time>
      </trkpt>
      <trkpt lat="48.09715" lon="7.68211">
        <ele>431.29</ele>
        <time>2015-06-24T13:24:07Z</time>
      </trkpt>
      <trkpt lat="48.09731" lon="7.68211">
        <ele>432.25</ele>
        <time>2015-06-24T13:24:24Z</time>
      </trkpt>
      <trkpt lat="48.09735" lon="7.68216">
        <ele>431.77</ele>
        <time>2015-06-24T13:24:30Z</time>
      </trkpt>
      <trkpt lat="48.0974" lon="7.68218">
        <ele>431.77</ele>
        <time>2015-06-24T13:24:51Z</time>
      </trkpt>
      <trkpt lat="48.0974" lon="7.68218">
        <ele>432.25</ele>
        <time>2015-06-24T13:25:22Z</time>
      </trkpt>
      <trkpt lat="48.09744" lon="7.68223">
        <ele>431.29</ele>
        <time>2015-06-24T13:25:58Z</time>
      </trkpt>
      <trkpt lat="48.09744" lon="7.68223">
        <ele>431.29</ele>
        <time>2015-06-24T13:25:59Z</time>
      </trkpt>
      <trkpt lat="48.09749" lon="7.68241">
        <ele>427.92</ele>
        <time>2015-06-24T13:26:12Z</time>
      </trkpt>
      <trkpt lat="48.09753" lon="7.68256">
        <ele>424.56</ele>
        <time>2015-06-24T13:26:24Z</time>
      </trkpt>
      <trkpt lat="48.09759" lon="7.6827">
        <ele>421.68</ele>
        <time>2015-06-24T13:26:37Z</time>
      </trkpt>
      <trkpt lat="48.09761" lon="7.68279">
        <ele>420.23</ele>
        <time>2015-06-24T13:26:44Z</time>
      </trkpt>
      <trkpt lat="48.09765" lon="7.68297">
        <ele>416.87</ele>
        <time>2015-06-24T13:26:59Z</time>
      </trkpt>
      <trkpt lat="48.0977" lon="7.68313">
        <ele>414.95</ele>
        <time>2015-06-24T13:27:15Z</time>
      </trkpt>
      <trkpt lat="48.09774" lon="7.68327">
        <ele>413.02</ele>
        <time>2015-06-24T13:27:29Z</time>
      </trkpt>
      <trkpt lat="48.09775" lon="7.68331">
        <ele>413.02</ele>
        <time>2015-06-24T13:27:32Z</time>
      </trkpt>
      <trkpt lat="48.09778" lon="7.68339">
        <ele>412.06</ele>
        <time>2015-06-24T13:27:40Z</time>
      </trkpt>
      <trkpt lat="48.09785" lon="7.68364">
        <ele>409.18</ele>
        <time>2015-06-24T13:27:59Z</time>
      </trkpt>
      <trkpt lat="48.09792" lon="7.68387">
        <ele>407.26</ele>
        <time>2015-06-24T13:28:17Z</time>
      </trkpt>
      <trkpt lat="48.09795" lon="7.68398">
        <ele>406.29</ele>
        <time>2015-06-24T13:28:26Z</time>
      </trkpt>
      <trkpt lat="48.09804" lon="7.68423">
        <ele>404.85</ele>
        <time>2015-06-24T13:28:44Z</time>
      </trkpt>
      <trkpt lat="48.09818" lon="7.68452">
        <ele>402.93</ele>
        <time>2015-06-24T13:29:06Z</time>
      </trkpt>
      <trkpt lat="48.09822" lon="7.68465">
        <ele>402.93</ele>
        <time>2015-06-24T13:29:15Z</time>
      </trkpt>
      <trkpt lat="48.09831" lon="7.68488">
        <ele>399.57</ele>
        <time>2015-06-24T13:29:36Z</time>
      </trkpt>
      <trkpt lat="48.09834" lon="7.68502">
        <ele>397.16</ele>
        <time>2015-06-24T13:29:52Z</time>
      </trkpt>
      <trkpt lat="48.09836" lon="7.68504">
        <ele>397.16</ele>
        <time>2015-06-24T13:29:59Z</time>
      </trkpt>
      <trkpt lat="48.09839" lon="7.68512">
        <ele>395.72</ele>
        <time>2015-06-24T13:30:06Z</time>
      </trkpt>
      <trkpt lat="48.0984" lon="7.68514">
        <ele>395.72</ele>
        <time>2015-06-24T13:30:16Z</time>
      </trkpt>
      <trkpt lat="48.0984" lon="7.68505">
        <ele>396.68</ele>
        <time>2015-06-24T13:30:24Z</time>
      </trkpt>
      <trkpt lat="48.09842" lon="7.68499">
        <ele>396.2</ele>
        <time>2015-06-24T13:30:49Z</time>
      </trkpt>
      <trkpt lat="48.09841" lon="7.685">
        <ele>395.72</ele>
        <time>2015-06-24T13:30:51Z</time>
      </trkpt>
      <trkpt lat="48.09836" lon="7.68501">
        <ele>396.68</ele>
        <time>2015-06-24T13:31:04Z</time>
      </trkpt>
      <trkpt lat="48.09836" lon="7.685">
        <ele>397.64</ele>
        <time>2015-06-24T13:31:11Z</time>
      </trkpt>
      <trkpt lat="48.09833" lon="7.68493">
        <ele>399.08</ele>
        <time>2015-06-24T13:31:25Z</time>
      </trkpt>
      <trkpt lat="48.09829" lon="7.6848">
        <ele>400.53</ele>
        <time>2015-06-24T13:31:44Z</time>
      </trkpt>
      <trkpt lat="48.09827" lon="7.68476">
        <ele>401.01</ele>
        <time>2015-06-24T13:31:48Z</time>
      </trkpt>
      <trkpt lat="48.09821" lon="7.68457">
        <ele>401.97</ele>
        <time>2015-06-24T13:32:03Z</time>
      </trkpt>
      <trkpt lat="48.09807" lon="7.68424">
        <ele>403.89</ele>
        <time>2015-06-24T13:32:27Z</time>
      </trkpt>
      <trkpt lat="48.09797" lon="7.68392">
        <ele>406.29</ele>
        <time>2015-06-24T13:32:50Z</time>
      </trkpt>
      <trkpt lat="48.09787" lon="7.68354">
        <ele>408.7</ele>
        <time>2015-06-24T13:33:17Z</time>
      </trkpt>
      <trkpt lat="48.09782" lon="7.68333">
        <ele>410.62</ele>
        <time>2015-06-24T13:33:33Z</time>
      </trkpt>
      <trkpt lat="48.0978" lon="7.68329">
        <ele>411.1</ele>
        <time>2015-06-24T13:33:37Z</time>
      </trkpt>
      <trkpt lat="48.0978" lon="7.68326">
        <ele>411.1</ele>
        <time>2015-06-24T13:33:39Z</time>
      </trkpt>
      <trkpt lat="48.09774" lon="7.68312">
        <ele>413.5</ele>
        <time>2015-06-24T13:33:52Z</time>
      </trkpt>
      <trkpt lat="48.09769" lon="7.68294">
        <ele>415.91</ele>
        <time>2015-06-24T13:34:08Z</time>
      </trkpt>
      <trkpt lat="48.09765" lon="7.68277">
        <ele>419.27</ele>
        <time>2015-06-24T13:34:24Z</time>
      </trkpt>
      <trkpt lat="48.09761" lon="7.68263">
        <ele>422.16</ele>
        <time>2015-06-24T13:34:39Z</time>
      </trkpt>
      <trkpt lat="48.09758" lon="7.68248">
        <ele>425.04</ele>
        <time>2015-06-24T13:34:59Z</time>
      </trkpt>
      <trkpt lat="48.09754" lon="7.68235">
        <ele>427.92</ele>
        <time>2015-06-24T13:35:14Z</time>
      </trkpt>
      <trkpt lat="48.09746" lon="7.68223">
        <ele>430.81</ele>
        <time>2015-06-24T13:35:28Z</time>
      </trkpt>
      <trkpt lat="48.09746" lon="7.68219">
        <ele>431.77</ele>
        <time>2015-06-24T13:35:32Z</time>
      </trkpt>
      <trkpt lat="48.09741" lon="7.68212">
        <ele>432.25</ele>
        <time>2015-06-24T13:35:40Z</time>
      </trkpt>
      <trkpt lat="48.09737" lon="7.68209">
        <ele>432.73</ele>
        <time>2015-06-24T13:35:46Z</time>
      </trkpt>
      <trkpt lat="48.09732" lon="7.6821">
        <ele>433.69</ele>
        <time>2015-06-24T13:36:05Z</time>
      </trkpt>
      <trkpt lat="48.09733" lon="7.68212">
        <ele>432.73</ele>
        <time>2015-06-24T13:36:36Z</time>
      </trkpt>
      <trkpt lat="48.09732" lon="7.68212">
        <ele>432.73</ele>
        <time>2015-06-24T13:37:00Z</time>
      </trkpt>
      <trkpt lat="48.09732" lon="7.68212">
        <ele>433.21</ele>
        <time>2015-06-24T13:37:02Z</time>
      </trkpt>
      <trkpt lat="48.09733" lon="7.68216">
        <ele>432.25</ele>
        <time>2015-06-24T13:37:16Z</time>
      </trkpt>
      <trkpt lat="48.0973" lon="7.68212">
        <ele>432.73</ele>
        <time>2015-06-24T13:37:19Z</time>
      </trkpt>
      <trkpt lat="48.0971" lon="7.68206">
        <ele>431.77</ele>
        <time>2015-06-24T13:37:38Z</time>
      </trkpt>
      <trkpt lat="48.09692" lon="7.68199">
        <ele>431.29</ele>
        <time>2015-06-24T13:37:55Z</time>
      </trkpt>
      <trkpt lat="48.09668" lon="7.68185">
        <ele>431.29</ele>
        <time>2015-06-24T13:38:16Z</time>
      </trkpt>
      <trkpt lat="48.09654" lon="7.68165">
        <ele>429.85</ele>
        <time>2015-06-24T13:38:33Z</time>
      </trkpt>
      <trkpt lat="48.09648" lon="7.68157">
        <ele>430.33</ele>
        <time>2015-06-24T13:38:40Z</time>
      </trkpt>
      <trkpt lat="48.0964" lon="7.68145">
        <ele>429.85</ele>
        <time>2015-06-24T13:38:48Z</time>
      </trkpt>
      <trkpt lat="48.09623" lon="7.68119">
        <ele>429.85</ele>
        <time>2015-06-24T13:39:08Z</time>
      </trkpt>
      <trkpt lat="48.09603" lon="7.681">
        <ele>428.89</ele>
        <time>2015-06-24T13:39:28Z</time>
      </trkpt>
      <trkpt lat="48.09581" lon="7.68089">
        <ele>428.4</ele>
        <time>2015-06-24T13:39:47Z</time>
      </trkpt>
      <trkpt lat="48.09562" lon="7.68077">
        <ele>429.85</ele>
        <time>2015-06-24T13:40:06Z</time>
      </trkpt>
      <trkpt lat="48.09559" lon="7.68072">
        <ele>430.81</ele>
        <time>2015-06-24T13:40:10Z</time>
      </trkpt>
      <trkpt lat="48.09549" lon="7.68053">
        <ele>431.77</ele>
        <time>2015-06-24T13:40:26Z</time>
      </trkpt>
      <trkpt lat="48.09544" lon="7.68037">
        <ele>431.77</ele>
        <time>2015-06-24T13:40:38Z</time>
      </trkpt>
      <trkpt lat="48.09543" lon="7.68032">
        <ele>431.77</ele>
        <time>2015-06-24T13:40:42Z</time>
      </trkpt>
      <trkpt lat="48.09541" lon="7.68004">
        <ele>431.77</ele>
        <time>2015-06-24T13:40:59Z</time>
      </trkpt>
      <trkpt lat="48.0954" lon="7.68002">
        <ele>431.77</ele>
        <time>2015-06-24T13:41:00Z</time>
      </trkpt>
      <trkpt lat="48.09539" lon="7.6798">
        <ele>432.73</ele>
        <time>2015-06-24T13:41:14Z</time>
      </trkpt>
      <trkpt lat="48.09536" lon="7.67959">
        <ele>434.65</ele>
        <time>2015-06-24T13:41:27Z</time>
      </trkpt>
      <trkpt lat="48.09534" lon="7.67945">
        <ele>435.61</ele>
        <time>2015-06-24T13:41:38Z</time>
      </trkpt>
      <trkpt lat="48.09535" lon="7.67923">
        <ele>434.65</ele>
        <time>2015-06-24T13:41:53Z</time>
      </trkpt>
      <trkpt lat="48.09535" lon="7.67921">
        <ele>434.17</ele>
        <time>2015-06-24T13:41:54Z</time>
      </trkpt>
      <trkpt lat="48.09537" lon="7.67915">
        <ele>433.21</ele>
        <time>2015-06-24T13:41:58Z</time>
      </trkpt>
      <trkpt lat="48.09533" lon="7.67891">
        <ele>431.29</ele>
        <time>2015-06-24T13:42:14Z</time>
      </trkpt>
      <trkpt lat="48.0953" lon="7.67872">
        <ele>427.92</ele>
        <time>2015-06-24T13:42:28Z</time>
      </trkpt>
      <trkpt lat="48.09522" lon="7.67849">
        <ele>424.08</ele>
        <time>2015-06-24T13:42:43Z</time>
      </trkpt>
      <trkpt lat="48.09508" lon="7.67835">
        <ele>421.68</ele>
        <time>2015-06-24T13:42:59Z</time>
      </trkpt>
      <trkpt lat="48.09492" lon="7.67824">
        <ele>418.79</ele>
        <time>2015-06-24T13:43:16Z</time>
      </trkpt>
      <trkpt lat="48.09471" lon="7.67808">
        <ele>417.35</ele>
        <time>2015-06-24T13:43:37Z</time>
      </trkpt>
      <trkpt lat="48.09458" lon="7.67797">
        <ele>416.87</ele>
        <time>2015-06-24T13:43:51Z</time>
      </trkpt>
      <trkpt lat="48.09442" lon="7.67775">
        <ele>417.35</ele>
        <time>2015-06-24T13:44:10Z</time>
      </trkpt>
      <trkpt lat="48.09433" lon="7.6775">
        <ele>416.39</ele>
        <time>2015-06-24T13:44:26Z</time>
      </trkpt>
      <trkpt lat="48.09425" lon="7.67715">
        <ele>414.95</ele>
        <time>2015-06-24T13:44:47Z</time>
      </trkpt>
      <trkpt lat="48.09425" lon="7.67702">
        <ele>412.06</ele>
        <time>2015-06-24T13:44:57Z</time>
      </trkpt>
      <trkpt lat="48.09421" lon="7.67691">
        <ele>408.22</ele>
        <time>2015-06-24T13:45:12Z</time>
      </trkpt>
      <trkpt lat="48.09418" lon="7.67677">
        <ele>404.85</ele>
        <time>2015-06-24T13:45:24Z</time>
      </trkpt>
      <trkpt lat="48.09413" lon="7.67664">
        <ele>401.97</ele>
        <time>2015-06-24T13:45:36Z</time>
      </trkpt>
      <trkpt lat="48.09409" lon="7.67659">
        <ele>399.57</ele>
        <time>2015-06-24T13:45:43Z</time>
      </trkpt>
      <trkpt lat="48.09403" lon="7.67647">
        <ele>395.72</ele>
        <time>2015-06-24T13:45:56Z</time>
      </trkpt>
      <trkpt lat="48.09399" lon="7.67636">
        <ele>392.84</ele>
        <time>2015-06-24T13:46:09Z</time>
      </trkpt>
      <trkpt lat="48.09395" lon="7.67625">
        <ele>389.47</ele>
        <time>2015-06-24T13:46:19Z</time>
      </trkpt>
      <trkpt lat="48.09392" lon="7.67618">
        <ele>387.55</ele>
        <time>2015-06-24T13:46:28Z</time>
      </trkpt>
      <trkpt lat="48.09389" lon="7.67608">
        <ele>384.18</ele>
        <time>2015-06-24T13:46:39Z</time>
      </trkpt>
      <trkpt lat="48.09385" lon="7.67597">
        <ele>380.82</ele>
        <time>2015-06-24T13:46:49Z</time>
      </trkpt>
      <trkpt lat="48.09384" lon="7.67594">
        <ele>380.34</ele>
        <time>2015-06-24T13:46:52Z</time>
      </trkpt>
      <trkpt lat="48.0938" lon="7.67585">
        <ele>378.42</ele>
        <time>2015-06-24T13:46:59Z</time>
      </trkpt>
      <trkpt lat="48.09374" lon="7.67574">
        <ele>374.57</ele>
        <time>2015-06-24T13:47:11Z</time>
      </trkpt>
      <trkpt lat="48.0937" lon="7.67566">
        <ele>372.17</ele>
        <time>2015-06-24T13:47:19Z</time>
      </trkpt>
      <trkpt lat="48.09367" lon="7.67555">
        <ele>368.8</ele>
        <time>2015-06-24T13:47:30Z</time>
      </trkpt>
      <trkpt lat="48.09365" lon="7.67545">
        <ele>365.92</ele>
        <time>2015-06-24T13:47:40Z</time>
      </trkpt>
      <trkpt lat="48.0936" lon="7.67534">
        <ele>362.55</ele>
        <time>2015-06-24T13:47:52Z</time>
      </trkpt>
      <trkpt lat="48.09356" lon="7.67522">
        <ele>359.19</ele>
        <time>2015-06-24T13:48:03Z</time>
      </trkpt>
      <trkpt lat="48.09349" lon="7.6751">
        <ele>356.31</ele>
        <time>2015-06-24T13:48:17Z</time>
      </trkpt>
      <trkpt lat="48.09349" lon="7.67508">
        <ele>355.34</ele>
        <time>2015-06-24T13:48:20Z</time>
      </trkpt>
      <trkpt lat="48.09342" lon="7.67494">
        <ele>351.98</ele>
        <time>2015-06-24T13:48:30Z</time>
      </trkpt>
      <trkpt lat="48.09334" lon="7.67484">
        <ele>349.1</ele>
        <time>2015-06-24T13:48:42Z</time>
      </trkpt>
      <trkpt lat="48.09331" lon="7.67474">
        <ele>345.73</ele>
        <time>2015-06-24T13:48:53Z</time>
      </trkpt>
      <trkpt lat="48.09327" lon="7.67461">
        <ele>343.33</ele>
        <time>2015-06-24T13:49:03Z</time>
      </trkpt>
      <trkpt lat="48.09327" lon="7.67444">
        <ele>340.44</ele>
        <time>2015-06-24T13:49:17Z</time>
      </trkpt>
      <trkpt lat="48.09327" lon="7.67442">
        <ele>339</ele>
        <time>2015-06-24T13:49:33Z</time>
      </trkpt>
      <trkpt lat="48.09329" lon="7.67441">
        <ele>339</ele>
        <time>2015-06-24T13:51:05Z</time>
      </trkpt>
      <trkpt lat="48.0933" lon="7.6744">
        <ele>339.48</ele>
        <time>2015-06-24T13:52:17Z</time>
      </trkpt>
      <trkpt lat="48.09331" lon="7.67438">
        <ele>338.52</ele>
        <time>2015-06-24T13:53:02Z</time>
      </trkpt>
      <trkpt lat="48.09333" lon="7.67434">
        <ele>337.08</ele>
        <time>2015-06-24T13:53:05Z</time>
      </trkpt>
      <trkpt lat="48.0934" lon="7.67423">
        <ele>334.2</ele>
        <time>2015-06-24T13:53:17Z</time>
      </trkpt>
      <trkpt lat="48.0935" lon="7.67418">
        <ele>332.27</ele>
        <time>2015-06-24T13:53:37Z</time>
      </trkpt>
      <trkpt lat="48.09363" lon="7.6741">
        <ele>328.91</ele>
        <time>2015-06-24T13:53:54Z</time>
      </trkpt>
      <trkpt lat="48.09365" lon="7.67396">
        <ele>325.54</ele>
        <time>2015-06-24T13:54:07Z</time>
      </trkpt>
      <trkpt lat="48.09362" lon="7.67389">
        <ele>322.18</ele>
        <time>2015-06-24T13:54:20Z</time>
      </trkpt>
      <trkpt lat="48.09355" lon="7.67382">
        <ele>319.3</ele>
        <time>2015-06-24T13:54:30Z</time>
      </trkpt>
      <trkpt lat="48.09353" lon="7.67381">
        <ele>315.93</ele>
        <time>2015-06-24T13:54:44Z</time>
      </trkpt>
      <trkpt lat="48.09344" lon="7.67375">
        <ele>313.05</ele>
        <time>2015-06-24T13:54:59Z</time>
      </trkpt>
      <trkpt lat="48.09333" lon="7.67367">
        <ele>311.12</ele>
        <time>2015-06-24T13:55:16Z</time>
      </trkpt>
      <trkpt lat="48.09319" lon="7.67359">
        <ele>307.76</ele>
        <time>2015-06-24T13:55:31Z</time>
      </trkpt>
      <trkpt lat="48.09302" lon="7.67352">
        <ele>304.88</ele>
        <time>2015-06-24T13:55:45Z</time>
      </trkpt>
      <trkpt lat="48.09287" lon="7.67353">
        <ele>302.47</ele>
        <time>2015-06-24T13:56:02Z</time>
      </trkpt>
      <trkpt lat="48.09274" lon="7.67354">
        <ele>301.51</ele>
        <time>2015-06-24T13:56:18Z</time>
      </trkpt>
      <trkpt lat="48.09274" lon="7.67334">
        <ele>301.99</ele>
        <time>2015-06-24T13:56:35Z</time>
      </trkpt>
      <trkpt lat="48.09275" lon="7.67336">
        <ele>301.99</ele>
        <time>2015-06-24T13:56:37Z</time>
      </trkpt>
      <trkpt lat="48.0927" lon="7.67335">
        <ele>300.55</ele>
        <time>2015-06-24T13:56:57Z</time>
      </trkpt>
      <trkpt lat="48.09259" lon="7.67327">
        <ele>296.7</ele>
        <time>2015-06-24T13:57:11Z</time>
      </trkpt>
      <trkpt lat="48.09245" lon="7.67327">
        <ele>294.78</ele>
        <time>2015-06-24T13:57:31Z</time>
      </trkpt>
      <trkpt lat="48.0924" lon="7.67318">
        <ele>294.78</ele>
        <time>2015-06-24T13:57:46Z</time>
      </trkpt>
      <trkpt lat="48.0924" lon="7.67314">
        <ele>293.82</ele>
        <time>2015-06-24T13:58:01Z</time>
      </trkpt>
      <trkpt lat="48.0924" lon="7.67315">
        <ele>294.3</ele>
        <time>2015-06-24T13:58:28Z</time>
      </trkpt>
    </trkseg>
  </trk>
</gpx>